<?xml version="1.0" encoding="UTF-8" standalone="no" ?>
<gpx xmlns="http://www.topografix.com/GPX/1/1" xmlns:xsi="http://www.w3.org/2001/XMLSchema-instance" xsi:schemaLocation="http://www.topografix.com/GPX/1/1 http://www.topografix.com/GPX/1/1/gpx.xsd" version="1.1" creator="VisuGPX - https://www.visugpx.com">
  <metadata>
    <name>Valempoulières</name>
  </metadata>
  <trk>
    <name><![CDATA[saved]]></name>
    <trkseg>
      <trkpt lat="46.82242" lon="5.86679">
        <ele>649.1</ele>
        <time>2021-01-08T12:39:05Z</time>
      </trkpt>
      <trkpt lat="46.82242" lon="5.86679">
        <ele>649.1</ele>
        <time>2021-01-08T12:39:05Z</time>
      </trkpt>
      <trkpt lat="46.82241" lon="5.86686">
        <ele>650.3</ele>
        <time>2021-01-08T12:41:13Z</time>
      </trkpt>
      <trkpt lat="46.8224" lon="5.86693">
        <ele>649.9</ele>
        <time>2021-01-08T12:41:18Z</time>
      </trkpt>
      <trkpt lat="46.82238" lon="5.867">
        <ele>649.7</ele>
        <time>2021-01-08T12:41:23Z</time>
      </trkpt>
      <trkpt lat="46.82234" lon="5.86706">
        <ele>650.1</ele>
        <time>2021-01-08T12:41:29Z</time>
      </trkpt>
      <trkpt lat="46.8223" lon="5.86711">
        <ele>650.7</ele>
        <time>2021-01-08T12:41:34Z</time>
      </trkpt>
      <trkpt lat="46.82227" lon="5.86716">
        <ele>651.6</ele>
        <time>2021-01-08T12:41:39Z</time>
      </trkpt>
      <trkpt lat="46.82223" lon="5.8672">
        <ele>652.6</ele>
        <time>2021-01-08T12:41:44Z</time>
      </trkpt>
      <trkpt lat="46.82219" lon="5.86721">
        <ele>652.9</ele>
        <time>2021-01-08T12:41:49Z</time>
      </trkpt>
      <trkpt lat="46.82214" lon="5.86723">
        <ele>652.4</ele>
        <time>2021-01-08T12:41:54Z</time>
      </trkpt>
      <trkpt lat="46.82208" lon="5.86724">
        <ele>652</ele>
        <time>2021-01-08T12:41:59Z</time>
      </trkpt>
      <trkpt lat="46.82203" lon="5.86723">
        <ele>651.8</ele>
        <time>2021-01-08T12:42:04Z</time>
      </trkpt>
      <trkpt lat="46.82198" lon="5.86723">
        <ele>651.7</ele>
        <time>2021-01-08T12:42:10Z</time>
      </trkpt>
      <trkpt lat="46.82193" lon="5.86723">
        <ele>651.7</ele>
        <time>2021-01-08T12:42:15Z</time>
      </trkpt>
      <trkpt lat="46.82188" lon="5.86724">
        <ele>651.6</ele>
        <time>2021-01-08T12:42:21Z</time>
      </trkpt>
      <trkpt lat="46.82184" lon="5.86721">
        <ele>651.6</ele>
        <time>2021-01-08T12:42:26Z</time>
      </trkpt>
      <trkpt lat="46.82178" lon="5.86718">
        <ele>651.1</ele>
        <time>2021-01-08T12:42:31Z</time>
      </trkpt>
      <trkpt lat="46.82174" lon="5.86714">
        <ele>650.4</ele>
        <time>2021-01-08T12:42:36Z</time>
      </trkpt>
      <trkpt lat="46.82169" lon="5.86712">
        <ele>649.5</ele>
        <time>2021-01-08T12:42:41Z</time>
      </trkpt>
      <trkpt lat="46.82163" lon="5.86709">
        <ele>648.7</ele>
        <time>2021-01-08T12:42:46Z</time>
      </trkpt>
      <trkpt lat="46.82158" lon="5.86706">
        <ele>648.2</ele>
        <time>2021-01-08T12:42:51Z</time>
      </trkpt>
      <trkpt lat="46.82153" lon="5.86702">
        <ele>647.9</ele>
        <time>2021-01-08T12:42:56Z</time>
      </trkpt>
      <trkpt lat="46.82148" lon="5.86699">
        <ele>647.8</ele>
        <time>2021-01-08T12:43:01Z</time>
      </trkpt>
      <trkpt lat="46.82143" lon="5.86698">
        <ele>648.1</ele>
        <time>2021-01-08T12:43:06Z</time>
      </trkpt>
      <trkpt lat="46.82138" lon="5.86695">
        <ele>648.2</ele>
        <time>2021-01-08T12:43:11Z</time>
      </trkpt>
      <trkpt lat="46.82133" lon="5.86694">
        <ele>648.3</ele>
        <time>2021-01-08T12:43:16Z</time>
      </trkpt>
      <trkpt lat="46.82128" lon="5.86693">
        <ele>648.3</ele>
        <time>2021-01-08T12:43:21Z</time>
      </trkpt>
      <trkpt lat="46.82124" lon="5.86693">
        <ele>648.1</ele>
        <time>2021-01-08T12:43:26Z</time>
      </trkpt>
      <trkpt lat="46.82117" lon="5.86693">
        <ele>648</ele>
        <time>2021-01-08T12:43:31Z</time>
      </trkpt>
      <trkpt lat="46.82111" lon="5.86694">
        <ele>648</ele>
        <time>2021-01-08T12:43:36Z</time>
      </trkpt>
      <trkpt lat="46.82105" lon="5.86696">
        <ele>648.5</ele>
        <time>2021-01-08T12:43:41Z</time>
      </trkpt>
      <trkpt lat="46.82099" lon="5.86696">
        <ele>649.2</ele>
        <time>2021-01-08T12:43:46Z</time>
      </trkpt>
      <trkpt lat="46.82093" lon="5.86697">
        <ele>649.2</ele>
        <time>2021-01-08T12:43:51Z</time>
      </trkpt>
      <trkpt lat="46.82087" lon="5.86697">
        <ele>649.1</ele>
        <time>2021-01-08T12:43:56Z</time>
      </trkpt>
      <trkpt lat="46.82082" lon="5.86695">
        <ele>649.1</ele>
        <time>2021-01-08T12:44:01Z</time>
      </trkpt>
      <trkpt lat="46.82078" lon="5.86694">
        <ele>649.2</ele>
        <time>2021-01-08T12:44:06Z</time>
      </trkpt>
      <trkpt lat="46.82071" lon="5.86693">
        <ele>649.5</ele>
        <time>2021-01-08T12:44:11Z</time>
      </trkpt>
      <trkpt lat="46.82065" lon="5.86693">
        <ele>650.3</ele>
        <time>2021-01-08T12:44:16Z</time>
      </trkpt>
      <trkpt lat="46.8206" lon="5.86691">
        <ele>650.7</ele>
        <time>2021-01-08T12:44:21Z</time>
      </trkpt>
      <trkpt lat="46.82053" lon="5.86691">
        <ele>650.8</ele>
        <time>2021-01-08T12:44:26Z</time>
      </trkpt>
      <trkpt lat="46.82048" lon="5.86689">
        <ele>650.6</ele>
        <time>2021-01-08T12:44:31Z</time>
      </trkpt>
      <trkpt lat="46.82043" lon="5.86687">
        <ele>650.1</ele>
        <time>2021-01-08T12:44:36Z</time>
      </trkpt>
      <trkpt lat="46.82038" lon="5.86687">
        <ele>650.2</ele>
        <time>2021-01-08T12:44:41Z</time>
      </trkpt>
      <trkpt lat="46.82033" lon="5.86686">
        <ele>650.6</ele>
        <time>2021-01-08T12:44:46Z</time>
      </trkpt>
      <trkpt lat="46.82029" lon="5.86681">
        <ele>651</ele>
        <time>2021-01-08T12:44:51Z</time>
      </trkpt>
      <trkpt lat="46.82027" lon="5.86675">
        <ele>650.9</ele>
        <time>2021-01-08T12:44:56Z</time>
      </trkpt>
      <trkpt lat="46.82025" lon="5.86669">
        <ele>650.4</ele>
        <time>2021-01-08T12:45:03Z</time>
      </trkpt>
      <trkpt lat="46.82022" lon="5.86662">
        <ele>649</ele>
        <time>2021-01-08T12:45:10Z</time>
      </trkpt>
      <trkpt lat="46.82022" lon="5.86654">
        <ele>648.3</ele>
        <time>2021-01-08T12:45:15Z</time>
      </trkpt>
      <trkpt lat="46.82021" lon="5.86647">
        <ele>647.8</ele>
        <time>2021-01-08T12:45:20Z</time>
      </trkpt>
      <trkpt lat="46.82021" lon="5.8664">
        <ele>648</ele>
        <time>2021-01-08T12:45:25Z</time>
      </trkpt>
      <trkpt lat="46.82019" lon="5.86632">
        <ele>648.6</ele>
        <time>2021-01-08T12:45:30Z</time>
      </trkpt>
      <trkpt lat="46.82017" lon="5.86624">
        <ele>649.8</ele>
        <time>2021-01-08T12:45:35Z</time>
      </trkpt>
      <trkpt lat="46.82015" lon="5.86616">
        <ele>651.5</ele>
        <time>2021-01-08T12:45:40Z</time>
      </trkpt>
      <trkpt lat="46.82017" lon="5.86623">
        <ele>651.7</ele>
        <time>2021-01-08T12:46:28Z</time>
      </trkpt>
      <trkpt lat="46.82018" lon="5.86634">
        <ele>652.3</ele>
        <time>2021-01-08T12:46:33Z</time>
      </trkpt>
      <trkpt lat="46.8202" lon="5.86642">
        <ele>653.7</ele>
        <time>2021-01-08T12:46:38Z</time>
      </trkpt>
      <trkpt lat="46.82021" lon="5.86649">
        <ele>654.9</ele>
        <time>2021-01-08T12:46:43Z</time>
      </trkpt>
      <trkpt lat="46.82022" lon="5.86657">
        <ele>655.6</ele>
        <time>2021-01-08T12:46:48Z</time>
      </trkpt>
      <trkpt lat="46.82022" lon="5.86665">
        <ele>655.6</ele>
        <time>2021-01-08T12:46:53Z</time>
      </trkpt>
      <trkpt lat="46.82022" lon="5.86672">
        <ele>655.2</ele>
        <time>2021-01-08T12:46:58Z</time>
      </trkpt>
      <trkpt lat="46.82021" lon="5.86679">
        <ele>654.5</ele>
        <time>2021-01-08T12:47:03Z</time>
      </trkpt>
      <trkpt lat="46.82018" lon="5.86686">
        <ele>653.8</ele>
        <time>2021-01-08T12:47:08Z</time>
      </trkpt>
      <trkpt lat="46.82014" lon="5.86691">
        <ele>653.5</ele>
        <time>2021-01-08T12:47:14Z</time>
      </trkpt>
      <trkpt lat="46.8201" lon="5.86689">
        <ele>652.4</ele>
        <time>2021-01-08T12:47:20Z</time>
      </trkpt>
      <trkpt lat="46.82005" lon="5.86688">
        <ele>650.1</ele>
        <time>2021-01-08T12:47:26Z</time>
      </trkpt>
      <trkpt lat="46.82" lon="5.86688">
        <ele>648.3</ele>
        <time>2021-01-08T12:47:31Z</time>
      </trkpt>
      <trkpt lat="46.81995" lon="5.8669">
        <ele>647.4</ele>
        <time>2021-01-08T12:47:36Z</time>
      </trkpt>
      <trkpt lat="46.81989" lon="5.86691">
        <ele>647.4</ele>
        <time>2021-01-08T12:47:41Z</time>
      </trkpt>
      <trkpt lat="46.81985" lon="5.86689">
        <ele>646.7</ele>
        <time>2021-01-08T12:47:47Z</time>
      </trkpt>
      <trkpt lat="46.8198" lon="5.86689">
        <ele>646.8</ele>
        <time>2021-01-08T12:47:54Z</time>
      </trkpt>
      <trkpt lat="46.81975" lon="5.86691">
        <ele>647.8</ele>
        <time>2021-01-08T12:47:59Z</time>
      </trkpt>
      <trkpt lat="46.81969" lon="5.86695">
        <ele>648.7</ele>
        <time>2021-01-08T12:48:04Z</time>
      </trkpt>
      <trkpt lat="46.81964" lon="5.867">
        <ele>650</ele>
        <time>2021-01-08T12:48:09Z</time>
      </trkpt>
      <trkpt lat="46.81959" lon="5.86705">
        <ele>651.9</ele>
        <time>2021-01-08T12:48:14Z</time>
      </trkpt>
      <trkpt lat="46.81955" lon="5.8671">
        <ele>653.9</ele>
        <time>2021-01-08T12:48:20Z</time>
      </trkpt>
      <trkpt lat="46.81951" lon="5.86713">
        <ele>655.9</ele>
        <time>2021-01-08T12:48:27Z</time>
      </trkpt>
      <trkpt lat="46.81947" lon="5.86717">
        <ele>657</ele>
        <time>2021-01-08T12:48:32Z</time>
      </trkpt>
      <trkpt lat="46.81943" lon="5.86722">
        <ele>657.3</ele>
        <time>2021-01-08T12:48:38Z</time>
      </trkpt>
      <trkpt lat="46.81939" lon="5.86726">
        <ele>656.8</ele>
        <time>2021-01-08T12:48:44Z</time>
      </trkpt>
      <trkpt lat="46.81935" lon="5.86731">
        <ele>656.2</ele>
        <time>2021-01-08T12:48:50Z</time>
      </trkpt>
      <trkpt lat="46.81931" lon="5.86735">
        <ele>655.7</ele>
        <time>2021-01-08T12:48:56Z</time>
      </trkpt>
      <trkpt lat="46.81926" lon="5.86738">
        <ele>655.4</ele>
        <time>2021-01-08T12:49:02Z</time>
      </trkpt>
      <trkpt lat="46.81923" lon="5.86745">
        <ele>655.7</ele>
        <time>2021-01-08T12:49:21Z</time>
      </trkpt>
      <trkpt lat="46.81918" lon="5.86748">
        <ele>655.6</ele>
        <time>2021-01-08T12:49:26Z</time>
      </trkpt>
      <trkpt lat="46.81913" lon="5.8675">
        <ele>655.9</ele>
        <time>2021-01-08T12:49:32Z</time>
      </trkpt>
      <trkpt lat="46.81908" lon="5.86752">
        <ele>655.7</ele>
        <time>2021-01-08T12:49:38Z</time>
      </trkpt>
      <trkpt lat="46.81904" lon="5.86754">
        <ele>655.3</ele>
        <time>2021-01-08T12:49:44Z</time>
      </trkpt>
      <trkpt lat="46.81898" lon="5.86756">
        <ele>654.9</ele>
        <time>2021-01-08T12:49:50Z</time>
      </trkpt>
      <trkpt lat="46.81893" lon="5.86758">
        <ele>654.5</ele>
        <time>2021-01-08T12:49:56Z</time>
      </trkpt>
      <trkpt lat="46.81889" lon="5.86759">
        <ele>654.5</ele>
        <time>2021-01-08T12:50:01Z</time>
      </trkpt>
      <trkpt lat="46.81884" lon="5.86761">
        <ele>654.3</ele>
        <time>2021-01-08T12:50:07Z</time>
      </trkpt>
      <trkpt lat="46.81879" lon="5.86763">
        <ele>654.2</ele>
        <time>2021-01-08T12:50:12Z</time>
      </trkpt>
      <trkpt lat="46.81874" lon="5.86765">
        <ele>654.1</ele>
        <time>2021-01-08T12:50:17Z</time>
      </trkpt>
      <trkpt lat="46.8187" lon="5.86767">
        <ele>653.9</ele>
        <time>2021-01-08T12:50:22Z</time>
      </trkpt>
      <trkpt lat="46.81865" lon="5.86769">
        <ele>654</ele>
        <time>2021-01-08T12:50:27Z</time>
      </trkpt>
      <trkpt lat="46.8186" lon="5.86771">
        <ele>654.5</ele>
        <time>2021-01-08T12:50:33Z</time>
      </trkpt>
      <trkpt lat="46.81856" lon="5.86774">
        <ele>654.7</ele>
        <time>2021-01-08T12:50:38Z</time>
      </trkpt>
      <trkpt lat="46.81851" lon="5.86775">
        <ele>654.8</ele>
        <time>2021-01-08T12:50:44Z</time>
      </trkpt>
      <trkpt lat="46.81847" lon="5.86777">
        <ele>654.3</ele>
        <time>2021-01-08T12:50:49Z</time>
      </trkpt>
      <trkpt lat="46.81842" lon="5.86778">
        <ele>653.4</ele>
        <time>2021-01-08T12:50:55Z</time>
      </trkpt>
      <trkpt lat="46.81837" lon="5.86779">
        <ele>653</ele>
        <time>2021-01-08T12:51:00Z</time>
      </trkpt>
      <trkpt lat="46.81832" lon="5.86781">
        <ele>653.2</ele>
        <time>2021-01-08T12:51:05Z</time>
      </trkpt>
      <trkpt lat="46.81827" lon="5.86782">
        <ele>653.4</ele>
        <time>2021-01-08T12:51:11Z</time>
      </trkpt>
      <trkpt lat="46.81822" lon="5.86782">
        <ele>653.3</ele>
        <time>2021-01-08T12:51:17Z</time>
      </trkpt>
      <trkpt lat="46.81817" lon="5.86784">
        <ele>653.7</ele>
        <time>2021-01-08T12:51:24Z</time>
      </trkpt>
      <trkpt lat="46.81811" lon="5.86783">
        <ele>652.8</ele>
        <time>2021-01-08T12:51:30Z</time>
      </trkpt>
      <trkpt lat="46.81807" lon="5.86784">
        <ele>652</ele>
        <time>2021-01-08T12:51:35Z</time>
      </trkpt>
      <trkpt lat="46.81802" lon="5.86785">
        <ele>652.3</ele>
        <time>2021-01-08T12:51:41Z</time>
      </trkpt>
      <trkpt lat="46.81797" lon="5.86786">
        <ele>653.5</ele>
        <time>2021-01-08T12:51:46Z</time>
      </trkpt>
      <trkpt lat="46.81792" lon="5.86786">
        <ele>654.2</ele>
        <time>2021-01-08T12:51:52Z</time>
      </trkpt>
      <trkpt lat="46.81787" lon="5.86787">
        <ele>653.8</ele>
        <time>2021-01-08T12:51:58Z</time>
      </trkpt>
      <trkpt lat="46.81783" lon="5.86789">
        <ele>653.1</ele>
        <time>2021-01-08T12:52:04Z</time>
      </trkpt>
      <trkpt lat="46.81778" lon="5.86791">
        <ele>652.3</ele>
        <time>2021-01-08T12:52:09Z</time>
      </trkpt>
      <trkpt lat="46.81773" lon="5.86793">
        <ele>651.7</ele>
        <time>2021-01-08T12:52:15Z</time>
      </trkpt>
      <trkpt lat="46.81768" lon="5.86794">
        <ele>651.6</ele>
        <time>2021-01-08T12:52:20Z</time>
      </trkpt>
      <trkpt lat="46.81763" lon="5.86797">
        <ele>651.6</ele>
        <time>2021-01-08T12:52:25Z</time>
      </trkpt>
      <trkpt lat="46.81758" lon="5.86796">
        <ele>652.8</ele>
        <time>2021-01-08T12:52:37Z</time>
      </trkpt>
      <trkpt lat="46.81754" lon="5.86799">
        <ele>653.3</ele>
        <time>2021-01-08T12:52:43Z</time>
      </trkpt>
      <trkpt lat="46.8175" lon="5.86801">
        <ele>653.9</ele>
        <time>2021-01-08T12:52:48Z</time>
      </trkpt>
      <trkpt lat="46.81745" lon="5.86804">
        <ele>654.3</ele>
        <time>2021-01-08T12:52:54Z</time>
      </trkpt>
      <trkpt lat="46.81741" lon="5.86805">
        <ele>654.1</ele>
        <time>2021-01-08T12:52:59Z</time>
      </trkpt>
      <trkpt lat="46.81736" lon="5.86807">
        <ele>653.7</ele>
        <time>2021-01-08T12:53:04Z</time>
      </trkpt>
      <trkpt lat="46.81731" lon="5.8681">
        <ele>653.1</ele>
        <time>2021-01-08T12:53:09Z</time>
      </trkpt>
      <trkpt lat="46.81726" lon="5.86811">
        <ele>652.3</ele>
        <time>2021-01-08T12:53:14Z</time>
      </trkpt>
      <trkpt lat="46.81722" lon="5.86812">
        <ele>651.8</ele>
        <time>2021-01-08T12:53:19Z</time>
      </trkpt>
      <trkpt lat="46.81717" lon="5.86813">
        <ele>651.7</ele>
        <time>2021-01-08T12:53:24Z</time>
      </trkpt>
      <trkpt lat="46.81712" lon="5.86814">
        <ele>651.5</ele>
        <time>2021-01-08T12:53:30Z</time>
      </trkpt>
      <trkpt lat="46.81707" lon="5.86815">
        <ele>652.1</ele>
        <time>2021-01-08T12:53:49Z</time>
      </trkpt>
      <trkpt lat="46.81703" lon="5.86816">
        <ele>652.4</ele>
        <time>2021-01-08T12:53:56Z</time>
      </trkpt>
      <trkpt lat="46.81698" lon="5.86817">
        <ele>652.5</ele>
        <time>2021-01-08T12:54:01Z</time>
      </trkpt>
      <trkpt lat="46.81694" lon="5.86819">
        <ele>652.6</ele>
        <time>2021-01-08T12:54:06Z</time>
      </trkpt>
      <trkpt lat="46.81689" lon="5.8682">
        <ele>652.5</ele>
        <time>2021-01-08T12:54:11Z</time>
      </trkpt>
      <trkpt lat="46.81684" lon="5.86821">
        <ele>652.4</ele>
        <time>2021-01-08T12:54:17Z</time>
      </trkpt>
      <trkpt lat="46.8168" lon="5.86823">
        <ele>651.8</ele>
        <time>2021-01-08T12:54:28Z</time>
      </trkpt>
      <trkpt lat="46.81675" lon="5.86825">
        <ele>651.8</ele>
        <time>2021-01-08T12:54:33Z</time>
      </trkpt>
      <trkpt lat="46.81671" lon="5.86826">
        <ele>651.9</ele>
        <time>2021-01-08T12:54:38Z</time>
      </trkpt>
      <trkpt lat="46.81666" lon="5.86827">
        <ele>651.9</ele>
        <time>2021-01-08T12:54:44Z</time>
      </trkpt>
      <trkpt lat="46.81661" lon="5.86829">
        <ele>651.6</ele>
        <time>2021-01-08T12:54:49Z</time>
      </trkpt>
      <trkpt lat="46.81657" lon="5.86831">
        <ele>651.3</ele>
        <time>2021-01-08T12:54:55Z</time>
      </trkpt>
      <trkpt lat="46.81652" lon="5.86833">
        <ele>651.1</ele>
        <time>2021-01-08T12:55:00Z</time>
      </trkpt>
      <trkpt lat="46.81646" lon="5.86834">
        <ele>651.1</ele>
        <time>2021-01-08T12:55:05Z</time>
      </trkpt>
      <trkpt lat="46.81642" lon="5.86834">
        <ele>650.8</ele>
        <time>2021-01-08T12:55:10Z</time>
      </trkpt>
      <trkpt lat="46.81637" lon="5.86834">
        <ele>650.4</ele>
        <time>2021-01-08T12:55:16Z</time>
      </trkpt>
      <trkpt lat="46.81632" lon="5.86834">
        <ele>650.2</ele>
        <time>2021-01-08T12:55:21Z</time>
      </trkpt>
      <trkpt lat="46.81627" lon="5.86834">
        <ele>650.3</ele>
        <time>2021-01-08T12:55:26Z</time>
      </trkpt>
      <trkpt lat="46.81623" lon="5.86832">
        <ele>650.2</ele>
        <time>2021-01-08T12:55:31Z</time>
      </trkpt>
      <trkpt lat="46.81618" lon="5.86832">
        <ele>650.1</ele>
        <time>2021-01-08T12:55:36Z</time>
      </trkpt>
      <trkpt lat="46.81613" lon="5.86831">
        <ele>649.7</ele>
        <time>2021-01-08T12:55:41Z</time>
      </trkpt>
      <trkpt lat="46.81607" lon="5.86831">
        <ele>649.5</ele>
        <time>2021-01-08T12:55:46Z</time>
      </trkpt>
      <trkpt lat="46.81603" lon="5.8683">
        <ele>649.1</ele>
        <time>2021-01-08T12:55:51Z</time>
      </trkpt>
      <trkpt lat="46.81599" lon="5.86835">
        <ele>648.7</ele>
        <time>2021-01-08T12:56:46Z</time>
      </trkpt>
      <trkpt lat="46.81595" lon="5.8684">
        <ele>649</ele>
        <time>2021-01-08T12:56:51Z</time>
      </trkpt>
      <trkpt lat="46.81589" lon="5.86842">
        <ele>649.2</ele>
        <time>2021-01-08T12:56:56Z</time>
      </trkpt>
      <trkpt lat="46.81583" lon="5.86844">
        <ele>649.4</ele>
        <time>2021-01-08T12:57:01Z</time>
      </trkpt>
      <trkpt lat="46.81578" lon="5.86846">
        <ele>649.6</ele>
        <time>2021-01-08T12:57:06Z</time>
      </trkpt>
      <trkpt lat="46.81574" lon="5.86848">
        <ele>649.7</ele>
        <time>2021-01-08T12:57:11Z</time>
      </trkpt>
      <trkpt lat="46.81569" lon="5.8685">
        <ele>649.8</ele>
        <time>2021-01-08T12:57:16Z</time>
      </trkpt>
      <trkpt lat="46.81565" lon="5.86852">
        <ele>649.9</ele>
        <time>2021-01-08T12:57:21Z</time>
      </trkpt>
      <trkpt lat="46.8156" lon="5.86855">
        <ele>649.9</ele>
        <time>2021-01-08T12:57:26Z</time>
      </trkpt>
      <trkpt lat="46.81555" lon="5.86858">
        <ele>649.9</ele>
        <time>2021-01-08T12:57:32Z</time>
      </trkpt>
      <trkpt lat="46.81551" lon="5.86861">
        <ele>649.5</ele>
        <time>2021-01-08T12:57:37Z</time>
      </trkpt>
      <trkpt lat="46.81547" lon="5.86865">
        <ele>649</ele>
        <time>2021-01-08T12:57:42Z</time>
      </trkpt>
      <trkpt lat="46.81543" lon="5.86869">
        <ele>648.5</ele>
        <time>2021-01-08T12:57:48Z</time>
      </trkpt>
      <trkpt lat="46.81539" lon="5.86873">
        <ele>648.4</ele>
        <time>2021-01-08T12:57:54Z</time>
      </trkpt>
      <trkpt lat="46.81535" lon="5.86877">
        <ele>648.3</ele>
        <time>2021-01-08T12:57:59Z</time>
      </trkpt>
      <trkpt lat="46.8153" lon="5.8688">
        <ele>647.9</ele>
        <time>2021-01-08T12:58:04Z</time>
      </trkpt>
      <trkpt lat="46.81525" lon="5.86882">
        <ele>647.7</ele>
        <time>2021-01-08T12:58:09Z</time>
      </trkpt>
      <trkpt lat="46.81521" lon="5.86883">
        <ele>647.7</ele>
        <time>2021-01-08T12:58:14Z</time>
      </trkpt>
      <trkpt lat="46.81516" lon="5.86882">
        <ele>648</ele>
        <time>2021-01-08T12:58:20Z</time>
      </trkpt>
      <trkpt lat="46.81511" lon="5.8688">
        <ele>648.3</ele>
        <time>2021-01-08T12:58:25Z</time>
      </trkpt>
      <trkpt lat="46.81507" lon="5.86876">
        <ele>648.8</ele>
        <time>2021-01-08T12:58:31Z</time>
      </trkpt>
      <trkpt lat="46.81502" lon="5.86873">
        <ele>648.9</ele>
        <time>2021-01-08T12:58:37Z</time>
      </trkpt>
      <trkpt lat="46.81498" lon="5.86868">
        <ele>648.7</ele>
        <time>2021-01-08T12:58:43Z</time>
      </trkpt>
      <trkpt lat="46.81494" lon="5.86864">
        <ele>648.3</ele>
        <time>2021-01-08T12:58:48Z</time>
      </trkpt>
      <trkpt lat="46.81489" lon="5.8686">
        <ele>647.9</ele>
        <time>2021-01-08T12:58:53Z</time>
      </trkpt>
      <trkpt lat="46.81485" lon="5.86856">
        <ele>647.5</ele>
        <time>2021-01-08T12:58:58Z</time>
      </trkpt>
      <trkpt lat="46.81481" lon="5.86852">
        <ele>647.4</ele>
        <time>2021-01-08T12:59:03Z</time>
      </trkpt>
      <trkpt lat="46.81477" lon="5.86848">
        <ele>647.2</ele>
        <time>2021-01-08T12:59:09Z</time>
      </trkpt>
      <trkpt lat="46.81474" lon="5.86844">
        <ele>647</ele>
        <time>2021-01-08T12:59:15Z</time>
      </trkpt>
      <trkpt lat="46.8147" lon="5.86839">
        <ele>647.1</ele>
        <time>2021-01-08T12:59:20Z</time>
      </trkpt>
      <trkpt lat="46.81467" lon="5.86834">
        <ele>647.2</ele>
        <time>2021-01-08T12:59:26Z</time>
      </trkpt>
      <trkpt lat="46.81463" lon="5.86829">
        <ele>647.4</ele>
        <time>2021-01-08T12:59:32Z</time>
      </trkpt>
      <trkpt lat="46.8146" lon="5.86823">
        <ele>647.5</ele>
        <time>2021-01-08T12:59:38Z</time>
      </trkpt>
      <trkpt lat="46.81457" lon="5.86818">
        <ele>647.5</ele>
        <time>2021-01-08T12:59:44Z</time>
      </trkpt>
      <trkpt lat="46.81455" lon="5.86812">
        <ele>647.5</ele>
        <time>2021-01-08T12:59:49Z</time>
      </trkpt>
      <trkpt lat="46.81452" lon="5.86806">
        <ele>647.3</ele>
        <time>2021-01-08T12:59:55Z</time>
      </trkpt>
      <trkpt lat="46.81449" lon="5.86801">
        <ele>647.3</ele>
        <time>2021-01-08T13:00:00Z</time>
      </trkpt>
      <trkpt lat="46.81447" lon="5.86796">
        <ele>647.3</ele>
        <time>2021-01-08T13:00:05Z</time>
      </trkpt>
      <trkpt lat="46.81444" lon="5.86789">
        <ele>647.5</ele>
        <time>2021-01-08T13:00:10Z</time>
      </trkpt>
      <trkpt lat="46.81441" lon="5.86784">
        <ele>647.8</ele>
        <time>2021-01-08T13:00:15Z</time>
      </trkpt>
      <trkpt lat="46.81438" lon="5.8678">
        <ele>648.4</ele>
        <time>2021-01-08T13:00:20Z</time>
      </trkpt>
      <trkpt lat="46.81434" lon="5.86775">
        <ele>649.1</ele>
        <time>2021-01-08T13:00:26Z</time>
      </trkpt>
      <trkpt lat="46.8143" lon="5.8677">
        <ele>649.2</ele>
        <time>2021-01-08T13:00:31Z</time>
      </trkpt>
      <trkpt lat="46.81427" lon="5.86765">
        <ele>649.2</ele>
        <time>2021-01-08T13:00:36Z</time>
      </trkpt>
      <trkpt lat="46.81423" lon="5.8676">
        <ele>648.7</ele>
        <time>2021-01-08T13:00:42Z</time>
      </trkpt>
      <trkpt lat="46.81418" lon="5.86757">
        <ele>648.3</ele>
        <time>2021-01-08T13:00:48Z</time>
      </trkpt>
      <trkpt lat="46.81412" lon="5.86756">
        <ele>648</ele>
        <time>2021-01-08T13:00:53Z</time>
      </trkpt>
      <trkpt lat="46.81408" lon="5.86754">
        <ele>647.4</ele>
        <time>2021-01-08T13:00:59Z</time>
      </trkpt>
      <trkpt lat="46.81403" lon="5.86753">
        <ele>647.3</ele>
        <time>2021-01-08T13:01:04Z</time>
      </trkpt>
      <trkpt lat="46.81398" lon="5.86752">
        <ele>647.3</ele>
        <time>2021-01-08T13:01:09Z</time>
      </trkpt>
      <trkpt lat="46.81393" lon="5.86751">
        <ele>647.3</ele>
        <time>2021-01-08T13:01:14Z</time>
      </trkpt>
      <trkpt lat="46.81388" lon="5.86749">
        <ele>647.2</ele>
        <time>2021-01-08T13:01:20Z</time>
      </trkpt>
      <trkpt lat="46.81383" lon="5.86747">
        <ele>647.3</ele>
        <time>2021-01-08T13:01:25Z</time>
      </trkpt>
      <trkpt lat="46.81378" lon="5.86745">
        <ele>647.1</ele>
        <time>2021-01-08T13:01:31Z</time>
      </trkpt>
      <trkpt lat="46.81374" lon="5.86742">
        <ele>646.9</ele>
        <time>2021-01-08T13:01:36Z</time>
      </trkpt>
      <trkpt lat="46.8137" lon="5.86738">
        <ele>647.1</ele>
        <time>2021-01-08T13:01:42Z</time>
      </trkpt>
      <trkpt lat="46.81366" lon="5.86734">
        <ele>647.5</ele>
        <time>2021-01-08T13:01:48Z</time>
      </trkpt>
      <trkpt lat="46.81362" lon="5.86731">
        <ele>647.6</ele>
        <time>2021-01-08T13:01:53Z</time>
      </trkpt>
      <trkpt lat="46.81358" lon="5.86727">
        <ele>647.7</ele>
        <time>2021-01-08T13:01:58Z</time>
      </trkpt>
      <trkpt lat="46.81354" lon="5.86723">
        <ele>647.8</ele>
        <time>2021-01-08T13:02:03Z</time>
      </trkpt>
      <trkpt lat="46.81349" lon="5.8672">
        <ele>648.3</ele>
        <time>2021-01-08T13:02:08Z</time>
      </trkpt>
      <trkpt lat="46.81345" lon="5.86716">
        <ele>649.1</ele>
        <time>2021-01-08T13:02:13Z</time>
      </trkpt>
      <trkpt lat="46.8134" lon="5.86715">
        <ele>649.5</ele>
        <time>2021-01-08T13:02:18Z</time>
      </trkpt>
      <trkpt lat="46.81335" lon="5.86712">
        <ele>649.8</ele>
        <time>2021-01-08T13:02:23Z</time>
      </trkpt>
      <trkpt lat="46.8133" lon="5.8671">
        <ele>649.9</ele>
        <time>2021-01-08T13:02:28Z</time>
      </trkpt>
      <trkpt lat="46.81326" lon="5.86707">
        <ele>649.7</ele>
        <time>2021-01-08T13:02:33Z</time>
      </trkpt>
      <trkpt lat="46.81321" lon="5.86704">
        <ele>649.2</ele>
        <time>2021-01-08T13:02:38Z</time>
      </trkpt>
      <trkpt lat="46.81317" lon="5.86701">
        <ele>649.2</ele>
        <time>2021-01-08T13:02:43Z</time>
      </trkpt>
      <trkpt lat="46.81312" lon="5.86699">
        <ele>649.3</ele>
        <time>2021-01-08T13:02:48Z</time>
      </trkpt>
      <trkpt lat="46.81307" lon="5.86696">
        <ele>649.5</ele>
        <time>2021-01-08T13:02:53Z</time>
      </trkpt>
      <trkpt lat="46.81302" lon="5.86695">
        <ele>649.6</ele>
        <time>2021-01-08T13:02:58Z</time>
      </trkpt>
      <trkpt lat="46.81297" lon="5.86693">
        <ele>649.2</ele>
        <time>2021-01-08T13:03:03Z</time>
      </trkpt>
      <trkpt lat="46.81292" lon="5.86691">
        <ele>648.9</ele>
        <time>2021-01-08T13:03:08Z</time>
      </trkpt>
      <trkpt lat="46.81288" lon="5.8669">
        <ele>648.7</ele>
        <time>2021-01-08T13:03:13Z</time>
      </trkpt>
      <trkpt lat="46.81283" lon="5.86688">
        <ele>648.3</ele>
        <time>2021-01-08T13:03:19Z</time>
      </trkpt>
      <trkpt lat="46.81278" lon="5.86687">
        <ele>647.9</ele>
        <time>2021-01-08T13:03:25Z</time>
      </trkpt>
      <trkpt lat="46.81273" lon="5.86687">
        <ele>648.1</ele>
        <time>2021-01-08T13:03:30Z</time>
      </trkpt>
      <trkpt lat="46.81268" lon="5.86688">
        <ele>648.4</ele>
        <time>2021-01-08T13:03:35Z</time>
      </trkpt>
      <trkpt lat="46.81263" lon="5.86689">
        <ele>648.4</ele>
        <time>2021-01-08T13:03:40Z</time>
      </trkpt>
      <trkpt lat="46.81258" lon="5.8669">
        <ele>648.2</ele>
        <time>2021-01-08T13:03:45Z</time>
      </trkpt>
      <trkpt lat="46.81253" lon="5.86691">
        <ele>647.9</ele>
        <time>2021-01-08T13:03:50Z</time>
      </trkpt>
      <trkpt lat="46.81248" lon="5.86693">
        <ele>647.9</ele>
        <time>2021-01-08T13:03:56Z</time>
      </trkpt>
      <trkpt lat="46.81243" lon="5.86695">
        <ele>647.8</ele>
        <time>2021-01-08T13:04:01Z</time>
      </trkpt>
      <trkpt lat="46.81239" lon="5.86696">
        <ele>647.9</ele>
        <time>2021-01-08T13:04:06Z</time>
      </trkpt>
      <trkpt lat="46.81234" lon="5.86698">
        <ele>648.1</ele>
        <time>2021-01-08T13:04:11Z</time>
      </trkpt>
      <trkpt lat="46.81229" lon="5.867">
        <ele>648.7</ele>
        <time>2021-01-08T13:04:16Z</time>
      </trkpt>
      <trkpt lat="46.81224" lon="5.86702">
        <ele>649</ele>
        <time>2021-01-08T13:04:21Z</time>
      </trkpt>
      <trkpt lat="46.81219" lon="5.86704">
        <ele>649.5</ele>
        <time>2021-01-08T13:04:26Z</time>
      </trkpt>
      <trkpt lat="46.81215" lon="5.86706">
        <ele>649.6</ele>
        <time>2021-01-08T13:04:32Z</time>
      </trkpt>
      <trkpt lat="46.8121" lon="5.86708">
        <ele>649.4</ele>
        <time>2021-01-08T13:04:37Z</time>
      </trkpt>
      <trkpt lat="46.81205" lon="5.8671">
        <ele>649.1</ele>
        <time>2021-01-08T13:04:43Z</time>
      </trkpt>
      <trkpt lat="46.812" lon="5.86712">
        <ele>648.7</ele>
        <time>2021-01-08T13:04:48Z</time>
      </trkpt>
      <trkpt lat="46.81195" lon="5.86712">
        <ele>648</ele>
        <time>2021-01-08T13:04:53Z</time>
      </trkpt>
      <trkpt lat="46.81191" lon="5.86714">
        <ele>647.7</ele>
        <time>2021-01-08T13:04:58Z</time>
      </trkpt>
      <trkpt lat="46.81186" lon="5.86715">
        <ele>647.4</ele>
        <time>2021-01-08T13:05:03Z</time>
      </trkpt>
      <trkpt lat="46.81181" lon="5.86716">
        <ele>647.3</ele>
        <time>2021-01-08T13:05:08Z</time>
      </trkpt>
      <trkpt lat="46.81175" lon="5.86717">
        <ele>647.3</ele>
        <time>2021-01-08T13:05:13Z</time>
      </trkpt>
      <trkpt lat="46.81171" lon="5.86717">
        <ele>647.6</ele>
        <time>2021-01-08T13:05:18Z</time>
      </trkpt>
      <trkpt lat="46.81166" lon="5.86717">
        <ele>647.5</ele>
        <time>2021-01-08T13:05:23Z</time>
      </trkpt>
      <trkpt lat="46.81161" lon="5.86717">
        <ele>647.2</ele>
        <time>2021-01-08T13:05:28Z</time>
      </trkpt>
      <trkpt lat="46.81156" lon="5.86716">
        <ele>646.6</ele>
        <time>2021-01-08T13:05:33Z</time>
      </trkpt>
      <trkpt lat="46.81151" lon="5.86715">
        <ele>646.1</ele>
        <time>2021-01-08T13:05:39Z</time>
      </trkpt>
      <trkpt lat="46.81146" lon="5.86714">
        <ele>645.9</ele>
        <time>2021-01-08T13:05:44Z</time>
      </trkpt>
      <trkpt lat="46.81141" lon="5.86713">
        <ele>645.7</ele>
        <time>2021-01-08T13:05:49Z</time>
      </trkpt>
      <trkpt lat="46.81136" lon="5.86714">
        <ele>644.3</ele>
        <time>2021-01-08T13:06:28Z</time>
      </trkpt>
      <trkpt lat="46.81131" lon="5.86714">
        <ele>643.9</ele>
        <time>2021-01-08T13:06:34Z</time>
      </trkpt>
      <trkpt lat="46.81126" lon="5.86715">
        <ele>643.6</ele>
        <time>2021-01-08T13:06:39Z</time>
      </trkpt>
      <trkpt lat="46.81121" lon="5.86717">
        <ele>643.8</ele>
        <time>2021-01-08T13:06:44Z</time>
      </trkpt>
      <trkpt lat="46.81117" lon="5.86719">
        <ele>644.6</ele>
        <time>2021-01-08T13:06:49Z</time>
      </trkpt>
      <trkpt lat="46.81112" lon="5.86722">
        <ele>645</ele>
        <time>2021-01-08T13:06:54Z</time>
      </trkpt>
      <trkpt lat="46.81107" lon="5.86726">
        <ele>645.2</ele>
        <time>2021-01-08T13:06:59Z</time>
      </trkpt>
      <trkpt lat="46.81103" lon="5.86729">
        <ele>645.4</ele>
        <time>2021-01-08T13:07:03Z</time>
      </trkpt>
      <trkpt lat="46.81098" lon="5.86731">
        <ele>645.3</ele>
        <time>2021-01-08T13:07:08Z</time>
      </trkpt>
      <trkpt lat="46.81093" lon="5.86729">
        <ele>645.8</ele>
        <time>2021-01-08T13:09:21Z</time>
      </trkpt>
      <trkpt lat="46.81089" lon="5.86732">
        <ele>646</ele>
        <time>2021-01-08T13:09:56Z</time>
      </trkpt>
      <trkpt lat="46.81085" lon="5.86736">
        <ele>647</ele>
        <time>2021-01-08T13:10:02Z</time>
      </trkpt>
      <trkpt lat="46.81081" lon="5.8674">
        <ele>648</ele>
        <time>2021-01-08T13:10:07Z</time>
      </trkpt>
      <trkpt lat="46.81077" lon="5.86743">
        <ele>648.9</ele>
        <time>2021-01-08T13:10:12Z</time>
      </trkpt>
      <trkpt lat="46.81072" lon="5.86746">
        <ele>649.9</ele>
        <time>2021-01-08T13:10:17Z</time>
      </trkpt>
      <trkpt lat="46.81067" lon="5.86746">
        <ele>648.4</ele>
        <time>2021-01-08T13:11:02Z</time>
      </trkpt>
      <trkpt lat="46.81063" lon="5.8675">
        <ele>648.1</ele>
        <time>2021-01-08T13:11:07Z</time>
      </trkpt>
      <trkpt lat="46.81058" lon="5.86753">
        <ele>647.8</ele>
        <time>2021-01-08T13:11:13Z</time>
      </trkpt>
      <trkpt lat="46.81053" lon="5.86755">
        <ele>647.7</ele>
        <time>2021-01-08T13:11:19Z</time>
      </trkpt>
      <trkpt lat="46.81048" lon="5.86759">
        <ele>647.9</ele>
        <time>2021-01-08T13:11:24Z</time>
      </trkpt>
      <trkpt lat="46.81043" lon="5.86763">
        <ele>647.9</ele>
        <time>2021-01-08T13:11:29Z</time>
      </trkpt>
      <trkpt lat="46.81039" lon="5.86768">
        <ele>647.8</ele>
        <time>2021-01-08T13:11:34Z</time>
      </trkpt>
      <trkpt lat="46.81034" lon="5.86771">
        <ele>647.9</ele>
        <time>2021-01-08T13:11:40Z</time>
      </trkpt>
      <trkpt lat="46.8103" lon="5.86776">
        <ele>648.2</ele>
        <time>2021-01-08T13:11:45Z</time>
      </trkpt>
      <trkpt lat="46.81026" lon="5.86779">
        <ele>648.2</ele>
        <time>2021-01-08T13:11:51Z</time>
      </trkpt>
      <trkpt lat="46.81021" lon="5.86782">
        <ele>648</ele>
        <time>2021-01-08T13:11:56Z</time>
      </trkpt>
      <trkpt lat="46.81017" lon="5.86785">
        <ele>647.8</ele>
        <time>2021-01-08T13:12:02Z</time>
      </trkpt>
      <trkpt lat="46.81012" lon="5.86788">
        <ele>647.7</ele>
        <time>2021-01-08T13:12:07Z</time>
      </trkpt>
      <trkpt lat="46.81008" lon="5.8679">
        <ele>647.5</ele>
        <time>2021-01-08T13:12:12Z</time>
      </trkpt>
      <trkpt lat="46.81003" lon="5.86792">
        <ele>647.5</ele>
        <time>2021-01-08T13:12:17Z</time>
      </trkpt>
      <trkpt lat="46.80998" lon="5.86794">
        <ele>647.3</ele>
        <time>2021-01-08T13:12:23Z</time>
      </trkpt>
      <trkpt lat="46.80993" lon="5.86795">
        <ele>647.4</ele>
        <time>2021-01-08T13:12:28Z</time>
      </trkpt>
      <trkpt lat="46.80987" lon="5.86797">
        <ele>647.4</ele>
        <time>2021-01-08T13:12:33Z</time>
      </trkpt>
      <trkpt lat="46.80982" lon="5.86799">
        <ele>647.2</ele>
        <time>2021-01-08T13:12:38Z</time>
      </trkpt>
      <trkpt lat="46.80978" lon="5.868">
        <ele>647</ele>
        <time>2021-01-08T13:12:43Z</time>
      </trkpt>
      <trkpt lat="46.80973" lon="5.86801">
        <ele>646.8</ele>
        <time>2021-01-08T13:12:48Z</time>
      </trkpt>
      <trkpt lat="46.80968" lon="5.86802">
        <ele>646.9</ele>
        <time>2021-01-08T13:12:54Z</time>
      </trkpt>
      <trkpt lat="46.80963" lon="5.86803">
        <ele>646.6</ele>
        <time>2021-01-08T13:12:59Z</time>
      </trkpt>
      <trkpt lat="46.80959" lon="5.86805">
        <ele>646.6</ele>
        <time>2021-01-08T13:13:04Z</time>
      </trkpt>
      <trkpt lat="46.80954" lon="5.86809">
        <ele>647</ele>
        <time>2021-01-08T13:13:09Z</time>
      </trkpt>
      <trkpt lat="46.8095" lon="5.8681">
        <ele>647.5</ele>
        <time>2021-01-08T13:13:23Z</time>
      </trkpt>
      <trkpt lat="46.80945" lon="5.86813">
        <ele>647.6</ele>
        <time>2021-01-08T13:13:34Z</time>
      </trkpt>
      <trkpt lat="46.8094" lon="5.86815">
        <ele>647.4</ele>
        <time>2021-01-08T13:13:39Z</time>
      </trkpt>
      <trkpt lat="46.80936" lon="5.86819">
        <ele>647.1</ele>
        <time>2021-01-08T13:13:44Z</time>
      </trkpt>
      <trkpt lat="46.80931" lon="5.86823">
        <ele>646.9</ele>
        <time>2021-01-08T13:13:49Z</time>
      </trkpt>
      <trkpt lat="46.80927" lon="5.86828">
        <ele>646.9</ele>
        <time>2021-01-08T13:13:55Z</time>
      </trkpt>
      <trkpt lat="46.80923" lon="5.86834">
        <ele>647.1</ele>
        <time>2021-01-08T13:14:00Z</time>
      </trkpt>
      <trkpt lat="46.80919" lon="5.86839">
        <ele>647.4</ele>
        <time>2021-01-08T13:14:06Z</time>
      </trkpt>
      <trkpt lat="46.80916" lon="5.86845">
        <ele>648.3</ele>
        <time>2021-01-08T13:14:11Z</time>
      </trkpt>
      <trkpt lat="46.80913" lon="5.8685">
        <ele>649.2</ele>
        <time>2021-01-08T13:14:16Z</time>
      </trkpt>
      <trkpt lat="46.80909" lon="5.86855">
        <ele>650.3</ele>
        <time>2021-01-08T13:14:22Z</time>
      </trkpt>
      <trkpt lat="46.80904" lon="5.86859">
        <ele>650.4</ele>
        <time>2021-01-08T13:14:28Z</time>
      </trkpt>
      <trkpt lat="46.80901" lon="5.86864">
        <ele>650.2</ele>
        <time>2021-01-08T13:14:33Z</time>
      </trkpt>
      <trkpt lat="46.80897" lon="5.86868">
        <ele>649.6</ele>
        <time>2021-01-08T13:14:39Z</time>
      </trkpt>
      <trkpt lat="46.80894" lon="5.86873">
        <ele>649.2</ele>
        <time>2021-01-08T13:14:44Z</time>
      </trkpt>
      <trkpt lat="46.80891" lon="5.86878">
        <ele>648.7</ele>
        <time>2021-01-08T13:14:49Z</time>
      </trkpt>
      <trkpt lat="46.80888" lon="5.86884">
        <ele>648.1</ele>
        <time>2021-01-08T13:14:54Z</time>
      </trkpt>
      <trkpt lat="46.80884" lon="5.86892">
        <ele>647.7</ele>
        <time>2021-01-08T13:14:59Z</time>
      </trkpt>
      <trkpt lat="46.80881" lon="5.86897">
        <ele>647</ele>
        <time>2021-01-08T13:15:04Z</time>
      </trkpt>
      <trkpt lat="46.80878" lon="5.86902">
        <ele>646.5</ele>
        <time>2021-01-08T13:15:10Z</time>
      </trkpt>
      <trkpt lat="46.80875" lon="5.86907">
        <ele>646.3</ele>
        <time>2021-01-08T13:15:15Z</time>
      </trkpt>
      <trkpt lat="46.80871" lon="5.86912">
        <ele>646.4</ele>
        <time>2021-01-08T13:15:20Z</time>
      </trkpt>
      <trkpt lat="46.80867" lon="5.86916">
        <ele>646.6</ele>
        <time>2021-01-08T13:15:25Z</time>
      </trkpt>
      <trkpt lat="46.80863" lon="5.8692">
        <ele>646.9</ele>
        <time>2021-01-08T13:15:30Z</time>
      </trkpt>
      <trkpt lat="46.80859" lon="5.86924">
        <ele>647.2</ele>
        <time>2021-01-08T13:15:35Z</time>
      </trkpt>
      <trkpt lat="46.80855" lon="5.86927">
        <ele>647.4</ele>
        <time>2021-01-08T13:15:40Z</time>
      </trkpt>
      <trkpt lat="46.80851" lon="5.86931">
        <ele>647.9</ele>
        <time>2021-01-08T13:15:45Z</time>
      </trkpt>
      <trkpt lat="46.80847" lon="5.86936">
        <ele>648.4</ele>
        <time>2021-01-08T13:15:50Z</time>
      </trkpt>
      <trkpt lat="46.80843" lon="5.8694">
        <ele>648.7</ele>
        <time>2021-01-08T13:15:55Z</time>
      </trkpt>
      <trkpt lat="46.80839" lon="5.86945">
        <ele>648.7</ele>
        <time>2021-01-08T13:16:00Z</time>
      </trkpt>
      <trkpt lat="46.80835" lon="5.86949">
        <ele>648.6</ele>
        <time>2021-01-08T13:16:06Z</time>
      </trkpt>
      <trkpt lat="46.80831" lon="5.86953">
        <ele>648.7</ele>
        <time>2021-01-08T13:16:11Z</time>
      </trkpt>
      <trkpt lat="46.80828" lon="5.86957">
        <ele>648.7</ele>
        <time>2021-01-08T13:16:15Z</time>
      </trkpt>
      <trkpt lat="46.80823" lon="5.86962">
        <ele>648.9</ele>
        <time>2021-01-08T13:16:20Z</time>
      </trkpt>
      <trkpt lat="46.8082" lon="5.86967">
        <ele>648.9</ele>
        <time>2021-01-08T13:16:25Z</time>
      </trkpt>
      <trkpt lat="46.80816" lon="5.86972">
        <ele>649</ele>
        <time>2021-01-08T13:16:30Z</time>
      </trkpt>
      <trkpt lat="46.80813" lon="5.86976">
        <ele>649.2</ele>
        <time>2021-01-08T13:16:35Z</time>
      </trkpt>
      <trkpt lat="46.80809" lon="5.86981">
        <ele>649.1</ele>
        <time>2021-01-08T13:16:41Z</time>
      </trkpt>
      <trkpt lat="46.80805" lon="5.86987">
        <ele>649.1</ele>
        <time>2021-01-08T13:16:46Z</time>
      </trkpt>
      <trkpt lat="46.80801" lon="5.86993">
        <ele>649.4</ele>
        <time>2021-01-08T13:16:51Z</time>
      </trkpt>
      <trkpt lat="46.80798" lon="5.86998">
        <ele>649.6</ele>
        <time>2021-01-08T13:16:58Z</time>
      </trkpt>
      <trkpt lat="46.80794" lon="5.87004">
        <ele>649.7</ele>
        <time>2021-01-08T13:17:03Z</time>
      </trkpt>
      <trkpt lat="46.80791" lon="5.87011">
        <ele>649.6</ele>
        <time>2021-01-08T13:17:08Z</time>
      </trkpt>
      <trkpt lat="46.80787" lon="5.87017">
        <ele>649.8</ele>
        <time>2021-01-08T13:17:13Z</time>
      </trkpt>
      <trkpt lat="46.80784" lon="5.87022">
        <ele>649.7</ele>
        <time>2021-01-08T13:17:18Z</time>
      </trkpt>
      <trkpt lat="46.80781" lon="5.87027">
        <ele>649.5</ele>
        <time>2021-01-08T13:17:23Z</time>
      </trkpt>
      <trkpt lat="46.80777" lon="5.87032">
        <ele>649.1</ele>
        <time>2021-01-08T13:17:28Z</time>
      </trkpt>
      <trkpt lat="46.80773" lon="5.87037">
        <ele>648.4</ele>
        <time>2021-01-08T13:17:34Z</time>
      </trkpt>
      <trkpt lat="46.80769" lon="5.87041">
        <ele>647.6</ele>
        <time>2021-01-08T13:17:39Z</time>
      </trkpt>
      <trkpt lat="46.80765" lon="5.87045">
        <ele>646.5</ele>
        <time>2021-01-08T13:17:44Z</time>
      </trkpt>
      <trkpt lat="46.8076" lon="5.87047">
        <ele>645.3</ele>
        <time>2021-01-08T13:17:50Z</time>
      </trkpt>
      <trkpt lat="46.80755" lon="5.87049">
        <ele>644.5</ele>
        <time>2021-01-08T13:17:57Z</time>
      </trkpt>
      <trkpt lat="46.80751" lon="5.87051">
        <ele>644.6</ele>
        <time>2021-01-08T13:18:05Z</time>
      </trkpt>
      <trkpt lat="46.80746" lon="5.87051">
        <ele>644.6</ele>
        <time>2021-01-08T13:18:10Z</time>
      </trkpt>
      <trkpt lat="46.80741" lon="5.87052">
        <ele>644.6</ele>
        <time>2021-01-08T13:18:15Z</time>
      </trkpt>
      <trkpt lat="46.80736" lon="5.87053">
        <ele>644.4</ele>
        <time>2021-01-08T13:18:20Z</time>
      </trkpt>
      <trkpt lat="46.80731" lon="5.87053">
        <ele>644.3</ele>
        <time>2021-01-08T13:18:25Z</time>
      </trkpt>
      <trkpt lat="46.80726" lon="5.87054">
        <ele>644.2</ele>
        <time>2021-01-08T13:18:30Z</time>
      </trkpt>
      <trkpt lat="46.80721" lon="5.87054">
        <ele>644.2</ele>
        <time>2021-01-08T13:18:35Z</time>
      </trkpt>
      <trkpt lat="46.80716" lon="5.87056">
        <ele>643.9</ele>
        <time>2021-01-08T13:18:40Z</time>
      </trkpt>
      <trkpt lat="46.80712" lon="5.87056">
        <ele>643.4</ele>
        <time>2021-01-08T13:18:45Z</time>
      </trkpt>
      <trkpt lat="46.80706" lon="5.87058">
        <ele>643</ele>
        <time>2021-01-08T13:18:50Z</time>
      </trkpt>
      <trkpt lat="46.80701" lon="5.87059">
        <ele>642.9</ele>
        <time>2021-01-08T13:18:55Z</time>
      </trkpt>
      <trkpt lat="46.80697" lon="5.8706">
        <ele>643.2</ele>
        <time>2021-01-08T13:19:00Z</time>
      </trkpt>
      <trkpt lat="46.80692" lon="5.87061">
        <ele>643.5</ele>
        <time>2021-01-08T13:19:05Z</time>
      </trkpt>
      <trkpt lat="46.80687" lon="5.8706">
        <ele>643.9</ele>
        <time>2021-01-08T13:19:10Z</time>
      </trkpt>
      <trkpt lat="46.80682" lon="5.87061">
        <ele>644.2</ele>
        <time>2021-01-08T13:19:15Z</time>
      </trkpt>
      <trkpt lat="46.80677" lon="5.87062">
        <ele>644</ele>
        <time>2021-01-08T13:19:20Z</time>
      </trkpt>
      <trkpt lat="46.80672" lon="5.87062">
        <ele>643.7</ele>
        <time>2021-01-08T13:19:25Z</time>
      </trkpt>
      <trkpt lat="46.80668" lon="5.87063">
        <ele>643.9</ele>
        <time>2021-01-08T13:19:30Z</time>
      </trkpt>
      <trkpt lat="46.80663" lon="5.87064">
        <ele>644.3</ele>
        <time>2021-01-08T13:19:35Z</time>
      </trkpt>
      <trkpt lat="46.80657" lon="5.87063">
        <ele>644.6</ele>
        <time>2021-01-08T13:19:40Z</time>
      </trkpt>
      <trkpt lat="46.80653" lon="5.87061">
        <ele>645</ele>
        <time>2021-01-08T13:19:45Z</time>
      </trkpt>
      <trkpt lat="46.80648" lon="5.87058">
        <ele>645.4</ele>
        <time>2021-01-08T13:19:50Z</time>
      </trkpt>
      <trkpt lat="46.80642" lon="5.87055">
        <ele>645.8</ele>
        <time>2021-01-08T13:19:55Z</time>
      </trkpt>
      <trkpt lat="46.80638" lon="5.87052">
        <ele>646.1</ele>
        <time>2021-01-08T13:20:00Z</time>
      </trkpt>
      <trkpt lat="46.80634" lon="5.8705">
        <ele>646.3</ele>
        <time>2021-01-08T13:20:05Z</time>
      </trkpt>
      <trkpt lat="46.80628" lon="5.87051">
        <ele>646.3</ele>
        <time>2021-01-08T13:20:10Z</time>
      </trkpt>
      <trkpt lat="46.80624" lon="5.87056">
        <ele>645.8</ele>
        <time>2021-01-08T13:20:29Z</time>
      </trkpt>
      <trkpt lat="46.8062" lon="5.8706">
        <ele>645.8</ele>
        <time>2021-01-08T13:20:34Z</time>
      </trkpt>
      <trkpt lat="46.80614" lon="5.87063">
        <ele>645.7</ele>
        <time>2021-01-08T13:20:39Z</time>
      </trkpt>
      <trkpt lat="46.8061" lon="5.87067">
        <ele>645.8</ele>
        <time>2021-01-08T13:20:44Z</time>
      </trkpt>
      <trkpt lat="46.80605" lon="5.87072">
        <ele>646.3</ele>
        <time>2021-01-08T13:20:50Z</time>
      </trkpt>
      <trkpt lat="46.80601" lon="5.87075">
        <ele>647.3</ele>
        <time>2021-01-08T13:20:55Z</time>
      </trkpt>
      <trkpt lat="46.80597" lon="5.87079">
        <ele>648.4</ele>
        <time>2021-01-08T13:21:00Z</time>
      </trkpt>
      <trkpt lat="46.8059" lon="5.87082">
        <ele>649.4</ele>
        <time>2021-01-08T13:21:05Z</time>
      </trkpt>
      <trkpt lat="46.80585" lon="5.87084">
        <ele>650</ele>
        <time>2021-01-08T13:21:10Z</time>
      </trkpt>
      <trkpt lat="46.8058" lon="5.87085">
        <ele>650.4</ele>
        <time>2021-01-08T13:21:15Z</time>
      </trkpt>
      <trkpt lat="46.80575" lon="5.87084">
        <ele>650.6</ele>
        <time>2021-01-08T13:21:21Z</time>
      </trkpt>
      <trkpt lat="46.8057" lon="5.87083">
        <ele>650.1</ele>
        <time>2021-01-08T13:21:26Z</time>
      </trkpt>
      <trkpt lat="46.80565" lon="5.87082">
        <ele>647.5</ele>
        <time>2021-01-08T13:21:44Z</time>
      </trkpt>
      <trkpt lat="46.8056" lon="5.8708">
        <ele>648</ele>
        <time>2021-01-08T13:21:50Z</time>
      </trkpt>
      <trkpt lat="46.80556" lon="5.87078">
        <ele>648</ele>
        <time>2021-01-08T13:21:55Z</time>
      </trkpt>
      <trkpt lat="46.80551" lon="5.87077">
        <ele>647.8</ele>
        <time>2021-01-08T13:22:00Z</time>
      </trkpt>
      <trkpt lat="46.80546" lon="5.87075">
        <ele>647.5</ele>
        <time>2021-01-08T13:22:05Z</time>
      </trkpt>
      <trkpt lat="46.80542" lon="5.87074">
        <ele>647</ele>
        <time>2021-01-08T13:22:10Z</time>
      </trkpt>
      <trkpt lat="46.80537" lon="5.87073">
        <ele>646.7</ele>
        <time>2021-01-08T13:22:15Z</time>
      </trkpt>
      <trkpt lat="46.80532" lon="5.87072">
        <ele>646.5</ele>
        <time>2021-01-08T13:22:20Z</time>
      </trkpt>
      <trkpt lat="46.80528" lon="5.87073">
        <ele>646.4</ele>
        <time>2021-01-08T13:22:25Z</time>
      </trkpt>
      <trkpt lat="46.80522" lon="5.87073">
        <ele>646.3</ele>
        <time>2021-01-08T13:22:31Z</time>
      </trkpt>
      <trkpt lat="46.80517" lon="5.87075">
        <ele>645.9</ele>
        <time>2021-01-08T13:22:37Z</time>
      </trkpt>
      <trkpt lat="46.80512" lon="5.87077">
        <ele>645.6</ele>
        <time>2021-01-08T13:22:43Z</time>
      </trkpt>
      <trkpt lat="46.80507" lon="5.87079">
        <ele>645.2</ele>
        <time>2021-01-08T13:22:48Z</time>
      </trkpt>
      <trkpt lat="46.80501" lon="5.87081">
        <ele>645.3</ele>
        <time>2021-01-08T13:22:53Z</time>
      </trkpt>
      <trkpt lat="46.80497" lon="5.87083">
        <ele>645.7</ele>
        <time>2021-01-08T13:22:58Z</time>
      </trkpt>
      <trkpt lat="46.80492" lon="5.87085">
        <ele>646</ele>
        <time>2021-01-08T13:23:03Z</time>
      </trkpt>
      <trkpt lat="46.80488" lon="5.87087">
        <ele>645.8</ele>
        <time>2021-01-08T13:23:08Z</time>
      </trkpt>
      <trkpt lat="46.80483" lon="5.8709">
        <ele>645.8</ele>
        <time>2021-01-08T13:23:13Z</time>
      </trkpt>
      <trkpt lat="46.80479" lon="5.87092">
        <ele>646.1</ele>
        <time>2021-01-08T13:23:18Z</time>
      </trkpt>
      <trkpt lat="46.80474" lon="5.87093">
        <ele>646.4</ele>
        <time>2021-01-08T13:23:24Z</time>
      </trkpt>
      <trkpt lat="46.80469" lon="5.87096">
        <ele>646.4</ele>
        <time>2021-01-08T13:23:29Z</time>
      </trkpt>
      <trkpt lat="46.80464" lon="5.87098">
        <ele>646.2</ele>
        <time>2021-01-08T13:23:34Z</time>
      </trkpt>
      <trkpt lat="46.8046" lon="5.87101">
        <ele>645.9</ele>
        <time>2021-01-08T13:23:39Z</time>
      </trkpt>
      <trkpt lat="46.80455" lon="5.87104">
        <ele>645.6</ele>
        <time>2021-01-08T13:23:45Z</time>
      </trkpt>
      <trkpt lat="46.80451" lon="5.87106">
        <ele>645.6</ele>
        <time>2021-01-08T13:23:50Z</time>
      </trkpt>
      <trkpt lat="46.80446" lon="5.87109">
        <ele>645.8</ele>
        <time>2021-01-08T13:23:55Z</time>
      </trkpt>
      <trkpt lat="46.80441" lon="5.87111">
        <ele>646</ele>
        <time>2021-01-08T13:24:00Z</time>
      </trkpt>
      <trkpt lat="46.80437" lon="5.87114">
        <ele>645.8</ele>
        <time>2021-01-08T13:24:05Z</time>
      </trkpt>
      <trkpt lat="46.80432" lon="5.87117">
        <ele>645.4</ele>
        <time>2021-01-08T13:24:10Z</time>
      </trkpt>
      <trkpt lat="46.80427" lon="5.87119">
        <ele>644.8</ele>
        <time>2021-01-08T13:24:15Z</time>
      </trkpt>
      <trkpt lat="46.80423" lon="5.87122">
        <ele>644.4</ele>
        <time>2021-01-08T13:24:20Z</time>
      </trkpt>
      <trkpt lat="46.80418" lon="5.87124">
        <ele>644.5</ele>
        <time>2021-01-08T13:24:26Z</time>
      </trkpt>
      <trkpt lat="46.80414" lon="5.87126">
        <ele>644.7</ele>
        <time>2021-01-08T13:24:31Z</time>
      </trkpt>
      <trkpt lat="46.80409" lon="5.87129">
        <ele>645.1</ele>
        <time>2021-01-08T13:24:36Z</time>
      </trkpt>
      <trkpt lat="46.80404" lon="5.87131">
        <ele>645.7</ele>
        <time>2021-01-08T13:24:41Z</time>
      </trkpt>
      <trkpt lat="46.80399" lon="5.87132">
        <ele>646.3</ele>
        <time>2021-01-08T13:24:46Z</time>
      </trkpt>
      <trkpt lat="46.80394" lon="5.87133">
        <ele>647.4</ele>
        <time>2021-01-08T13:24:51Z</time>
      </trkpt>
      <trkpt lat="46.80388" lon="5.87134">
        <ele>648.2</ele>
        <time>2021-01-08T13:24:56Z</time>
      </trkpt>
      <trkpt lat="46.80383" lon="5.87135">
        <ele>648.7</ele>
        <time>2021-01-08T13:25:01Z</time>
      </trkpt>
      <trkpt lat="46.80378" lon="5.87134">
        <ele>649</ele>
        <time>2021-01-08T13:25:07Z</time>
      </trkpt>
      <trkpt lat="46.80374" lon="5.87133">
        <ele>649.1</ele>
        <time>2021-01-08T13:25:12Z</time>
      </trkpt>
      <trkpt lat="46.80369" lon="5.87131">
        <ele>648.9</ele>
        <time>2021-01-08T13:25:17Z</time>
      </trkpt>
      <trkpt lat="46.80365" lon="5.87129">
        <ele>647.1</ele>
        <time>2021-01-08T13:25:33Z</time>
      </trkpt>
      <trkpt lat="46.80363" lon="5.87123">
        <ele>642.9</ele>
        <time>2021-01-08T13:28:41Z</time>
      </trkpt>
      <trkpt lat="46.80363" lon="5.87115">
        <ele>641.1</ele>
        <time>2021-01-08T13:28:47Z</time>
      </trkpt>
      <trkpt lat="46.80365" lon="5.87109">
        <ele>640.3</ele>
        <time>2021-01-08T13:28:51Z</time>
      </trkpt>
      <trkpt lat="46.80367" lon="5.87102">
        <ele>640</ele>
        <time>2021-01-08T13:28:56Z</time>
      </trkpt>
      <trkpt lat="46.8037" lon="5.87096">
        <ele>640</ele>
        <time>2021-01-08T13:29:02Z</time>
      </trkpt>
      <trkpt lat="46.80372" lon="5.87088">
        <ele>640</ele>
        <time>2021-01-08T13:29:07Z</time>
      </trkpt>
      <trkpt lat="46.80374" lon="5.87082">
        <ele>640</ele>
        <time>2021-01-08T13:29:12Z</time>
      </trkpt>
      <trkpt lat="46.80376" lon="5.87076">
        <ele>640.3</ele>
        <time>2021-01-08T13:29:17Z</time>
      </trkpt>
      <trkpt lat="46.80379" lon="5.8707">
        <ele>640.9</ele>
        <time>2021-01-08T13:29:23Z</time>
      </trkpt>
      <trkpt lat="46.80382" lon="5.87064">
        <ele>641.8</ele>
        <time>2021-01-08T13:29:29Z</time>
      </trkpt>
      <trkpt lat="46.80385" lon="5.87058">
        <ele>642.3</ele>
        <time>2021-01-08T13:29:35Z</time>
      </trkpt>
      <trkpt lat="46.80386" lon="5.87052">
        <ele>642.3</ele>
        <time>2021-01-08T13:29:39Z</time>
      </trkpt>
      <trkpt lat="46.80388" lon="5.87045">
        <ele>642.2</ele>
        <time>2021-01-08T13:29:44Z</time>
      </trkpt>
      <trkpt lat="46.8039" lon="5.87038">
        <ele>641.5</ele>
        <time>2021-01-08T13:29:49Z</time>
      </trkpt>
      <trkpt lat="46.80393" lon="5.87032">
        <ele>640.5</ele>
        <time>2021-01-08T13:29:54Z</time>
      </trkpt>
      <trkpt lat="46.80395" lon="5.87026">
        <ele>639.7</ele>
        <time>2021-01-08T13:29:59Z</time>
      </trkpt>
      <trkpt lat="46.80396" lon="5.87019">
        <ele>640.8</ele>
        <time>2021-01-08T13:30:38Z</time>
      </trkpt>
      <trkpt lat="46.80399" lon="5.87014">
        <ele>640.7</ele>
        <time>2021-01-08T13:31:39Z</time>
      </trkpt>
      <trkpt lat="46.80401" lon="5.87008">
        <ele>640.5</ele>
        <time>2021-01-08T13:31:45Z</time>
      </trkpt>
      <trkpt lat="46.80404" lon="5.87">
        <ele>640.8</ele>
        <time>2021-01-08T13:31:50Z</time>
      </trkpt>
      <trkpt lat="46.80406" lon="5.86994">
        <ele>641</ele>
        <time>2021-01-08T13:31:55Z</time>
      </trkpt>
      <trkpt lat="46.80409" lon="5.86988">
        <ele>641.3</ele>
        <time>2021-01-08T13:32:00Z</time>
      </trkpt>
      <trkpt lat="46.80411" lon="5.86981">
        <ele>641.7</ele>
        <time>2021-01-08T13:32:05Z</time>
      </trkpt>
      <trkpt lat="46.80412" lon="5.86974">
        <ele>642</ele>
        <time>2021-01-08T13:32:10Z</time>
      </trkpt>
      <trkpt lat="46.80414" lon="5.86968">
        <ele>642.3</ele>
        <time>2021-01-08T13:32:15Z</time>
      </trkpt>
      <trkpt lat="46.80416" lon="5.86962">
        <ele>643.1</ele>
        <time>2021-01-08T13:32:20Z</time>
      </trkpt>
      <trkpt lat="46.80419" lon="5.86956">
        <ele>644</ele>
        <time>2021-01-08T13:32:25Z</time>
      </trkpt>
      <trkpt lat="46.80421" lon="5.86949">
        <ele>644.6</ele>
        <time>2021-01-08T13:32:30Z</time>
      </trkpt>
      <trkpt lat="46.80423" lon="5.86942">
        <ele>645</ele>
        <time>2021-01-08T13:32:36Z</time>
      </trkpt>
      <trkpt lat="46.80426" lon="5.86937">
        <ele>645.2</ele>
        <time>2021-01-08T13:32:42Z</time>
      </trkpt>
      <trkpt lat="46.80429" lon="5.8693">
        <ele>644.9</ele>
        <time>2021-01-08T13:32:48Z</time>
      </trkpt>
      <trkpt lat="46.80431" lon="5.86925">
        <ele>644.4</ele>
        <time>2021-01-08T13:32:53Z</time>
      </trkpt>
      <trkpt lat="46.80433" lon="5.86918">
        <ele>644</ele>
        <time>2021-01-08T13:32:58Z</time>
      </trkpt>
      <trkpt lat="46.80435" lon="5.86911">
        <ele>643.7</ele>
        <time>2021-01-08T13:33:03Z</time>
      </trkpt>
      <trkpt lat="46.80437" lon="5.86904">
        <ele>644</ele>
        <time>2021-01-08T13:33:09Z</time>
      </trkpt>
      <trkpt lat="46.80439" lon="5.86898">
        <ele>644.1</ele>
        <time>2021-01-08T13:33:14Z</time>
      </trkpt>
      <trkpt lat="46.80442" lon="5.86892">
        <ele>644.4</ele>
        <time>2021-01-08T13:33:19Z</time>
      </trkpt>
      <trkpt lat="46.80444" lon="5.86886">
        <ele>644.9</ele>
        <time>2021-01-08T13:33:24Z</time>
      </trkpt>
      <trkpt lat="46.80447" lon="5.8688">
        <ele>645.4</ele>
        <time>2021-01-08T13:33:30Z</time>
      </trkpt>
      <trkpt lat="46.80449" lon="5.86874">
        <ele>645.8</ele>
        <time>2021-01-08T13:33:35Z</time>
      </trkpt>
      <trkpt lat="46.80451" lon="5.86868">
        <ele>645.9</ele>
        <time>2021-01-08T13:33:40Z</time>
      </trkpt>
      <trkpt lat="46.80453" lon="5.86862">
        <ele>645.9</ele>
        <time>2021-01-08T13:33:45Z</time>
      </trkpt>
      <trkpt lat="46.80455" lon="5.86855">
        <ele>645.6</ele>
        <time>2021-01-08T13:33:51Z</time>
      </trkpt>
      <trkpt lat="46.80457" lon="5.86848">
        <ele>645.4</ele>
        <time>2021-01-08T13:33:57Z</time>
      </trkpt>
      <trkpt lat="46.8046" lon="5.86841">
        <ele>645.1</ele>
        <time>2021-01-08T13:34:03Z</time>
      </trkpt>
      <trkpt lat="46.80462" lon="5.86834">
        <ele>644.5</ele>
        <time>2021-01-08T13:34:08Z</time>
      </trkpt>
      <trkpt lat="46.80465" lon="5.86828">
        <ele>644</ele>
        <time>2021-01-08T13:34:13Z</time>
      </trkpt>
      <trkpt lat="46.80467" lon="5.86822">
        <ele>643.7</ele>
        <time>2021-01-08T13:34:18Z</time>
      </trkpt>
      <trkpt lat="46.80469" lon="5.86816">
        <ele>643.4</ele>
        <time>2021-01-08T13:34:23Z</time>
      </trkpt>
      <trkpt lat="46.80472" lon="5.8681">
        <ele>643.3</ele>
        <time>2021-01-08T13:34:29Z</time>
      </trkpt>
      <trkpt lat="46.80474" lon="5.86803">
        <ele>643.6</ele>
        <time>2021-01-08T13:34:35Z</time>
      </trkpt>
      <trkpt lat="46.80476" lon="5.86797">
        <ele>644</ele>
        <time>2021-01-08T13:34:40Z</time>
      </trkpt>
      <trkpt lat="46.80478" lon="5.8679">
        <ele>644.2</ele>
        <time>2021-01-08T13:34:45Z</time>
      </trkpt>
      <trkpt lat="46.80481" lon="5.86784">
        <ele>644</ele>
        <time>2021-01-08T13:34:51Z</time>
      </trkpt>
      <trkpt lat="46.80484" lon="5.86778">
        <ele>643.7</ele>
        <time>2021-01-08T13:34:58Z</time>
      </trkpt>
      <trkpt lat="46.80486" lon="5.86771">
        <ele>643.4</ele>
        <time>2021-01-08T13:35:03Z</time>
      </trkpt>
      <trkpt lat="46.80489" lon="5.86764">
        <ele>643.4</ele>
        <time>2021-01-08T13:35:09Z</time>
      </trkpt>
      <trkpt lat="46.80491" lon="5.86758">
        <ele>643.4</ele>
        <time>2021-01-08T13:35:14Z</time>
      </trkpt>
      <trkpt lat="46.80493" lon="5.86752">
        <ele>643.1</ele>
        <time>2021-01-08T13:35:19Z</time>
      </trkpt>
      <trkpt lat="46.80495" lon="5.86745">
        <ele>642.7</ele>
        <time>2021-01-08T13:35:25Z</time>
      </trkpt>
      <trkpt lat="46.80497" lon="5.86738">
        <ele>642</ele>
        <time>2021-01-08T13:35:31Z</time>
      </trkpt>
      <trkpt lat="46.80499" lon="5.86731">
        <ele>641.4</ele>
        <time>2021-01-08T13:35:36Z</time>
      </trkpt>
      <trkpt lat="46.80501" lon="5.86723">
        <ele>641</ele>
        <time>2021-01-08T13:35:41Z</time>
      </trkpt>
      <trkpt lat="46.80504" lon="5.86717">
        <ele>640.9</ele>
        <time>2021-01-08T13:35:46Z</time>
      </trkpt>
      <trkpt lat="46.80506" lon="5.8671">
        <ele>640.8</ele>
        <time>2021-01-08T13:35:52Z</time>
      </trkpt>
      <trkpt lat="46.80509" lon="5.86705">
        <ele>641.1</ele>
        <time>2021-01-08T13:35:58Z</time>
      </trkpt>
      <trkpt lat="46.80511" lon="5.86698">
        <ele>641.8</ele>
        <time>2021-01-08T13:36:04Z</time>
      </trkpt>
      <trkpt lat="46.80513" lon="5.86692">
        <ele>642.6</ele>
        <time>2021-01-08T13:36:10Z</time>
      </trkpt>
      <trkpt lat="46.80516" lon="5.86685">
        <ele>643.5</ele>
        <time>2021-01-08T13:36:16Z</time>
      </trkpt>
      <trkpt lat="46.80518" lon="5.86678">
        <ele>644.1</ele>
        <time>2021-01-08T13:36:21Z</time>
      </trkpt>
      <trkpt lat="46.8052" lon="5.86672">
        <ele>644.6</ele>
        <time>2021-01-08T13:36:26Z</time>
      </trkpt>
      <trkpt lat="46.80522" lon="5.86666">
        <ele>644.9</ele>
        <time>2021-01-08T13:36:31Z</time>
      </trkpt>
      <trkpt lat="46.80524" lon="5.86659">
        <ele>645.1</ele>
        <time>2021-01-08T13:36:37Z</time>
      </trkpt>
      <trkpt lat="46.80526" lon="5.86653">
        <ele>645.1</ele>
        <time>2021-01-08T13:36:52Z</time>
      </trkpt>
      <trkpt lat="46.80528" lon="5.86646">
        <ele>644.9</ele>
        <time>2021-01-08T13:36:58Z</time>
      </trkpt>
      <trkpt lat="46.80531" lon="5.86641">
        <ele>644.9</ele>
        <time>2021-01-08T13:37:03Z</time>
      </trkpt>
      <trkpt lat="46.80534" lon="5.86635">
        <ele>644.8</ele>
        <time>2021-01-08T13:37:09Z</time>
      </trkpt>
      <trkpt lat="46.80536" lon="5.86629">
        <ele>644.8</ele>
        <time>2021-01-08T13:37:15Z</time>
      </trkpt>
      <trkpt lat="46.80538" lon="5.86622">
        <ele>645</ele>
        <time>2021-01-08T13:37:22Z</time>
      </trkpt>
      <trkpt lat="46.8054" lon="5.86616">
        <ele>645.2</ele>
        <time>2021-01-08T13:37:27Z</time>
      </trkpt>
      <trkpt lat="46.80542" lon="5.8661">
        <ele>645.3</ele>
        <time>2021-01-08T13:37:34Z</time>
      </trkpt>
      <trkpt lat="46.80542" lon="5.86604">
        <ele>645.3</ele>
        <time>2021-01-08T13:37:44Z</time>
      </trkpt>
      <trkpt lat="46.80542" lon="5.86597">
        <ele>645.2</ele>
        <time>2021-01-08T13:37:50Z</time>
      </trkpt>
      <trkpt lat="46.80541" lon="5.8659">
        <ele>645.4</ele>
        <time>2021-01-08T13:37:55Z</time>
      </trkpt>
      <trkpt lat="46.8054" lon="5.86583">
        <ele>645.4</ele>
        <time>2021-01-08T13:38:00Z</time>
      </trkpt>
      <trkpt lat="46.80538" lon="5.86576">
        <ele>645.5</ele>
        <time>2021-01-08T13:38:05Z</time>
      </trkpt>
      <trkpt lat="46.80536" lon="5.8657">
        <ele>646</ele>
        <time>2021-01-08T13:38:11Z</time>
      </trkpt>
      <trkpt lat="46.80533" lon="5.86564">
        <ele>646.4</ele>
        <time>2021-01-08T13:38:16Z</time>
      </trkpt>
      <trkpt lat="46.80531" lon="5.86557">
        <ele>646.9</ele>
        <time>2021-01-08T13:38:22Z</time>
      </trkpt>
      <trkpt lat="46.80529" lon="5.86551">
        <ele>647.2</ele>
        <time>2021-01-08T13:38:27Z</time>
      </trkpt>
      <trkpt lat="46.80526" lon="5.86544">
        <ele>647.4</ele>
        <time>2021-01-08T13:38:33Z</time>
      </trkpt>
      <trkpt lat="46.80524" lon="5.86538">
        <ele>647.7</ele>
        <time>2021-01-08T13:38:39Z</time>
      </trkpt>
      <trkpt lat="46.80521" lon="5.86532">
        <ele>648.5</ele>
        <time>2021-01-08T13:38:46Z</time>
      </trkpt>
      <trkpt lat="46.80519" lon="5.86526">
        <ele>648.9</ele>
        <time>2021-01-08T13:38:51Z</time>
      </trkpt>
      <trkpt lat="46.80516" lon="5.8652">
        <ele>649</ele>
        <time>2021-01-08T13:38:57Z</time>
      </trkpt>
      <trkpt lat="46.80514" lon="5.86514">
        <ele>648.8</ele>
        <time>2021-01-08T13:39:03Z</time>
      </trkpt>
      <trkpt lat="46.80511" lon="5.86508">
        <ele>647.6</ele>
        <time>2021-01-08T13:40:12Z</time>
      </trkpt>
      <trkpt lat="46.80509" lon="5.86501">
        <ele>648.4</ele>
        <time>2021-01-08T13:40:20Z</time>
      </trkpt>
      <trkpt lat="46.80507" lon="5.86495">
        <ele>648.7</ele>
        <time>2021-01-08T13:40:26Z</time>
      </trkpt>
      <trkpt lat="46.80505" lon="5.86488">
        <ele>648.3</ele>
        <time>2021-01-08T13:40:41Z</time>
      </trkpt>
      <trkpt lat="46.80502" lon="5.86483">
        <ele>647.9</ele>
        <time>2021-01-08T13:40:47Z</time>
      </trkpt>
      <trkpt lat="46.80498" lon="5.86477">
        <ele>647.7</ele>
        <time>2021-01-08T13:40:52Z</time>
      </trkpt>
      <trkpt lat="46.80496" lon="5.86471">
        <ele>647.5</ele>
        <time>2021-01-08T13:40:57Z</time>
      </trkpt>
      <trkpt lat="46.80493" lon="5.86464">
        <ele>647.8</ele>
        <time>2021-01-08T13:41:03Z</time>
      </trkpt>
      <trkpt lat="46.80492" lon="5.86458">
        <ele>648.2</ele>
        <time>2021-01-08T13:41:08Z</time>
      </trkpt>
      <trkpt lat="46.80491" lon="5.86451">
        <ele>648.4</ele>
        <time>2021-01-08T13:41:13Z</time>
      </trkpt>
      <trkpt lat="46.8049" lon="5.86444">
        <ele>648.3</ele>
        <time>2021-01-08T13:41:18Z</time>
      </trkpt>
      <trkpt lat="46.8049" lon="5.86437">
        <ele>648.1</ele>
        <time>2021-01-08T13:41:23Z</time>
      </trkpt>
      <trkpt lat="46.8049" lon="5.8643">
        <ele>647.9</ele>
        <time>2021-01-08T13:41:28Z</time>
      </trkpt>
      <trkpt lat="46.80491" lon="5.86424">
        <ele>647.9</ele>
        <time>2021-01-08T13:41:33Z</time>
      </trkpt>
      <trkpt lat="46.80492" lon="5.86416">
        <ele>647.5</ele>
        <time>2021-01-08T13:41:39Z</time>
      </trkpt>
      <trkpt lat="46.80492" lon="5.86408">
        <ele>647.2</ele>
        <time>2021-01-08T13:41:45Z</time>
      </trkpt>
      <trkpt lat="46.80492" lon="5.86401">
        <ele>646.2</ele>
        <time>2021-01-08T13:41:52Z</time>
      </trkpt>
      <trkpt lat="46.80493" lon="5.86394">
        <ele>645.5</ele>
        <time>2021-01-08T13:41:59Z</time>
      </trkpt>
      <trkpt lat="46.80494" lon="5.86386">
        <ele>644.9</ele>
        <time>2021-01-08T13:42:04Z</time>
      </trkpt>
      <trkpt lat="46.80495" lon="5.8638">
        <ele>644.5</ele>
        <time>2021-01-08T13:42:09Z</time>
      </trkpt>
      <trkpt lat="46.80496" lon="5.86372">
        <ele>644.4</ele>
        <time>2021-01-08T13:42:15Z</time>
      </trkpt>
      <trkpt lat="46.80496" lon="5.86365">
        <ele>644.3</ele>
        <time>2021-01-08T13:42:20Z</time>
      </trkpt>
      <trkpt lat="46.80495" lon="5.86359">
        <ele>644.1</ele>
        <time>2021-01-08T13:42:25Z</time>
      </trkpt>
      <trkpt lat="46.80495" lon="5.86352">
        <ele>644.2</ele>
        <time>2021-01-08T13:42:30Z</time>
      </trkpt>
      <trkpt lat="46.80494" lon="5.86345">
        <ele>644.4</ele>
        <time>2021-01-08T13:42:35Z</time>
      </trkpt>
      <trkpt lat="46.80493" lon="5.86338">
        <ele>644.3</ele>
        <time>2021-01-08T13:42:40Z</time>
      </trkpt>
      <trkpt lat="46.80491" lon="5.86331">
        <ele>644</ele>
        <time>2021-01-08T13:42:45Z</time>
      </trkpt>
      <trkpt lat="46.8049" lon="5.86324">
        <ele>643.5</ele>
        <time>2021-01-08T13:42:54Z</time>
      </trkpt>
      <trkpt lat="46.80489" lon="5.86317">
        <ele>643.4</ele>
        <time>2021-01-08T13:43:00Z</time>
      </trkpt>
      <trkpt lat="46.80487" lon="5.8631">
        <ele>643.3</ele>
        <time>2021-01-08T13:43:05Z</time>
      </trkpt>
      <trkpt lat="46.80483" lon="5.86304">
        <ele>643</ele>
        <time>2021-01-08T13:43:10Z</time>
      </trkpt>
      <trkpt lat="46.8048" lon="5.86299">
        <ele>642.4</ele>
        <time>2021-01-08T13:43:17Z</time>
      </trkpt>
      <trkpt lat="46.80478" lon="5.86294">
        <ele>644.6</ele>
        <time>2021-01-08T13:44:22Z</time>
      </trkpt>
      <trkpt lat="46.80476" lon="5.86287">
        <ele>645.4</ele>
        <time>2021-01-08T13:44:38Z</time>
      </trkpt>
      <trkpt lat="46.80474" lon="5.86281">
        <ele>643.6</ele>
        <time>2021-01-08T13:44:44Z</time>
      </trkpt>
      <trkpt lat="46.80472" lon="5.86274">
        <ele>642</ele>
        <time>2021-01-08T13:44:50Z</time>
      </trkpt>
      <trkpt lat="46.80469" lon="5.86268">
        <ele>641.6</ele>
        <time>2021-01-08T13:44:55Z</time>
      </trkpt>
      <trkpt lat="46.80466" lon="5.86262">
        <ele>641.2</ele>
        <time>2021-01-08T13:45:00Z</time>
      </trkpt>
      <trkpt lat="46.80464" lon="5.86256">
        <ele>640.8</ele>
        <time>2021-01-08T13:45:05Z</time>
      </trkpt>
      <trkpt lat="46.80462" lon="5.86248">
        <ele>640.2</ele>
        <time>2021-01-08T13:45:12Z</time>
      </trkpt>
      <trkpt lat="46.8046" lon="5.86241">
        <ele>639.9</ele>
        <time>2021-01-08T13:45:17Z</time>
      </trkpt>
      <trkpt lat="46.80457" lon="5.86236">
        <ele>639.7</ele>
        <time>2021-01-08T13:45:21Z</time>
      </trkpt>
      <trkpt lat="46.80455" lon="5.8623">
        <ele>639.6</ele>
        <time>2021-01-08T13:45:27Z</time>
      </trkpt>
      <trkpt lat="46.80453" lon="5.86223">
        <ele>639.3</ele>
        <time>2021-01-08T13:45:32Z</time>
      </trkpt>
      <trkpt lat="46.8045" lon="5.86217">
        <ele>639.2</ele>
        <time>2021-01-08T13:45:37Z</time>
      </trkpt>
      <trkpt lat="46.80447" lon="5.86211">
        <ele>640</ele>
        <time>2021-01-08T13:45:43Z</time>
      </trkpt>
      <trkpt lat="46.80445" lon="5.86203">
        <ele>641.5</ele>
        <time>2021-01-08T13:45:48Z</time>
      </trkpt>
      <trkpt lat="46.80442" lon="5.86195">
        <ele>643.4</ele>
        <time>2021-01-08T13:45:53Z</time>
      </trkpt>
      <trkpt lat="46.8044" lon="5.86188">
        <ele>644.4</ele>
        <time>2021-01-08T13:45:58Z</time>
      </trkpt>
      <trkpt lat="46.80438" lon="5.86182">
        <ele>645.3</ele>
        <time>2021-01-08T13:46:04Z</time>
      </trkpt>
      <trkpt lat="46.80436" lon="5.86176">
        <ele>646.6</ele>
        <time>2021-01-08T13:46:10Z</time>
      </trkpt>
      <trkpt lat="46.80435" lon="5.86169">
        <ele>648.4</ele>
        <time>2021-01-08T13:46:17Z</time>
      </trkpt>
      <trkpt lat="46.80433" lon="5.86163">
        <ele>649.4</ele>
        <time>2021-01-08T13:46:23Z</time>
      </trkpt>
      <trkpt lat="46.80431" lon="5.86157">
        <ele>649.6</ele>
        <time>2021-01-08T13:46:30Z</time>
      </trkpt>
      <trkpt lat="46.80428" lon="5.8615">
        <ele>649.3</ele>
        <time>2021-01-08T13:46:36Z</time>
      </trkpt>
      <trkpt lat="46.80426" lon="5.86144">
        <ele>648.9</ele>
        <time>2021-01-08T13:46:42Z</time>
      </trkpt>
      <trkpt lat="46.80423" lon="5.86138">
        <ele>648.3</ele>
        <time>2021-01-08T13:46:49Z</time>
      </trkpt>
      <trkpt lat="46.80419" lon="5.86133">
        <ele>647.5</ele>
        <time>2021-01-08T13:46:54Z</time>
      </trkpt>
      <trkpt lat="46.80416" lon="5.86128">
        <ele>646.5</ele>
        <time>2021-01-08T13:46:59Z</time>
      </trkpt>
      <trkpt lat="46.80412" lon="5.86123">
        <ele>645</ele>
        <time>2021-01-08T13:47:04Z</time>
      </trkpt>
      <trkpt lat="46.80408" lon="5.86117">
        <ele>643.2</ele>
        <time>2021-01-08T13:47:10Z</time>
      </trkpt>
      <trkpt lat="46.80405" lon="5.86112">
        <ele>641.5</ele>
        <time>2021-01-08T13:47:16Z</time>
      </trkpt>
      <trkpt lat="46.80401" lon="5.86107">
        <ele>639.9</ele>
        <time>2021-01-08T13:47:21Z</time>
      </trkpt>
      <trkpt lat="46.80397" lon="5.86102">
        <ele>639</ele>
        <time>2021-01-08T13:47:28Z</time>
      </trkpt>
      <trkpt lat="46.80394" lon="5.86098">
        <ele>638.8</ele>
        <time>2021-01-08T13:47:33Z</time>
      </trkpt>
      <trkpt lat="46.8039" lon="5.86092">
        <ele>638.6</ele>
        <time>2021-01-08T13:47:38Z</time>
      </trkpt>
      <trkpt lat="46.80388" lon="5.86087">
        <ele>638.5</ele>
        <time>2021-01-08T13:47:43Z</time>
      </trkpt>
      <trkpt lat="46.80388" lon="5.8608">
        <ele>639</ele>
        <time>2021-01-08T13:47:50Z</time>
      </trkpt>
      <trkpt lat="46.80392" lon="5.86076">
        <ele>641.3</ele>
        <time>2021-01-08T13:48:29Z</time>
      </trkpt>
      <trkpt lat="46.80397" lon="5.86074">
        <ele>642.1</ele>
        <time>2021-01-08T13:48:44Z</time>
      </trkpt>
      <trkpt lat="46.80401" lon="5.86069">
        <ele>641.1</ele>
        <time>2021-01-08T13:48:49Z</time>
      </trkpt>
      <trkpt lat="46.80405" lon="5.86063">
        <ele>639.2</ele>
        <time>2021-01-08T13:48:56Z</time>
      </trkpt>
      <trkpt lat="46.80409" lon="5.86061">
        <ele>639.5</ele>
        <time>2021-01-08T13:49:10Z</time>
      </trkpt>
      <trkpt lat="46.80414" lon="5.86056">
        <ele>640.2</ele>
        <time>2021-01-08T13:49:15Z</time>
      </trkpt>
      <trkpt lat="46.80419" lon="5.86052">
        <ele>640.8</ele>
        <time>2021-01-08T13:49:20Z</time>
      </trkpt>
      <trkpt lat="46.80426" lon="5.86047">
        <ele>641.7</ele>
        <time>2021-01-08T13:49:25Z</time>
      </trkpt>
      <trkpt lat="46.80431" lon="5.86044">
        <ele>642.9</ele>
        <time>2021-01-08T13:49:30Z</time>
      </trkpt>
      <trkpt lat="46.80435" lon="5.86039">
        <ele>643.9</ele>
        <time>2021-01-08T13:49:36Z</time>
      </trkpt>
      <trkpt lat="46.8044" lon="5.86034">
        <ele>644.5</ele>
        <time>2021-01-08T13:49:42Z</time>
      </trkpt>
      <trkpt lat="46.80443" lon="5.8603">
        <ele>644.3</ele>
        <time>2021-01-08T13:49:47Z</time>
      </trkpt>
      <trkpt lat="46.80447" lon="5.86026">
        <ele>644</ele>
        <time>2021-01-08T13:49:52Z</time>
      </trkpt>
      <trkpt lat="46.80451" lon="5.8602">
        <ele>643.7</ele>
        <time>2021-01-08T13:49:57Z</time>
      </trkpt>
      <trkpt lat="46.80455" lon="5.86015">
        <ele>643.3</ele>
        <time>2021-01-08T13:50:02Z</time>
      </trkpt>
      <trkpt lat="46.80459" lon="5.8601">
        <ele>642.9</ele>
        <time>2021-01-08T13:50:07Z</time>
      </trkpt>
      <trkpt lat="46.80462" lon="5.86005">
        <ele>642.6</ele>
        <time>2021-01-08T13:50:12Z</time>
      </trkpt>
      <trkpt lat="46.80466" lon="5.85999">
        <ele>642.2</ele>
        <time>2021-01-08T13:50:17Z</time>
      </trkpt>
      <trkpt lat="46.80469" lon="5.85994">
        <ele>641.9</ele>
        <time>2021-01-08T13:50:22Z</time>
      </trkpt>
      <trkpt lat="46.80473" lon="5.85988">
        <ele>641.4</ele>
        <time>2021-01-08T13:50:27Z</time>
      </trkpt>
      <trkpt lat="46.80476" lon="5.85983">
        <ele>641.2</ele>
        <time>2021-01-08T13:50:32Z</time>
      </trkpt>
      <trkpt lat="46.8048" lon="5.85978">
        <ele>641.4</ele>
        <time>2021-01-08T13:50:37Z</time>
      </trkpt>
      <trkpt lat="46.80483" lon="5.85973">
        <ele>641.3</ele>
        <time>2021-01-08T13:50:42Z</time>
      </trkpt>
      <trkpt lat="46.80487" lon="5.85968">
        <ele>641.2</ele>
        <time>2021-01-08T13:50:47Z</time>
      </trkpt>
      <trkpt lat="46.8049" lon="5.85964">
        <ele>640.6</ele>
        <time>2021-01-08T13:50:52Z</time>
      </trkpt>
      <trkpt lat="46.80494" lon="5.85958">
        <ele>639.8</ele>
        <time>2021-01-08T13:50:58Z</time>
      </trkpt>
      <trkpt lat="46.80497" lon="5.85952">
        <ele>639.3</ele>
        <time>2021-01-08T13:51:03Z</time>
      </trkpt>
      <trkpt lat="46.805" lon="5.85945">
        <ele>639.1</ele>
        <time>2021-01-08T13:51:08Z</time>
      </trkpt>
      <trkpt lat="46.80502" lon="5.85938">
        <ele>638.9</ele>
        <time>2021-01-08T13:51:13Z</time>
      </trkpt>
      <trkpt lat="46.80505" lon="5.85933">
        <ele>638.9</ele>
        <time>2021-01-08T13:51:20Z</time>
      </trkpt>
      <trkpt lat="46.80504" lon="5.85926">
        <ele>644.3</ele>
        <time>2021-01-08T13:52:41Z</time>
      </trkpt>
      <trkpt lat="46.80507" lon="5.85921">
        <ele>644.1</ele>
        <time>2021-01-08T13:52:48Z</time>
      </trkpt>
      <trkpt lat="46.80511" lon="5.85914">
        <ele>643.9</ele>
        <time>2021-01-08T13:52:53Z</time>
      </trkpt>
      <trkpt lat="46.80512" lon="5.85907">
        <ele>643.9</ele>
        <time>2021-01-08T13:52:58Z</time>
      </trkpt>
      <trkpt lat="46.80515" lon="5.85901">
        <ele>644.3</ele>
        <time>2021-01-08T13:53:03Z</time>
      </trkpt>
      <trkpt lat="46.80518" lon="5.85894">
        <ele>645</ele>
        <time>2021-01-08T13:53:09Z</time>
      </trkpt>
      <trkpt lat="46.8052" lon="5.85889">
        <ele>645.2</ele>
        <time>2021-01-08T13:53:14Z</time>
      </trkpt>
      <trkpt lat="46.80524" lon="5.85883">
        <ele>645.2</ele>
        <time>2021-01-08T13:53:20Z</time>
      </trkpt>
      <trkpt lat="46.80526" lon="5.85878">
        <ele>645.4</ele>
        <time>2021-01-08T13:53:26Z</time>
      </trkpt>
      <trkpt lat="46.80529" lon="5.85872">
        <ele>645.1</ele>
        <time>2021-01-08T13:53:32Z</time>
      </trkpt>
      <trkpt lat="46.80531" lon="5.85866">
        <ele>644.7</ele>
        <time>2021-01-08T13:53:37Z</time>
      </trkpt>
      <trkpt lat="46.80534" lon="5.85859">
        <ele>643.8</ele>
        <time>2021-01-08T13:53:42Z</time>
      </trkpt>
      <trkpt lat="46.80536" lon="5.85852">
        <ele>642.8</ele>
        <time>2021-01-08T13:53:47Z</time>
      </trkpt>
      <trkpt lat="46.80539" lon="5.85846">
        <ele>642.1</ele>
        <time>2021-01-08T13:53:52Z</time>
      </trkpt>
      <trkpt lat="46.80543" lon="5.85841">
        <ele>641.8</ele>
        <time>2021-01-08T13:53:57Z</time>
      </trkpt>
      <trkpt lat="46.80546" lon="5.85835">
        <ele>641.5</ele>
        <time>2021-01-08T13:54:03Z</time>
      </trkpt>
      <trkpt lat="46.80549" lon="5.85829">
        <ele>641.2</ele>
        <time>2021-01-08T13:54:09Z</time>
      </trkpt>
      <trkpt lat="46.80552" lon="5.85823">
        <ele>640.8</ele>
        <time>2021-01-08T13:54:14Z</time>
      </trkpt>
      <trkpt lat="46.80555" lon="5.85818">
        <ele>640.2</ele>
        <time>2021-01-08T13:54:19Z</time>
      </trkpt>
      <trkpt lat="46.80558" lon="5.85812">
        <ele>639.4</ele>
        <time>2021-01-08T13:54:24Z</time>
      </trkpt>
      <trkpt lat="46.8056" lon="5.85806">
        <ele>638.9</ele>
        <time>2021-01-08T13:54:29Z</time>
      </trkpt>
      <trkpt lat="46.80563" lon="5.858">
        <ele>638.3</ele>
        <time>2021-01-08T13:54:34Z</time>
      </trkpt>
      <trkpt lat="46.80567" lon="5.85795">
        <ele>637.9</ele>
        <time>2021-01-08T13:54:39Z</time>
      </trkpt>
      <trkpt lat="46.8057" lon="5.8579">
        <ele>637.9</ele>
        <time>2021-01-08T13:54:50Z</time>
      </trkpt>
      <trkpt lat="46.80573" lon="5.85783">
        <ele>637.9</ele>
        <time>2021-01-08T13:54:56Z</time>
      </trkpt>
      <trkpt lat="46.80575" lon="5.85777">
        <ele>638</ele>
        <time>2021-01-08T13:55:01Z</time>
      </trkpt>
      <trkpt lat="46.80577" lon="5.85772">
        <ele>638.3</ele>
        <time>2021-01-08T13:55:07Z</time>
      </trkpt>
      <trkpt lat="46.8058" lon="5.85766">
        <ele>638.6</ele>
        <time>2021-01-08T13:55:13Z</time>
      </trkpt>
      <trkpt lat="46.80583" lon="5.8576">
        <ele>638.6</ele>
        <time>2021-01-08T13:55:18Z</time>
      </trkpt>
      <trkpt lat="46.80586" lon="5.85753">
        <ele>638.3</ele>
        <time>2021-01-08T13:55:23Z</time>
      </trkpt>
      <trkpt lat="46.80589" lon="5.85747">
        <ele>638</ele>
        <time>2021-01-08T13:55:28Z</time>
      </trkpt>
      <trkpt lat="46.80591" lon="5.85741">
        <ele>638.1</ele>
        <time>2021-01-08T13:55:33Z</time>
      </trkpt>
      <trkpt lat="46.80593" lon="5.85735">
        <ele>638.2</ele>
        <time>2021-01-08T13:55:38Z</time>
      </trkpt>
      <trkpt lat="46.80595" lon="5.85728">
        <ele>638.1</ele>
        <time>2021-01-08T13:55:43Z</time>
      </trkpt>
      <trkpt lat="46.80598" lon="5.85722">
        <ele>638.2</ele>
        <time>2021-01-08T13:55:48Z</time>
      </trkpt>
      <trkpt lat="46.806" lon="5.85714">
        <ele>638.5</ele>
        <time>2021-01-08T13:55:53Z</time>
      </trkpt>
      <trkpt lat="46.80603" lon="5.85707">
        <ele>639</ele>
        <time>2021-01-08T13:55:58Z</time>
      </trkpt>
      <trkpt lat="46.80605" lon="5.857">
        <ele>639.7</ele>
        <time>2021-01-08T13:56:03Z</time>
      </trkpt>
      <trkpt lat="46.80608" lon="5.85695">
        <ele>639.8</ele>
        <time>2021-01-08T13:56:08Z</time>
      </trkpt>
      <trkpt lat="46.8061" lon="5.85687">
        <ele>639.9</ele>
        <time>2021-01-08T13:56:13Z</time>
      </trkpt>
      <trkpt lat="46.80613" lon="5.8568">
        <ele>639.6</ele>
        <time>2021-01-08T13:56:18Z</time>
      </trkpt>
      <trkpt lat="46.80615" lon="5.85673">
        <ele>639.2</ele>
        <time>2021-01-08T13:56:23Z</time>
      </trkpt>
      <trkpt lat="46.80617" lon="5.85667">
        <ele>638.9</ele>
        <time>2021-01-08T13:56:28Z</time>
      </trkpt>
      <trkpt lat="46.80618" lon="5.8566">
        <ele>638.8</ele>
        <time>2021-01-08T13:56:33Z</time>
      </trkpt>
      <trkpt lat="46.8062" lon="5.85653">
        <ele>638.7</ele>
        <time>2021-01-08T13:56:38Z</time>
      </trkpt>
      <trkpt lat="46.80623" lon="5.85645">
        <ele>638.9</ele>
        <time>2021-01-08T13:56:43Z</time>
      </trkpt>
      <trkpt lat="46.80626" lon="5.85639">
        <ele>639.1</ele>
        <time>2021-01-08T13:56:48Z</time>
      </trkpt>
      <trkpt lat="46.80628" lon="5.85633">
        <ele>639.5</ele>
        <time>2021-01-08T13:56:53Z</time>
      </trkpt>
      <trkpt lat="46.8063" lon="5.85627">
        <ele>639.9</ele>
        <time>2021-01-08T13:56:58Z</time>
      </trkpt>
      <trkpt lat="46.80633" lon="5.85621">
        <ele>639.8</ele>
        <time>2021-01-08T13:57:03Z</time>
      </trkpt>
      <trkpt lat="46.80635" lon="5.85614">
        <ele>639.4</ele>
        <time>2021-01-08T13:57:08Z</time>
      </trkpt>
      <trkpt lat="46.80638" lon="5.85608">
        <ele>639.4</ele>
        <time>2021-01-08T13:57:13Z</time>
      </trkpt>
      <trkpt lat="46.80641" lon="5.85603">
        <ele>639.1</ele>
        <time>2021-01-08T13:57:18Z</time>
      </trkpt>
      <trkpt lat="46.80645" lon="5.85597">
        <ele>638.7</ele>
        <time>2021-01-08T13:57:23Z</time>
      </trkpt>
      <trkpt lat="46.80648" lon="5.85591">
        <ele>638.5</ele>
        <time>2021-01-08T13:57:28Z</time>
      </trkpt>
      <trkpt lat="46.80651" lon="5.85584">
        <ele>638.3</ele>
        <time>2021-01-08T13:57:33Z</time>
      </trkpt>
      <trkpt lat="46.80654" lon="5.85578">
        <ele>638.1</ele>
        <time>2021-01-08T13:57:39Z</time>
      </trkpt>
      <trkpt lat="46.80658" lon="5.85574">
        <ele>637.6</ele>
        <time>2021-01-08T13:57:44Z</time>
      </trkpt>
      <trkpt lat="46.8066" lon="5.85567">
        <ele>636.9</ele>
        <time>2021-01-08T13:57:53Z</time>
      </trkpt>
      <trkpt lat="46.80663" lon="5.85561">
        <ele>636.1</ele>
        <time>2021-01-08T13:57:58Z</time>
      </trkpt>
      <trkpt lat="46.80667" lon="5.85554">
        <ele>635.6</ele>
        <time>2021-01-08T13:58:03Z</time>
      </trkpt>
      <trkpt lat="46.8067" lon="5.85549">
        <ele>635.7</ele>
        <time>2021-01-08T13:58:08Z</time>
      </trkpt>
      <trkpt lat="46.80673" lon="5.85543">
        <ele>635.9</ele>
        <time>2021-01-08T13:58:13Z</time>
      </trkpt>
      <trkpt lat="46.80676" lon="5.85536">
        <ele>636.2</ele>
        <time>2021-01-08T13:58:18Z</time>
      </trkpt>
      <trkpt lat="46.80677" lon="5.85529">
        <ele>636</ele>
        <time>2021-01-08T13:58:23Z</time>
      </trkpt>
      <trkpt lat="46.80679" lon="5.85523">
        <ele>635.7</ele>
        <time>2021-01-08T13:58:28Z</time>
      </trkpt>
      <trkpt lat="46.80682" lon="5.85516">
        <ele>635.6</ele>
        <time>2021-01-08T13:58:34Z</time>
      </trkpt>
      <trkpt lat="46.80684" lon="5.8551">
        <ele>636.1</ele>
        <time>2021-01-08T13:58:39Z</time>
      </trkpt>
      <trkpt lat="46.80687" lon="5.85503">
        <ele>636.7</ele>
        <time>2021-01-08T13:58:44Z</time>
      </trkpt>
      <trkpt lat="46.80689" lon="5.85496">
        <ele>637.5</ele>
        <time>2021-01-08T13:58:49Z</time>
      </trkpt>
      <trkpt lat="46.80691" lon="5.8549">
        <ele>637.8</ele>
        <time>2021-01-08T13:58:54Z</time>
      </trkpt>
      <trkpt lat="46.80693" lon="5.85483">
        <ele>638.1</ele>
        <time>2021-01-08T13:58:59Z</time>
      </trkpt>
      <trkpt lat="46.80696" lon="5.85477">
        <ele>638.1</ele>
        <time>2021-01-08T13:59:04Z</time>
      </trkpt>
      <trkpt lat="46.80698" lon="5.8547">
        <ele>637.7</ele>
        <time>2021-01-08T13:59:09Z</time>
      </trkpt>
      <trkpt lat="46.807" lon="5.85464">
        <ele>637</ele>
        <time>2021-01-08T13:59:16Z</time>
      </trkpt>
      <trkpt lat="46.80702" lon="5.85457">
        <ele>635.8</ele>
        <time>2021-01-08T13:59:22Z</time>
      </trkpt>
      <trkpt lat="46.80705" lon="5.8545">
        <ele>635.4</ele>
        <time>2021-01-08T13:59:27Z</time>
      </trkpt>
      <trkpt lat="46.80707" lon="5.85441">
        <ele>635.4</ele>
        <time>2021-01-08T13:59:32Z</time>
      </trkpt>
      <trkpt lat="46.80709" lon="5.85434">
        <ele>635.9</ele>
        <time>2021-01-08T13:59:37Z</time>
      </trkpt>
      <trkpt lat="46.80711" lon="5.85427">
        <ele>636.3</ele>
        <time>2021-01-08T13:59:42Z</time>
      </trkpt>
      <trkpt lat="46.80713" lon="5.8542">
        <ele>637</ele>
        <time>2021-01-08T13:59:48Z</time>
      </trkpt>
      <trkpt lat="46.80716" lon="5.85414">
        <ele>637.5</ele>
        <time>2021-01-08T13:59:53Z</time>
      </trkpt>
      <trkpt lat="46.80718" lon="5.85408">
        <ele>637.8</ele>
        <time>2021-01-08T13:59:58Z</time>
      </trkpt>
      <trkpt lat="46.80721" lon="5.85402">
        <ele>637.8</ele>
        <time>2021-01-08T14:00:03Z</time>
      </trkpt>
      <trkpt lat="46.80724" lon="5.85396">
        <ele>637.7</ele>
        <time>2021-01-08T14:00:08Z</time>
      </trkpt>
      <trkpt lat="46.80726" lon="5.85391">
        <ele>637.1</ele>
        <time>2021-01-08T14:00:13Z</time>
      </trkpt>
      <trkpt lat="46.80728" lon="5.85384">
        <ele>636.3</ele>
        <time>2021-01-08T14:00:18Z</time>
      </trkpt>
      <trkpt lat="46.80731" lon="5.85379">
        <ele>635.2</ele>
        <time>2021-01-08T14:00:23Z</time>
      </trkpt>
      <trkpt lat="46.80734" lon="5.85373">
        <ele>634.5</ele>
        <time>2021-01-08T14:00:28Z</time>
      </trkpt>
      <trkpt lat="46.80738" lon="5.85368">
        <ele>634.3</ele>
        <time>2021-01-08T14:00:33Z</time>
      </trkpt>
      <trkpt lat="46.80741" lon="5.85362">
        <ele>634.2</ele>
        <time>2021-01-08T14:00:39Z</time>
      </trkpt>
      <trkpt lat="46.80744" lon="5.85357">
        <ele>634.1</ele>
        <time>2021-01-08T14:00:45Z</time>
      </trkpt>
      <trkpt lat="46.80747" lon="5.85352">
        <ele>634</ele>
        <time>2021-01-08T14:00:50Z</time>
      </trkpt>
      <trkpt lat="46.80751" lon="5.85348">
        <ele>634</ele>
        <time>2021-01-08T14:00:55Z</time>
      </trkpt>
      <trkpt lat="46.80755" lon="5.85344">
        <ele>634.1</ele>
        <time>2021-01-08T14:01:00Z</time>
      </trkpt>
      <trkpt lat="46.80759" lon="5.8534">
        <ele>634.2</ele>
        <time>2021-01-08T14:01:05Z</time>
      </trkpt>
      <trkpt lat="46.80763" lon="5.85335">
        <ele>634.5</ele>
        <time>2021-01-08T14:01:10Z</time>
      </trkpt>
      <trkpt lat="46.80767" lon="5.85331">
        <ele>635.1</ele>
        <time>2021-01-08T14:01:15Z</time>
      </trkpt>
      <trkpt lat="46.8077" lon="5.85326">
        <ele>635.3</ele>
        <time>2021-01-08T14:01:20Z</time>
      </trkpt>
      <trkpt lat="46.80775" lon="5.85322">
        <ele>635.5</ele>
        <time>2021-01-08T14:01:25Z</time>
      </trkpt>
      <trkpt lat="46.80779" lon="5.85318">
        <ele>635.7</ele>
        <time>2021-01-08T14:01:30Z</time>
      </trkpt>
      <trkpt lat="46.80783" lon="5.85314">
        <ele>635.7</ele>
        <time>2021-01-08T14:01:35Z</time>
      </trkpt>
      <trkpt lat="46.80786" lon="5.85309">
        <ele>635.8</ele>
        <time>2021-01-08T14:01:41Z</time>
      </trkpt>
      <trkpt lat="46.8079" lon="5.85304">
        <ele>636</ele>
        <time>2021-01-08T14:01:46Z</time>
      </trkpt>
      <trkpt lat="46.80794" lon="5.85299">
        <ele>636.4</ele>
        <time>2021-01-08T14:01:51Z</time>
      </trkpt>
      <trkpt lat="46.80798" lon="5.85294">
        <ele>636.6</ele>
        <time>2021-01-08T14:01:56Z</time>
      </trkpt>
      <trkpt lat="46.80801" lon="5.85289">
        <ele>636.4</ele>
        <time>2021-01-08T14:02:01Z</time>
      </trkpt>
      <trkpt lat="46.80804" lon="5.85284">
        <ele>636</ele>
        <time>2021-01-08T14:02:06Z</time>
      </trkpt>
      <trkpt lat="46.80808" lon="5.85279">
        <ele>635.7</ele>
        <time>2021-01-08T14:02:11Z</time>
      </trkpt>
      <trkpt lat="46.80812" lon="5.85274">
        <ele>635</ele>
        <time>2021-01-08T14:02:16Z</time>
      </trkpt>
      <trkpt lat="46.80816" lon="5.85269">
        <ele>634.3</ele>
        <time>2021-01-08T14:02:21Z</time>
      </trkpt>
      <trkpt lat="46.80819" lon="5.85263">
        <ele>633.8</ele>
        <time>2021-01-08T14:02:27Z</time>
      </trkpt>
      <trkpt lat="46.80823" lon="5.85265">
        <ele>633.2</ele>
        <time>2021-01-08T14:02:54Z</time>
      </trkpt>
      <trkpt lat="46.80827" lon="5.85271">
        <ele>634.4</ele>
        <time>2021-01-08T14:03:04Z</time>
      </trkpt>
      <trkpt lat="46.80827" lon="5.85277">
        <ele>635.3</ele>
        <time>2021-01-08T14:03:10Z</time>
      </trkpt>
      <trkpt lat="46.80829" lon="5.85285">
        <ele>635.9</ele>
        <time>2021-01-08T14:03:15Z</time>
      </trkpt>
      <trkpt lat="46.8083" lon="5.85292">
        <ele>636.2</ele>
        <time>2021-01-08T14:03:20Z</time>
      </trkpt>
      <trkpt lat="46.80829" lon="5.85285">
        <ele>635.5</ele>
        <time>2021-01-08T14:05:11Z</time>
      </trkpt>
      <trkpt lat="46.80829" lon="5.85278">
        <ele>635.7</ele>
        <time>2021-01-08T14:05:17Z</time>
      </trkpt>
      <trkpt lat="46.80828" lon="5.85271">
        <ele>635.9</ele>
        <time>2021-01-08T14:05:22Z</time>
      </trkpt>
      <trkpt lat="46.80824" lon="5.8526">
        <ele>635.8</ele>
        <time>2021-01-08T14:05:27Z</time>
      </trkpt>
      <trkpt lat="46.8082" lon="5.85252">
        <ele>635.6</ele>
        <time>2021-01-08T14:05:32Z</time>
      </trkpt>
      <trkpt lat="46.80819" lon="5.85244">
        <ele>642.9</ele>
        <time>2021-01-08T14:05:39Z</time>
      </trkpt>
      <trkpt lat="46.80823" lon="5.85231">
        <ele>647.4</ele>
        <time>2021-01-08T14:05:44Z</time>
      </trkpt>
      <trkpt lat="46.80828" lon="5.8522">
        <ele>651.6</ele>
        <time>2021-01-08T14:05:49Z</time>
      </trkpt>
      <trkpt lat="46.80832" lon="5.85222">
        <ele>651.7</ele>
        <time>2021-01-08T14:05:54Z</time>
      </trkpt>
      <trkpt lat="46.80837" lon="5.85222">
        <ele>647.4</ele>
        <time>2021-01-08T14:06:03Z</time>
      </trkpt>
      <trkpt lat="46.80841" lon="5.85217">
        <ele>642.8</ele>
        <time>2021-01-08T14:06:11Z</time>
      </trkpt>
      <trkpt lat="46.80844" lon="5.85211">
        <ele>640.2</ele>
        <time>2021-01-08T14:06:17Z</time>
      </trkpt>
      <trkpt lat="46.80846" lon="5.85204">
        <ele>638.2</ele>
        <time>2021-01-08T14:06:23Z</time>
      </trkpt>
      <trkpt lat="46.80849" lon="5.85198">
        <ele>636.7</ele>
        <time>2021-01-08T14:06:29Z</time>
      </trkpt>
      <trkpt lat="46.80852" lon="5.85191">
        <ele>635.1</ele>
        <time>2021-01-08T14:06:35Z</time>
      </trkpt>
      <trkpt lat="46.80854" lon="5.85185">
        <ele>634</ele>
        <time>2021-01-08T14:06:40Z</time>
      </trkpt>
      <trkpt lat="46.80857" lon="5.8518">
        <ele>633.2</ele>
        <time>2021-01-08T14:06:45Z</time>
      </trkpt>
      <trkpt lat="46.80861" lon="5.85175">
        <ele>632.9</ele>
        <time>2021-01-08T14:06:50Z</time>
      </trkpt>
      <trkpt lat="46.80864" lon="5.8517">
        <ele>632.8</ele>
        <time>2021-01-08T14:06:56Z</time>
      </trkpt>
      <trkpt lat="46.80867" lon="5.85165">
        <ele>633.3</ele>
        <time>2021-01-08T14:07:02Z</time>
      </trkpt>
      <trkpt lat="46.80871" lon="5.8516">
        <ele>633.7</ele>
        <time>2021-01-08T14:07:08Z</time>
      </trkpt>
      <trkpt lat="46.80874" lon="5.85155">
        <ele>633.9</ele>
        <time>2021-01-08T14:07:14Z</time>
      </trkpt>
      <trkpt lat="46.80878" lon="5.8515">
        <ele>634.2</ele>
        <time>2021-01-08T14:07:19Z</time>
      </trkpt>
      <trkpt lat="46.80883" lon="5.85147">
        <ele>634.3</ele>
        <time>2021-01-08T14:07:25Z</time>
      </trkpt>
      <trkpt lat="46.80887" lon="5.85144">
        <ele>634.3</ele>
        <time>2021-01-08T14:07:30Z</time>
      </trkpt>
      <trkpt lat="46.80892" lon="5.85141">
        <ele>634.1</ele>
        <time>2021-01-08T14:07:35Z</time>
      </trkpt>
      <trkpt lat="46.80896" lon="5.85137">
        <ele>634.1</ele>
        <time>2021-01-08T14:07:40Z</time>
      </trkpt>
      <trkpt lat="46.809" lon="5.85134">
        <ele>633.8</ele>
        <time>2021-01-08T14:07:45Z</time>
      </trkpt>
      <trkpt lat="46.80904" lon="5.85131">
        <ele>633</ele>
        <time>2021-01-08T14:07:51Z</time>
      </trkpt>
      <trkpt lat="46.80908" lon="5.85126">
        <ele>632</ele>
        <time>2021-01-08T14:07:56Z</time>
      </trkpt>
      <trkpt lat="46.80912" lon="5.85121">
        <ele>631.2</ele>
        <time>2021-01-08T14:08:01Z</time>
      </trkpt>
      <trkpt lat="46.80916" lon="5.85117">
        <ele>630.8</ele>
        <time>2021-01-08T14:08:06Z</time>
      </trkpt>
      <trkpt lat="46.80919" lon="5.85111">
        <ele>630.5</ele>
        <time>2021-01-08T14:08:12Z</time>
      </trkpt>
      <trkpt lat="46.80923" lon="5.85105">
        <ele>630.5</ele>
        <time>2021-01-08T14:08:18Z</time>
      </trkpt>
      <trkpt lat="46.80926" lon="5.85101">
        <ele>631</ele>
        <time>2021-01-08T14:08:45Z</time>
      </trkpt>
      <trkpt lat="46.8093" lon="5.85097">
        <ele>630.3</ele>
        <time>2021-01-08T14:09:18Z</time>
      </trkpt>
      <trkpt lat="46.80935" lon="5.85093">
        <ele>629.7</ele>
        <time>2021-01-08T14:09:24Z</time>
      </trkpt>
      <trkpt lat="46.80936" lon="5.85087">
        <ele>628.6</ele>
        <time>2021-01-08T14:10:19Z</time>
      </trkpt>
      <trkpt lat="46.8094" lon="5.85081">
        <ele>628.9</ele>
        <time>2021-01-08T14:10:24Z</time>
      </trkpt>
      <trkpt lat="46.80943" lon="5.85075">
        <ele>630.2</ele>
        <time>2021-01-08T14:10:29Z</time>
      </trkpt>
      <trkpt lat="46.80946" lon="5.85069">
        <ele>631.4</ele>
        <time>2021-01-08T14:10:33Z</time>
      </trkpt>
      <trkpt lat="46.8095" lon="5.85064">
        <ele>632.4</ele>
        <time>2021-01-08T14:10:38Z</time>
      </trkpt>
      <trkpt lat="46.80952" lon="5.85057">
        <ele>632.1</ele>
        <time>2021-01-08T14:10:43Z</time>
      </trkpt>
      <trkpt lat="46.80956" lon="5.85052">
        <ele>631.2</ele>
        <time>2021-01-08T14:10:49Z</time>
      </trkpt>
      <trkpt lat="46.80959" lon="5.85046">
        <ele>631</ele>
        <time>2021-01-08T14:10:54Z</time>
      </trkpt>
      <trkpt lat="46.80962" lon="5.85041">
        <ele>630.8</ele>
        <time>2021-01-08T14:10:59Z</time>
      </trkpt>
      <trkpt lat="46.80965" lon="5.85035">
        <ele>630.7</ele>
        <time>2021-01-08T14:11:05Z</time>
      </trkpt>
      <trkpt lat="46.80969" lon="5.85031">
        <ele>630.3</ele>
        <time>2021-01-08T14:11:10Z</time>
      </trkpt>
      <trkpt lat="46.80973" lon="5.85027">
        <ele>629.7</ele>
        <time>2021-01-08T14:11:15Z</time>
      </trkpt>
      <trkpt lat="46.80976" lon="5.85023">
        <ele>629</ele>
        <time>2021-01-08T14:11:20Z</time>
      </trkpt>
      <trkpt lat="46.8098" lon="5.85019">
        <ele>628.2</ele>
        <time>2021-01-08T14:11:25Z</time>
      </trkpt>
      <trkpt lat="46.80982" lon="5.85012">
        <ele>627.4</ele>
        <time>2021-01-08T14:11:30Z</time>
      </trkpt>
      <trkpt lat="46.80985" lon="5.85006">
        <ele>626.6</ele>
        <time>2021-01-08T14:11:35Z</time>
      </trkpt>
      <trkpt lat="46.80989" lon="5.85001">
        <ele>626.3</ele>
        <time>2021-01-08T14:11:40Z</time>
      </trkpt>
      <trkpt lat="46.80992" lon="5.84996">
        <ele>625.9</ele>
        <time>2021-01-08T14:11:45Z</time>
      </trkpt>
      <trkpt lat="46.80995" lon="5.84991">
        <ele>625.4</ele>
        <time>2021-01-08T14:11:50Z</time>
      </trkpt>
      <trkpt lat="46.80999" lon="5.84986">
        <ele>625</ele>
        <time>2021-01-08T14:11:55Z</time>
      </trkpt>
      <trkpt lat="46.81002" lon="5.84981">
        <ele>624.7</ele>
        <time>2021-01-08T14:12:00Z</time>
      </trkpt>
      <trkpt lat="46.81006" lon="5.84975">
        <ele>625</ele>
        <time>2021-01-08T14:12:05Z</time>
      </trkpt>
      <trkpt lat="46.81009" lon="5.8497">
        <ele>625.6</ele>
        <time>2021-01-08T14:12:10Z</time>
      </trkpt>
      <trkpt lat="46.81012" lon="5.84964">
        <ele>626</ele>
        <time>2021-01-08T14:12:15Z</time>
      </trkpt>
      <trkpt lat="46.81015" lon="5.84958">
        <ele>625.9</ele>
        <time>2021-01-08T14:12:20Z</time>
      </trkpt>
      <trkpt lat="46.81018" lon="5.84952">
        <ele>625.6</ele>
        <time>2021-01-08T14:12:25Z</time>
      </trkpt>
      <trkpt lat="46.81021" lon="5.84947">
        <ele>625.4</ele>
        <time>2021-01-08T14:12:30Z</time>
      </trkpt>
      <trkpt lat="46.81025" lon="5.84942">
        <ele>625.5</ele>
        <time>2021-01-08T14:12:35Z</time>
      </trkpt>
      <trkpt lat="46.81028" lon="5.84937">
        <ele>625.4</ele>
        <time>2021-01-08T14:12:40Z</time>
      </trkpt>
      <trkpt lat="46.81031" lon="5.84932">
        <ele>625.2</ele>
        <time>2021-01-08T14:12:45Z</time>
      </trkpt>
      <trkpt lat="46.81034" lon="5.84927">
        <ele>624.8</ele>
        <time>2021-01-08T14:12:50Z</time>
      </trkpt>
      <trkpt lat="46.81039" lon="5.84922">
        <ele>624.4</ele>
        <time>2021-01-08T14:12:56Z</time>
      </trkpt>
      <trkpt lat="46.81043" lon="5.84918">
        <ele>624.1</ele>
        <time>2021-01-08T14:13:01Z</time>
      </trkpt>
      <trkpt lat="46.81047" lon="5.84914">
        <ele>623.8</ele>
        <time>2021-01-08T14:13:06Z</time>
      </trkpt>
      <trkpt lat="46.81052" lon="5.84911">
        <ele>623.7</ele>
        <time>2021-01-08T14:13:11Z</time>
      </trkpt>
      <trkpt lat="46.81057" lon="5.84908">
        <ele>623.5</ele>
        <time>2021-01-08T14:13:17Z</time>
      </trkpt>
      <trkpt lat="46.81062" lon="5.84906">
        <ele>623.4</ele>
        <time>2021-01-08T14:13:22Z</time>
      </trkpt>
      <trkpt lat="46.81065" lon="5.84902">
        <ele>623.5</ele>
        <time>2021-01-08T14:13:27Z</time>
      </trkpt>
      <trkpt lat="46.81069" lon="5.84896">
        <ele>624.2</ele>
        <time>2021-01-08T14:13:35Z</time>
      </trkpt>
      <trkpt lat="46.81072" lon="5.84891">
        <ele>624.8</ele>
        <time>2021-01-08T14:13:40Z</time>
      </trkpt>
      <trkpt lat="46.81075" lon="5.84885">
        <ele>624.9</ele>
        <time>2021-01-08T14:13:45Z</time>
      </trkpt>
      <trkpt lat="46.81078" lon="5.84879">
        <ele>625.1</ele>
        <time>2021-01-08T14:13:50Z</time>
      </trkpt>
      <trkpt lat="46.81082" lon="5.84874">
        <ele>625.9</ele>
        <time>2021-01-08T14:13:56Z</time>
      </trkpt>
      <trkpt lat="46.81085" lon="5.84868">
        <ele>626.4</ele>
        <time>2021-01-08T14:14:04Z</time>
      </trkpt>
      <trkpt lat="46.81089" lon="5.84864">
        <ele>627</ele>
        <time>2021-01-08T14:14:10Z</time>
      </trkpt>
      <trkpt lat="46.81092" lon="5.84858">
        <ele>627.9</ele>
        <time>2021-01-08T14:14:15Z</time>
      </trkpt>
      <trkpt lat="46.81093" lon="5.84852">
        <ele>628.8</ele>
        <time>2021-01-08T14:14:22Z</time>
      </trkpt>
      <trkpt lat="46.81095" lon="5.84845">
        <ele>628.8</ele>
        <time>2021-01-08T14:14:28Z</time>
      </trkpt>
      <trkpt lat="46.81097" lon="5.84836">
        <ele>628.8</ele>
        <time>2021-01-08T14:14:33Z</time>
      </trkpt>
      <trkpt lat="46.81099" lon="5.84829">
        <ele>629</ele>
        <time>2021-01-08T14:14:38Z</time>
      </trkpt>
      <trkpt lat="46.811" lon="5.84821">
        <ele>629.2</ele>
        <time>2021-01-08T14:14:43Z</time>
      </trkpt>
      <trkpt lat="46.81102" lon="5.84814">
        <ele>629.3</ele>
        <time>2021-01-08T14:14:48Z</time>
      </trkpt>
      <trkpt lat="46.81104" lon="5.84806">
        <ele>629.6</ele>
        <time>2021-01-08T14:14:53Z</time>
      </trkpt>
      <trkpt lat="46.81106" lon="5.848">
        <ele>629.5</ele>
        <time>2021-01-08T14:14:59Z</time>
      </trkpt>
      <trkpt lat="46.81109" lon="5.84794">
        <ele>629.5</ele>
        <time>2021-01-08T14:15:04Z</time>
      </trkpt>
      <trkpt lat="46.81111" lon="5.84787">
        <ele>629.4</ele>
        <time>2021-01-08T14:15:09Z</time>
      </trkpt>
      <trkpt lat="46.81113" lon="5.8478">
        <ele>629</ele>
        <time>2021-01-08T14:15:16Z</time>
      </trkpt>
      <trkpt lat="46.81115" lon="5.84771">
        <ele>631</ele>
        <time>2021-01-08T14:15:21Z</time>
      </trkpt>
      <trkpt lat="46.81118" lon="5.84765">
        <ele>632.9</ele>
        <time>2021-01-08T14:15:26Z</time>
      </trkpt>
      <trkpt lat="46.81122" lon="5.84761">
        <ele>633.5</ele>
        <time>2021-01-08T14:15:31Z</time>
      </trkpt>
      <trkpt lat="46.81127" lon="5.8476">
        <ele>633.4</ele>
        <time>2021-01-08T14:15:39Z</time>
      </trkpt>
      <trkpt lat="46.81131" lon="5.84757">
        <ele>632.9</ele>
        <time>2021-01-08T14:15:44Z</time>
      </trkpt>
      <trkpt lat="46.81136" lon="5.84753">
        <ele>632.5</ele>
        <time>2021-01-08T14:15:49Z</time>
      </trkpt>
      <trkpt lat="46.81141" lon="5.84749">
        <ele>632.1</ele>
        <time>2021-01-08T14:15:54Z</time>
      </trkpt>
      <trkpt lat="46.81145" lon="5.84745">
        <ele>632</ele>
        <time>2021-01-08T14:16:00Z</time>
      </trkpt>
      <trkpt lat="46.81149" lon="5.84741">
        <ele>631.9</ele>
        <time>2021-01-08T14:16:06Z</time>
      </trkpt>
      <trkpt lat="46.8115" lon="5.84735">
        <ele>631.3</ele>
        <time>2021-01-08T14:16:13Z</time>
      </trkpt>
      <trkpt lat="46.81154" lon="5.84728">
        <ele>629.9</ele>
        <time>2021-01-08T14:16:20Z</time>
      </trkpt>
      <trkpt lat="46.81158" lon="5.84723">
        <ele>629.1</ele>
        <time>2021-01-08T14:16:25Z</time>
      </trkpt>
      <trkpt lat="46.81161" lon="5.84719">
        <ele>628.1</ele>
        <time>2021-01-08T14:16:32Z</time>
      </trkpt>
      <trkpt lat="46.81162" lon="5.84712">
        <ele>626.5</ele>
        <time>2021-01-08T14:16:52Z</time>
      </trkpt>
      <trkpt lat="46.81164" lon="5.84706">
        <ele>626.5</ele>
        <time>2021-01-08T14:16:59Z</time>
      </trkpt>
      <trkpt lat="46.81167" lon="5.847">
        <ele>626.6</ele>
        <time>2021-01-08T14:17:07Z</time>
      </trkpt>
      <trkpt lat="46.81168" lon="5.84694">
        <ele>626.5</ele>
        <time>2021-01-08T14:17:13Z</time>
      </trkpt>
      <trkpt lat="46.81171" lon="5.84687">
        <ele>626.3</ele>
        <time>2021-01-08T14:17:20Z</time>
      </trkpt>
      <trkpt lat="46.81173" lon="5.84682">
        <ele>626.1</ele>
        <time>2021-01-08T14:17:25Z</time>
      </trkpt>
      <trkpt lat="46.81175" lon="5.84675">
        <ele>625.9</ele>
        <time>2021-01-08T14:17:30Z</time>
      </trkpt>
      <trkpt lat="46.81177" lon="5.84668">
        <ele>625.5</ele>
        <time>2021-01-08T14:17:36Z</time>
      </trkpt>
      <trkpt lat="46.81179" lon="5.84662">
        <ele>624.8</ele>
        <time>2021-01-08T14:17:42Z</time>
      </trkpt>
      <trkpt lat="46.81183" lon="5.84656">
        <ele>624.1</ele>
        <time>2021-01-08T14:17:48Z</time>
      </trkpt>
      <trkpt lat="46.81186" lon="5.84651">
        <ele>623.6</ele>
        <time>2021-01-08T14:17:53Z</time>
      </trkpt>
      <trkpt lat="46.8119" lon="5.84647">
        <ele>623.4</ele>
        <time>2021-01-08T14:17:59Z</time>
      </trkpt>
      <trkpt lat="46.81195" lon="5.84645">
        <ele>622.7</ele>
        <time>2021-01-08T14:18:05Z</time>
      </trkpt>
      <trkpt lat="46.81199" lon="5.84642">
        <ele>621.9</ele>
        <time>2021-01-08T14:18:10Z</time>
      </trkpt>
      <trkpt lat="46.81204" lon="5.84642">
        <ele>621.4</ele>
        <time>2021-01-08T14:18:15Z</time>
      </trkpt>
      <trkpt lat="46.81209" lon="5.84643">
        <ele>620.9</ele>
        <time>2021-01-08T14:18:21Z</time>
      </trkpt>
      <trkpt lat="46.81214" lon="5.84645">
        <ele>620.4</ele>
        <time>2021-01-08T14:18:26Z</time>
      </trkpt>
      <trkpt lat="46.81219" lon="5.84645">
        <ele>620.1</ele>
        <time>2021-01-08T14:18:31Z</time>
      </trkpt>
      <trkpt lat="46.81224" lon="5.84644">
        <ele>619.8</ele>
        <time>2021-01-08T14:18:37Z</time>
      </trkpt>
      <trkpt lat="46.81228" lon="5.84642">
        <ele>619.6</ele>
        <time>2021-01-08T14:18:43Z</time>
      </trkpt>
      <trkpt lat="46.81233" lon="5.84639">
        <ele>619.5</ele>
        <time>2021-01-08T14:18:48Z</time>
      </trkpt>
      <trkpt lat="46.81237" lon="5.84635">
        <ele>619.5</ele>
        <time>2021-01-08T14:18:53Z</time>
      </trkpt>
      <trkpt lat="46.81238" lon="5.84625">
        <ele>622.8</ele>
        <time>2021-01-08T14:18:57Z</time>
      </trkpt>
      <trkpt lat="46.81243" lon="5.84622">
        <ele>625.8</ele>
        <time>2021-01-08T14:19:04Z</time>
      </trkpt>
      <trkpt lat="46.81247" lon="5.84618">
        <ele>626.9</ele>
        <time>2021-01-08T14:19:25Z</time>
      </trkpt>
      <trkpt lat="46.81248" lon="5.84612">
        <ele>627.5</ele>
        <time>2021-01-08T14:19:31Z</time>
      </trkpt>
      <trkpt lat="46.81247" lon="5.84605">
        <ele>628.7</ele>
        <time>2021-01-08T14:19:38Z</time>
      </trkpt>
      <trkpt lat="46.81245" lon="5.84599">
        <ele>631.1</ele>
        <time>2021-01-08T14:19:48Z</time>
      </trkpt>
      <trkpt lat="46.81243" lon="5.84593">
        <ele>632.6</ele>
        <time>2021-01-08T14:19:55Z</time>
      </trkpt>
      <trkpt lat="46.81245" lon="5.846">
        <ele>633.9</ele>
        <time>2021-01-08T14:20:05Z</time>
      </trkpt>
      <trkpt lat="46.81248" lon="5.84603">
        <ele>634.5</ele>
        <time>2021-01-08T14:20:11Z</time>
      </trkpt>
      <trkpt lat="46.81252" lon="5.84608">
        <ele>634.7</ele>
        <time>2021-01-08T14:20:18Z</time>
      </trkpt>
      <trkpt lat="46.81252" lon="5.84615">
        <ele>635.2</ele>
        <time>2021-01-08T14:20:29Z</time>
      </trkpt>
      <trkpt lat="46.81251" lon="5.84621">
        <ele>634.6</ele>
        <time>2021-01-08T14:20:50Z</time>
      </trkpt>
      <trkpt lat="46.8125" lon="5.84629">
        <ele>625.4</ele>
        <time>2021-01-08T14:20:55Z</time>
      </trkpt>
      <trkpt lat="46.81245" lon="5.84629">
        <ele>620.9</ele>
        <time>2021-01-08T14:21:02Z</time>
      </trkpt>
      <trkpt lat="46.81241" lon="5.84625">
        <ele>619.4</ele>
        <time>2021-01-08T14:21:12Z</time>
      </trkpt>
      <trkpt lat="46.81247" lon="5.84623">
        <ele>621.4</ele>
        <time>2021-01-08T14:21:22Z</time>
      </trkpt>
      <trkpt lat="46.81245" lon="5.8463">
        <ele>622.2</ele>
        <time>2021-01-08T14:21:39Z</time>
      </trkpt>
      <trkpt lat="46.81241" lon="5.84633">
        <ele>622.8</ele>
        <time>2021-01-08T14:21:45Z</time>
      </trkpt>
      <trkpt lat="46.81234" lon="5.84635">
        <ele>624.8</ele>
        <time>2021-01-08T14:21:50Z</time>
      </trkpt>
      <trkpt lat="46.81226" lon="5.84643">
        <ele>627.4</ele>
        <time>2021-01-08T14:21:55Z</time>
      </trkpt>
      <trkpt lat="46.81219" lon="5.84647">
        <ele>631.5</ele>
        <time>2021-01-08T14:22:00Z</time>
      </trkpt>
      <trkpt lat="46.81213" lon="5.8465">
        <ele>633.7</ele>
        <time>2021-01-08T14:22:05Z</time>
      </trkpt>
      <trkpt lat="46.81208" lon="5.84647">
        <ele>634</ele>
        <time>2021-01-08T14:22:10Z</time>
      </trkpt>
      <trkpt lat="46.81204" lon="5.84642">
        <ele>635.7</ele>
        <time>2021-01-08T14:22:19Z</time>
      </trkpt>
      <trkpt lat="46.81198" lon="5.84642">
        <ele>636</ele>
        <time>2021-01-08T14:22:24Z</time>
      </trkpt>
      <trkpt lat="46.81193" lon="5.84642">
        <ele>636.8</ele>
        <time>2021-01-08T14:22:29Z</time>
      </trkpt>
      <trkpt lat="46.81189" lon="5.84646">
        <ele>637.9</ele>
        <time>2021-01-08T14:22:48Z</time>
      </trkpt>
      <trkpt lat="46.81186" lon="5.8465">
        <ele>638</ele>
        <time>2021-01-08T14:22:53Z</time>
      </trkpt>
      <trkpt lat="46.81183" lon="5.84656">
        <ele>638.2</ele>
        <time>2021-01-08T14:22:58Z</time>
      </trkpt>
      <trkpt lat="46.8118" lon="5.84662">
        <ele>638.5</ele>
        <time>2021-01-08T14:23:04Z</time>
      </trkpt>
      <trkpt lat="46.81178" lon="5.84668">
        <ele>638.4</ele>
        <time>2021-01-08T14:23:09Z</time>
      </trkpt>
      <trkpt lat="46.81176" lon="5.84675">
        <ele>638.1</ele>
        <time>2021-01-08T14:23:14Z</time>
      </trkpt>
      <trkpt lat="46.81174" lon="5.84683">
        <ele>637.8</ele>
        <time>2021-01-08T14:23:19Z</time>
      </trkpt>
      <trkpt lat="46.81173" lon="5.84691">
        <ele>637.5</ele>
        <time>2021-01-08T14:23:25Z</time>
      </trkpt>
      <trkpt lat="46.81176" lon="5.84696">
        <ele>632.8</ele>
        <time>2021-01-08T14:23:51Z</time>
      </trkpt>
      <trkpt lat="46.81174" lon="5.84702">
        <ele>623.5</ele>
        <time>2021-01-08T14:24:05Z</time>
      </trkpt>
      <trkpt lat="46.81169" lon="5.847">
        <ele>623.4</ele>
        <time>2021-01-08T14:24:35Z</time>
      </trkpt>
      <trkpt lat="46.81166" lon="5.84705">
        <ele>624.3</ele>
        <time>2021-01-08T14:24:40Z</time>
      </trkpt>
      <trkpt lat="46.81168" lon="5.84712">
        <ele>624.6</ele>
        <time>2021-01-08T14:24:46Z</time>
      </trkpt>
      <trkpt lat="46.81171" lon="5.84719">
        <ele>623.9</ele>
        <time>2021-01-08T14:24:51Z</time>
      </trkpt>
      <trkpt lat="46.81174" lon="5.84724">
        <ele>623.7</ele>
        <time>2021-01-08T14:24:57Z</time>
      </trkpt>
      <trkpt lat="46.81178" lon="5.84728">
        <ele>623</ele>
        <time>2021-01-08T14:25:05Z</time>
      </trkpt>
      <trkpt lat="46.81182" lon="5.84731">
        <ele>622.3</ele>
        <time>2021-01-08T14:25:13Z</time>
      </trkpt>
      <trkpt lat="46.81186" lon="5.84734">
        <ele>622.6</ele>
        <time>2021-01-08T14:25:19Z</time>
      </trkpt>
      <trkpt lat="46.8119" lon="5.84737">
        <ele>623.7</ele>
        <time>2021-01-08T14:25:25Z</time>
      </trkpt>
      <trkpt lat="46.81194" lon="5.84742">
        <ele>624.8</ele>
        <time>2021-01-08T14:25:31Z</time>
      </trkpt>
      <trkpt lat="46.81198" lon="5.84746">
        <ele>625.8</ele>
        <time>2021-01-08T14:25:37Z</time>
      </trkpt>
      <trkpt lat="46.81202" lon="5.84747">
        <ele>626.8</ele>
        <time>2021-01-08T14:25:42Z</time>
      </trkpt>
      <trkpt lat="46.81207" lon="5.84749">
        <ele>627.7</ele>
        <time>2021-01-08T14:25:47Z</time>
      </trkpt>
      <trkpt lat="46.81214" lon="5.84753">
        <ele>628.3</ele>
        <time>2021-01-08T14:25:52Z</time>
      </trkpt>
      <trkpt lat="46.81221" lon="5.84756">
        <ele>628.9</ele>
        <time>2021-01-08T14:25:57Z</time>
      </trkpt>
      <trkpt lat="46.81227" lon="5.84757">
        <ele>629.1</ele>
        <time>2021-01-08T14:26:02Z</time>
      </trkpt>
      <trkpt lat="46.81232" lon="5.8476">
        <ele>629</ele>
        <time>2021-01-08T14:26:07Z</time>
      </trkpt>
      <trkpt lat="46.81236" lon="5.84763">
        <ele>629.1</ele>
        <time>2021-01-08T14:26:13Z</time>
      </trkpt>
      <trkpt lat="46.81241" lon="5.84766">
        <ele>629.6</ele>
        <time>2021-01-08T14:26:20Z</time>
      </trkpt>
      <trkpt lat="46.81245" lon="5.84768">
        <ele>629.9</ele>
        <time>2021-01-08T14:26:27Z</time>
      </trkpt>
      <trkpt lat="46.8125" lon="5.8477">
        <ele>630.4</ele>
        <time>2021-01-08T14:26:32Z</time>
      </trkpt>
      <trkpt lat="46.81255" lon="5.84772">
        <ele>630.8</ele>
        <time>2021-01-08T14:26:37Z</time>
      </trkpt>
      <trkpt lat="46.8126" lon="5.84774">
        <ele>630.8</ele>
        <time>2021-01-08T14:26:42Z</time>
      </trkpt>
      <trkpt lat="46.81265" lon="5.84775">
        <ele>629.8</ele>
        <time>2021-01-08T14:26:47Z</time>
      </trkpt>
      <trkpt lat="46.8127" lon="5.84777">
        <ele>628.2</ele>
        <time>2021-01-08T14:26:52Z</time>
      </trkpt>
      <trkpt lat="46.81275" lon="5.84777">
        <ele>626.9</ele>
        <time>2021-01-08T14:26:58Z</time>
      </trkpt>
      <trkpt lat="46.8128" lon="5.84778">
        <ele>625.9</ele>
        <time>2021-01-08T14:27:03Z</time>
      </trkpt>
      <trkpt lat="46.81286" lon="5.84779">
        <ele>625</ele>
        <time>2021-01-08T14:27:08Z</time>
      </trkpt>
      <trkpt lat="46.81292" lon="5.84778">
        <ele>624</ele>
        <time>2021-01-08T14:27:13Z</time>
      </trkpt>
      <trkpt lat="46.81296" lon="5.84777">
        <ele>623.2</ele>
        <time>2021-01-08T14:27:18Z</time>
      </trkpt>
      <trkpt lat="46.81301" lon="5.84778">
        <ele>623.1</ele>
        <time>2021-01-08T14:27:24Z</time>
      </trkpt>
      <trkpt lat="46.81305" lon="5.8478">
        <ele>623.3</ele>
        <time>2021-01-08T14:27:32Z</time>
      </trkpt>
      <trkpt lat="46.81309" lon="5.84783">
        <ele>623.2</ele>
        <time>2021-01-08T14:27:37Z</time>
      </trkpt>
      <trkpt lat="46.81314" lon="5.84784">
        <ele>623.4</ele>
        <time>2021-01-08T14:27:43Z</time>
      </trkpt>
      <trkpt lat="46.81319" lon="5.84784">
        <ele>624.4</ele>
        <time>2021-01-08T14:27:50Z</time>
      </trkpt>
      <trkpt lat="46.81324" lon="5.84784">
        <ele>625.7</ele>
        <time>2021-01-08T14:27:56Z</time>
      </trkpt>
      <trkpt lat="46.81329" lon="5.84784">
        <ele>627.9</ele>
        <time>2021-01-08T14:28:02Z</time>
      </trkpt>
      <trkpt lat="46.81335" lon="5.84785">
        <ele>630</ele>
        <time>2021-01-08T14:28:07Z</time>
      </trkpt>
      <trkpt lat="46.8134" lon="5.84787">
        <ele>630.2</ele>
        <time>2021-01-08T14:28:12Z</time>
      </trkpt>
      <trkpt lat="46.81345" lon="5.84787">
        <ele>629.6</ele>
        <time>2021-01-08T14:28:18Z</time>
      </trkpt>
      <trkpt lat="46.8135" lon="5.84787">
        <ele>629.4</ele>
        <time>2021-01-08T14:28:23Z</time>
      </trkpt>
      <trkpt lat="46.81357" lon="5.84788">
        <ele>629.2</ele>
        <time>2021-01-08T14:28:28Z</time>
      </trkpt>
      <trkpt lat="46.81362" lon="5.84788">
        <ele>628.6</ele>
        <time>2021-01-08T14:28:33Z</time>
      </trkpt>
      <trkpt lat="46.81367" lon="5.84789">
        <ele>628</ele>
        <time>2021-01-08T14:28:38Z</time>
      </trkpt>
      <trkpt lat="46.81371" lon="5.84793">
        <ele>629.4</ele>
        <time>2021-01-08T14:28:51Z</time>
      </trkpt>
      <trkpt lat="46.81376" lon="5.84796">
        <ele>632.3</ele>
        <time>2021-01-08T14:28:58Z</time>
      </trkpt>
      <trkpt lat="46.81381" lon="5.84798">
        <ele>635.1</ele>
        <time>2021-01-08T14:29:03Z</time>
      </trkpt>
      <trkpt lat="46.81386" lon="5.848">
        <ele>638</ele>
        <time>2021-01-08T14:29:09Z</time>
      </trkpt>
      <trkpt lat="46.81389" lon="5.84805">
        <ele>640</ele>
        <time>2021-01-08T14:29:15Z</time>
      </trkpt>
      <trkpt lat="46.81394" lon="5.84809">
        <ele>641</ele>
        <time>2021-01-08T14:29:20Z</time>
      </trkpt>
      <trkpt lat="46.81402" lon="5.84811">
        <ele>642.1</ele>
        <time>2021-01-08T14:29:25Z</time>
      </trkpt>
      <trkpt lat="46.81407" lon="5.84813">
        <ele>643.3</ele>
        <time>2021-01-08T14:29:30Z</time>
      </trkpt>
      <trkpt lat="46.8141" lon="5.84818">
        <ele>645.2</ele>
        <time>2021-01-08T14:29:36Z</time>
      </trkpt>
      <trkpt lat="46.81415" lon="5.8482">
        <ele>645.8</ele>
        <time>2021-01-08T14:29:41Z</time>
      </trkpt>
      <trkpt lat="46.81421" lon="5.84823">
        <ele>645.8</ele>
        <time>2021-01-08T14:29:46Z</time>
      </trkpt>
      <trkpt lat="46.81425" lon="5.84824">
        <ele>645.5</ele>
        <time>2021-01-08T14:29:52Z</time>
      </trkpt>
      <trkpt lat="46.81429" lon="5.84829">
        <ele>644</ele>
        <time>2021-01-08T14:30:04Z</time>
      </trkpt>
      <trkpt lat="46.81434" lon="5.84833">
        <ele>642.5</ele>
        <time>2021-01-08T14:30:10Z</time>
      </trkpt>
      <trkpt lat="46.81438" lon="5.84835">
        <ele>641</ele>
        <time>2021-01-08T14:30:15Z</time>
      </trkpt>
      <trkpt lat="46.8144" lon="5.84842">
        <ele>642.9</ele>
        <time>2021-01-08T14:30:22Z</time>
      </trkpt>
      <trkpt lat="46.81443" lon="5.84847">
        <ele>645</ele>
        <time>2021-01-08T14:30:27Z</time>
      </trkpt>
      <trkpt lat="46.81447" lon="5.84852">
        <ele>646.7</ele>
        <time>2021-01-08T14:30:33Z</time>
      </trkpt>
      <trkpt lat="46.81451" lon="5.84854">
        <ele>647.6</ele>
        <time>2021-01-08T14:30:38Z</time>
      </trkpt>
      <trkpt lat="46.81456" lon="5.84858">
        <ele>648.3</ele>
        <time>2021-01-08T14:30:43Z</time>
      </trkpt>
      <trkpt lat="46.8146" lon="5.84862">
        <ele>649.2</ele>
        <time>2021-01-08T14:30:48Z</time>
      </trkpt>
      <trkpt lat="46.81463" lon="5.84867">
        <ele>650.4</ele>
        <time>2021-01-08T14:30:53Z</time>
      </trkpt>
      <trkpt lat="46.81466" lon="5.84873">
        <ele>652.3</ele>
        <time>2021-01-08T14:30:59Z</time>
      </trkpt>
      <trkpt lat="46.8147" lon="5.84877">
        <ele>654.1</ele>
        <time>2021-01-08T14:31:06Z</time>
      </trkpt>
      <trkpt lat="46.81474" lon="5.84881">
        <ele>655.1</ele>
        <time>2021-01-08T14:31:11Z</time>
      </trkpt>
      <trkpt lat="46.81481" lon="5.84883">
        <ele>653.3</ele>
        <time>2021-01-08T14:31:16Z</time>
      </trkpt>
      <trkpt lat="46.81485" lon="5.84886">
        <ele>650.8</ele>
        <time>2021-01-08T14:31:27Z</time>
      </trkpt>
      <trkpt lat="46.8149" lon="5.84888">
        <ele>650.3</ele>
        <time>2021-01-08T14:31:32Z</time>
      </trkpt>
      <trkpt lat="46.81495" lon="5.84891">
        <ele>650.6</ele>
        <time>2021-01-08T14:31:37Z</time>
      </trkpt>
      <trkpt lat="46.81499" lon="5.84896">
        <ele>651.1</ele>
        <time>2021-01-08T14:31:42Z</time>
      </trkpt>
      <trkpt lat="46.81504" lon="5.84901">
        <ele>651.6</ele>
        <time>2021-01-08T14:31:47Z</time>
      </trkpt>
      <trkpt lat="46.81508" lon="5.84904">
        <ele>651.8</ele>
        <time>2021-01-08T14:31:52Z</time>
      </trkpt>
      <trkpt lat="46.81512" lon="5.84908">
        <ele>651.8</ele>
        <time>2021-01-08T14:31:57Z</time>
      </trkpt>
      <trkpt lat="46.81518" lon="5.84914">
        <ele>651.2</ele>
        <time>2021-01-08T14:32:02Z</time>
      </trkpt>
      <trkpt lat="46.81523" lon="5.84918">
        <ele>650.9</ele>
        <time>2021-01-08T14:32:07Z</time>
      </trkpt>
      <trkpt lat="46.81527" lon="5.84921">
        <ele>650.3</ele>
        <time>2021-01-08T14:32:17Z</time>
      </trkpt>
      <trkpt lat="46.81531" lon="5.84925">
        <ele>650.3</ele>
        <time>2021-01-08T14:32:23Z</time>
      </trkpt>
      <trkpt lat="46.81535" lon="5.84928">
        <ele>650.4</ele>
        <time>2021-01-08T14:32:28Z</time>
      </trkpt>
      <trkpt lat="46.8154" lon="5.84932">
        <ele>650.6</ele>
        <time>2021-01-08T14:32:35Z</time>
      </trkpt>
      <trkpt lat="46.81546" lon="5.84936">
        <ele>650.9</ele>
        <time>2021-01-08T14:32:40Z</time>
      </trkpt>
      <trkpt lat="46.81553" lon="5.8494">
        <ele>651.1</ele>
        <time>2021-01-08T14:32:45Z</time>
      </trkpt>
      <trkpt lat="46.81556" lon="5.84944">
        <ele>651.3</ele>
        <time>2021-01-08T14:32:50Z</time>
      </trkpt>
      <trkpt lat="46.8156" lon="5.84949">
        <ele>650.3</ele>
        <time>2021-01-08T14:32:56Z</time>
      </trkpt>
      <trkpt lat="46.81564" lon="5.84954">
        <ele>648.9</ele>
        <time>2021-01-08T14:33:04Z</time>
      </trkpt>
      <trkpt lat="46.81568" lon="5.84958">
        <ele>647.9</ele>
        <time>2021-01-08T14:33:09Z</time>
      </trkpt>
      <trkpt lat="46.81574" lon="5.84963">
        <ele>647.3</ele>
        <time>2021-01-08T14:33:14Z</time>
      </trkpt>
      <trkpt lat="46.81581" lon="5.84969">
        <ele>646.5</ele>
        <time>2021-01-08T14:33:19Z</time>
      </trkpt>
      <trkpt lat="46.81587" lon="5.84972">
        <ele>646</ele>
        <time>2021-01-08T14:33:24Z</time>
      </trkpt>
      <trkpt lat="46.81592" lon="5.84976">
        <ele>644.9</ele>
        <time>2021-01-08T14:33:29Z</time>
      </trkpt>
      <trkpt lat="46.81596" lon="5.84979">
        <ele>645.2</ele>
        <time>2021-01-08T14:33:33Z</time>
      </trkpt>
      <trkpt lat="46.816" lon="5.84982">
        <ele>646.6</ele>
        <time>2021-01-08T14:33:38Z</time>
      </trkpt>
      <trkpt lat="46.81606" lon="5.84985">
        <ele>647.8</ele>
        <time>2021-01-08T14:33:43Z</time>
      </trkpt>
      <trkpt lat="46.81611" lon="5.84988">
        <ele>647.8</ele>
        <time>2021-01-08T14:33:48Z</time>
      </trkpt>
      <trkpt lat="46.81617" lon="5.84991">
        <ele>647.4</ele>
        <time>2021-01-08T14:33:53Z</time>
      </trkpt>
      <trkpt lat="46.81622" lon="5.84994">
        <ele>647.8</ele>
        <time>2021-01-08T14:33:58Z</time>
      </trkpt>
      <trkpt lat="46.81625" lon="5.84999">
        <ele>648.5</ele>
        <time>2021-01-08T14:34:09Z</time>
      </trkpt>
      <trkpt lat="46.81621" lon="5.85001">
        <ele>641.3</ele>
        <time>2021-01-08T14:34:52Z</time>
      </trkpt>
      <trkpt lat="46.81616" lon="5.84999">
        <ele>641.2</ele>
        <time>2021-01-08T14:35:05Z</time>
      </trkpt>
      <trkpt lat="46.81612" lon="5.84997">
        <ele>641.4</ele>
        <time>2021-01-08T14:35:13Z</time>
      </trkpt>
      <trkpt lat="46.81607" lon="5.84994">
        <ele>640.6</ele>
        <time>2021-01-08T14:35:22Z</time>
      </trkpt>
      <trkpt lat="46.81603" lon="5.84991">
        <ele>639.2</ele>
        <time>2021-01-08T14:35:28Z</time>
      </trkpt>
      <trkpt lat="46.816" lon="5.84986">
        <ele>638</ele>
        <time>2021-01-08T14:35:35Z</time>
      </trkpt>
      <trkpt lat="46.81596" lon="5.84982">
        <ele>637.6</ele>
        <time>2021-01-08T14:35:40Z</time>
      </trkpt>
      <trkpt lat="46.81592" lon="5.84979">
        <ele>637.5</ele>
        <time>2021-01-08T14:35:46Z</time>
      </trkpt>
      <trkpt lat="46.81587" lon="5.84976">
        <ele>637.1</ele>
        <time>2021-01-08T14:35:54Z</time>
      </trkpt>
      <trkpt lat="46.81582" lon="5.84973">
        <ele>636.7</ele>
        <time>2021-01-08T14:35:59Z</time>
      </trkpt>
      <trkpt lat="46.81578" lon="5.84969">
        <ele>636.7</ele>
        <time>2021-01-08T14:36:03Z</time>
      </trkpt>
      <trkpt lat="46.81574" lon="5.84965">
        <ele>637.3</ele>
        <time>2021-01-08T14:36:09Z</time>
      </trkpt>
      <trkpt lat="46.81569" lon="5.84961">
        <ele>638.7</ele>
        <time>2021-01-08T14:36:16Z</time>
      </trkpt>
      <trkpt lat="46.81565" lon="5.84958">
        <ele>639.1</ele>
        <time>2021-01-08T14:36:21Z</time>
      </trkpt>
      <trkpt lat="46.81561" lon="5.84952">
        <ele>638.8</ele>
        <time>2021-01-08T14:36:26Z</time>
      </trkpt>
      <trkpt lat="46.81557" lon="5.84947">
        <ele>638.2</ele>
        <time>2021-01-08T14:36:32Z</time>
      </trkpt>
      <trkpt lat="46.81552" lon="5.84944">
        <ele>637.4</ele>
        <time>2021-01-08T14:36:37Z</time>
      </trkpt>
      <trkpt lat="46.81548" lon="5.84939">
        <ele>636.3</ele>
        <time>2021-01-08T14:36:42Z</time>
      </trkpt>
      <trkpt lat="46.81543" lon="5.84936">
        <ele>635.3</ele>
        <time>2021-01-08T14:36:47Z</time>
      </trkpt>
      <trkpt lat="46.81539" lon="5.84932">
        <ele>634.8</ele>
        <time>2021-01-08T14:36:52Z</time>
      </trkpt>
      <trkpt lat="46.81535" lon="5.84929">
        <ele>634.3</ele>
        <time>2021-01-08T14:36:57Z</time>
      </trkpt>
      <trkpt lat="46.8153" lon="5.84926">
        <ele>634.3</ele>
        <time>2021-01-08T14:37:06Z</time>
      </trkpt>
      <trkpt lat="46.81526" lon="5.84931">
        <ele>635.6</ele>
        <time>2021-01-08T14:37:29Z</time>
      </trkpt>
      <trkpt lat="46.81523" lon="5.84936">
        <ele>635.5</ele>
        <time>2021-01-08T14:37:38Z</time>
      </trkpt>
      <trkpt lat="46.81524" lon="5.84942">
        <ele>635</ele>
        <time>2021-01-08T14:37:48Z</time>
      </trkpt>
      <trkpt lat="46.81522" lon="5.84949">
        <ele>635.7</ele>
        <time>2021-01-08T14:37:57Z</time>
      </trkpt>
      <trkpt lat="46.8152" lon="5.84956">
        <ele>636.5</ele>
        <time>2021-01-08T14:38:02Z</time>
      </trkpt>
      <trkpt lat="46.81517" lon="5.84961">
        <ele>637.7</ele>
        <time>2021-01-08T14:38:07Z</time>
      </trkpt>
      <trkpt lat="46.81514" lon="5.84967">
        <ele>639.3</ele>
        <time>2021-01-08T14:38:17Z</time>
      </trkpt>
      <trkpt lat="46.81514" lon="5.84975">
        <ele>638.6</ele>
        <time>2021-01-08T14:38:24Z</time>
      </trkpt>
      <trkpt lat="46.8151" lon="5.84978">
        <ele>634.7</ele>
        <time>2021-01-08T14:38:44Z</time>
      </trkpt>
      <trkpt lat="46.81505" lon="5.8498">
        <ele>634.9</ele>
        <time>2021-01-08T14:39:21Z</time>
      </trkpt>
      <trkpt lat="46.81504" lon="5.84987">
        <ele>635.3</ele>
        <time>2021-01-08T14:39:27Z</time>
      </trkpt>
      <trkpt lat="46.81508" lon="5.84991">
        <ele>636.9</ele>
        <time>2021-01-08T14:39:36Z</time>
      </trkpt>
      <trkpt lat="46.81503" lon="5.84999">
        <ele>646.8</ele>
        <time>2021-01-08T14:39:54Z</time>
      </trkpt>
      <trkpt lat="46.81498" lon="5.85005">
        <ele>655.7</ele>
        <time>2021-01-08T14:39:59Z</time>
      </trkpt>
      <trkpt lat="46.81502" lon="5.85009">
        <ele>661.6</ele>
        <time>2021-01-08T14:40:05Z</time>
      </trkpt>
      <trkpt lat="46.81502" lon="5.85015">
        <ele>661</ele>
        <time>2021-01-08T14:40:17Z</time>
      </trkpt>
      <trkpt lat="46.81497" lon="5.85017">
        <ele>656.1</ele>
        <time>2021-01-08T14:40:24Z</time>
      </trkpt>
      <trkpt lat="46.81494" lon="5.85012">
        <ele>644.2</ele>
        <time>2021-01-08T14:40:45Z</time>
      </trkpt>
      <trkpt lat="46.81488" lon="5.85012">
        <ele>641.9</ele>
        <time>2021-01-08T14:40:50Z</time>
      </trkpt>
      <trkpt lat="46.81493" lon="5.85012">
        <ele>638.7</ele>
        <time>2021-01-08T14:40:59Z</time>
      </trkpt>
      <trkpt lat="46.81498" lon="5.85013">
        <ele>638</ele>
        <time>2021-01-08T14:41:03Z</time>
      </trkpt>
      <trkpt lat="46.81497" lon="5.85021">
        <ele>639.5</ele>
        <time>2021-01-08T14:41:15Z</time>
      </trkpt>
      <trkpt lat="46.81495" lon="5.85027">
        <ele>642.3</ele>
        <time>2021-01-08T14:41:20Z</time>
      </trkpt>
      <trkpt lat="46.81492" lon="5.85033">
        <ele>647.7</ele>
        <time>2021-01-08T14:41:30Z</time>
      </trkpt>
      <trkpt lat="46.81494" lon="5.8504">
        <ele>650.5</ele>
        <time>2021-01-08T14:41:44Z</time>
      </trkpt>
      <trkpt lat="46.8149" lon="5.85044">
        <ele>652.2</ele>
        <time>2021-01-08T14:42:14Z</time>
      </trkpt>
      <trkpt lat="46.81486" lon="5.85048">
        <ele>653.2</ele>
        <time>2021-01-08T14:42:19Z</time>
      </trkpt>
      <trkpt lat="46.81487" lon="5.85055">
        <ele>661.6</ele>
        <time>2021-01-08T14:44:29Z</time>
      </trkpt>
      <trkpt lat="46.81485" lon="5.85061">
        <ele>661.9</ele>
        <time>2021-01-08T14:44:35Z</time>
      </trkpt>
      <trkpt lat="46.81477" lon="5.85067">
        <ele>667.2</ele>
        <time>2021-01-08T14:44:40Z</time>
      </trkpt>
      <trkpt lat="46.81471" lon="5.85071">
        <ele>673.9</ele>
        <time>2021-01-08T14:44:45Z</time>
      </trkpt>
      <trkpt lat="46.81474" lon="5.85077">
        <ele>678.2</ele>
        <time>2021-01-08T14:45:05Z</time>
      </trkpt>
      <trkpt lat="46.81475" lon="5.85084">
        <ele>676.1</ele>
        <time>2021-01-08T14:45:18Z</time>
      </trkpt>
      <trkpt lat="46.81471" lon="5.85088">
        <ele>674.2</ele>
        <time>2021-01-08T14:45:26Z</time>
      </trkpt>
      <trkpt lat="46.81471" lon="5.85095">
        <ele>672.6</ele>
        <time>2021-01-08T14:45:35Z</time>
      </trkpt>
      <trkpt lat="46.81471" lon="5.85102">
        <ele>671.3</ele>
        <time>2021-01-08T14:45:41Z</time>
      </trkpt>
      <trkpt lat="46.81469" lon="5.85109">
        <ele>669.5</ele>
        <time>2021-01-08T14:45:51Z</time>
      </trkpt>
      <trkpt lat="46.81467" lon="5.85116">
        <ele>668.3</ele>
        <time>2021-01-08T14:46:01Z</time>
      </trkpt>
      <trkpt lat="46.81464" lon="5.85123">
        <ele>667.2</ele>
        <time>2021-01-08T14:46:20Z</time>
      </trkpt>
      <trkpt lat="46.81462" lon="5.85129">
        <ele>666.8</ele>
        <time>2021-01-08T14:46:25Z</time>
      </trkpt>
      <trkpt lat="46.8146" lon="5.85135">
        <ele>666.6</ele>
        <time>2021-01-08T14:46:30Z</time>
      </trkpt>
      <trkpt lat="46.81456" lon="5.85139">
        <ele>666.2</ele>
        <time>2021-01-08T14:46:35Z</time>
      </trkpt>
      <trkpt lat="46.81453" lon="5.85144">
        <ele>665.6</ele>
        <time>2021-01-08T14:46:41Z</time>
      </trkpt>
      <trkpt lat="46.81451" lon="5.85151">
        <ele>665</ele>
        <time>2021-01-08T14:46:48Z</time>
      </trkpt>
      <trkpt lat="46.8145" lon="5.85158">
        <ele>664.5</ele>
        <time>2021-01-08T14:46:54Z</time>
      </trkpt>
      <trkpt lat="46.81448" lon="5.85163">
        <ele>664.1</ele>
        <time>2021-01-08T14:47:00Z</time>
      </trkpt>
      <trkpt lat="46.81446" lon="5.8517">
        <ele>663</ele>
        <time>2021-01-08T14:47:10Z</time>
      </trkpt>
      <trkpt lat="46.81446" lon="5.85176">
        <ele>661.2</ele>
        <time>2021-01-08T14:47:27Z</time>
      </trkpt>
      <trkpt lat="46.81443" lon="5.85182">
        <ele>661.5</ele>
        <time>2021-01-08T14:47:32Z</time>
      </trkpt>
      <trkpt lat="46.81442" lon="5.85188">
        <ele>662.4</ele>
        <time>2021-01-08T14:47:40Z</time>
      </trkpt>
      <trkpt lat="46.81439" lon="5.85194">
        <ele>662.6</ele>
        <time>2021-01-08T14:47:47Z</time>
      </trkpt>
      <trkpt lat="46.81433" lon="5.85205">
        <ele>663.9</ele>
        <time>2021-01-08T14:47:51Z</time>
      </trkpt>
      <trkpt lat="46.81428" lon="5.85212">
        <ele>665.1</ele>
        <time>2021-01-08T14:47:56Z</time>
      </trkpt>
      <trkpt lat="46.81431" lon="5.85219">
        <ele>666.4</ele>
        <time>2021-01-08T14:48:11Z</time>
      </trkpt>
      <trkpt lat="46.8143" lon="5.85226">
        <ele>666.5</ele>
        <time>2021-01-08T14:48:16Z</time>
      </trkpt>
      <trkpt lat="46.81427" lon="5.85232">
        <ele>666.5</ele>
        <time>2021-01-08T14:48:21Z</time>
      </trkpt>
      <trkpt lat="46.81425" lon="5.85238">
        <ele>665.8</ele>
        <time>2021-01-08T14:48:36Z</time>
      </trkpt>
      <trkpt lat="46.81423" lon="5.85245">
        <ele>664.2</ele>
        <time>2021-01-08T14:48:45Z</time>
      </trkpt>
      <trkpt lat="46.81421" lon="5.85252">
        <ele>662.9</ele>
        <time>2021-01-08T14:48:51Z</time>
      </trkpt>
      <trkpt lat="46.81418" lon="5.85258">
        <ele>661.8</ele>
        <time>2021-01-08T14:48:56Z</time>
      </trkpt>
      <trkpt lat="46.81416" lon="5.85266">
        <ele>660.6</ele>
        <time>2021-01-08T14:49:01Z</time>
      </trkpt>
      <trkpt lat="46.81413" lon="5.85273">
        <ele>659.8</ele>
        <time>2021-01-08T14:49:06Z</time>
      </trkpt>
      <trkpt lat="46.8141" lon="5.85278">
        <ele>659.6</ele>
        <time>2021-01-08T14:49:11Z</time>
      </trkpt>
      <trkpt lat="46.81406" lon="5.85283">
        <ele>659.5</ele>
        <time>2021-01-08T14:49:17Z</time>
      </trkpt>
      <trkpt lat="46.81405" lon="5.8529">
        <ele>659.7</ele>
        <time>2021-01-08T14:49:23Z</time>
      </trkpt>
      <trkpt lat="46.81403" lon="5.85296">
        <ele>660</ele>
        <time>2021-01-08T14:49:28Z</time>
      </trkpt>
      <trkpt lat="46.81401" lon="5.85303">
        <ele>660.1</ele>
        <time>2021-01-08T14:49:33Z</time>
      </trkpt>
      <trkpt lat="46.81398" lon="5.85311">
        <ele>660.2</ele>
        <time>2021-01-08T14:49:38Z</time>
      </trkpt>
      <trkpt lat="46.81395" lon="5.85319">
        <ele>659.8</ele>
        <time>2021-01-08T14:49:43Z</time>
      </trkpt>
      <trkpt lat="46.81393" lon="5.85325">
        <ele>659.4</ele>
        <time>2021-01-08T14:49:48Z</time>
      </trkpt>
      <trkpt lat="46.8139" lon="5.85331">
        <ele>658.7</ele>
        <time>2021-01-08T14:49:54Z</time>
      </trkpt>
      <trkpt lat="46.81387" lon="5.85337">
        <ele>658.2</ele>
        <time>2021-01-08T14:50:00Z</time>
      </trkpt>
      <trkpt lat="46.81387" lon="5.85344">
        <ele>656.9</ele>
        <time>2021-01-08T14:50:07Z</time>
      </trkpt>
      <trkpt lat="46.81384" lon="5.85349">
        <ele>655.2</ele>
        <time>2021-01-08T14:50:19Z</time>
      </trkpt>
      <trkpt lat="46.81378" lon="5.85355">
        <ele>655.1</ele>
        <time>2021-01-08T14:50:24Z</time>
      </trkpt>
      <trkpt lat="46.81374" lon="5.85359">
        <ele>655.1</ele>
        <time>2021-01-08T14:50:30Z</time>
      </trkpt>
      <trkpt lat="46.81369" lon="5.85359">
        <ele>654.1</ele>
        <time>2021-01-08T14:50:36Z</time>
      </trkpt>
      <trkpt lat="46.81365" lon="5.85363">
        <ele>652.3</ele>
        <time>2021-01-08T14:50:41Z</time>
      </trkpt>
      <trkpt lat="46.81358" lon="5.85371">
        <ele>651.4</ele>
        <time>2021-01-08T14:50:45Z</time>
      </trkpt>
      <trkpt lat="46.81348" lon="5.8538">
        <ele>651.2</ele>
        <time>2021-01-08T14:50:50Z</time>
      </trkpt>
      <trkpt lat="46.81342" lon="5.85384">
        <ele>651.2</ele>
        <time>2021-01-08T14:50:55Z</time>
      </trkpt>
      <trkpt lat="46.81337" lon="5.85384">
        <ele>650.3</ele>
        <time>2021-01-08T14:51:03Z</time>
      </trkpt>
      <trkpt lat="46.81333" lon="5.85382">
        <ele>649.9</ele>
        <time>2021-01-08T14:51:09Z</time>
      </trkpt>
      <trkpt lat="46.81328" lon="5.85382">
        <ele>649.8</ele>
        <time>2021-01-08T14:51:15Z</time>
      </trkpt>
      <trkpt lat="46.81323" lon="5.85383">
        <ele>649.6</ele>
        <time>2021-01-08T14:51:20Z</time>
      </trkpt>
      <trkpt lat="46.81318" lon="5.85384">
        <ele>649.3</ele>
        <time>2021-01-08T14:51:25Z</time>
      </trkpt>
      <trkpt lat="46.81313" lon="5.85385">
        <ele>648.4</ele>
        <time>2021-01-08T14:51:32Z</time>
      </trkpt>
      <trkpt lat="46.81308" lon="5.85386">
        <ele>647.8</ele>
        <time>2021-01-08T14:51:37Z</time>
      </trkpt>
      <trkpt lat="46.81303" lon="5.85389">
        <ele>647.1</ele>
        <time>2021-01-08T14:51:42Z</time>
      </trkpt>
      <trkpt lat="46.81298" lon="5.8539">
        <ele>646.7</ele>
        <time>2021-01-08T14:51:47Z</time>
      </trkpt>
      <trkpt lat="46.81294" lon="5.8539">
        <ele>646</ele>
        <time>2021-01-08T14:51:53Z</time>
      </trkpt>
      <trkpt lat="46.81289" lon="5.85389">
        <ele>645.4</ele>
        <time>2021-01-08T14:51:59Z</time>
      </trkpt>
      <trkpt lat="46.81284" lon="5.85391">
        <ele>644.7</ele>
        <time>2021-01-08T14:52:04Z</time>
      </trkpt>
      <trkpt lat="46.81278" lon="5.85393">
        <ele>643.7</ele>
        <time>2021-01-08T14:52:09Z</time>
      </trkpt>
      <trkpt lat="46.81273" lon="5.85395">
        <ele>642.9</ele>
        <time>2021-01-08T14:52:14Z</time>
      </trkpt>
      <trkpt lat="46.81268" lon="5.85395">
        <ele>642</ele>
        <time>2021-01-08T14:52:20Z</time>
      </trkpt>
      <trkpt lat="46.81264" lon="5.85396">
        <ele>641.1</ele>
        <time>2021-01-08T14:52:25Z</time>
      </trkpt>
      <trkpt lat="46.81258" lon="5.85398">
        <ele>639.9</ele>
        <time>2021-01-08T14:52:30Z</time>
      </trkpt>
      <trkpt lat="46.81253" lon="5.85399">
        <ele>638.4</ele>
        <time>2021-01-08T14:52:35Z</time>
      </trkpt>
      <trkpt lat="46.81249" lon="5.85402">
        <ele>636.3</ele>
        <time>2021-01-08T14:52:41Z</time>
      </trkpt>
      <trkpt lat="46.81244" lon="5.85406">
        <ele>633.9</ele>
        <time>2021-01-08T14:52:47Z</time>
      </trkpt>
      <trkpt lat="46.8124" lon="5.85411">
        <ele>630.7</ele>
        <time>2021-01-08T14:52:54Z</time>
      </trkpt>
      <trkpt lat="46.81236" lon="5.85416">
        <ele>628.6</ele>
        <time>2021-01-08T14:53:00Z</time>
      </trkpt>
      <trkpt lat="46.81233" lon="5.85422">
        <ele>626.9</ele>
        <time>2021-01-08T14:53:06Z</time>
      </trkpt>
      <trkpt lat="46.8123" lon="5.85427">
        <ele>625.7</ele>
        <time>2021-01-08T14:53:12Z</time>
      </trkpt>
      <trkpt lat="46.81227" lon="5.85433">
        <ele>625</ele>
        <time>2021-01-08T14:53:17Z</time>
      </trkpt>
      <trkpt lat="46.81224" lon="5.85438">
        <ele>624.6</ele>
        <time>2021-01-08T14:53:21Z</time>
      </trkpt>
      <trkpt lat="46.8122" lon="5.85443">
        <ele>624</ele>
        <time>2021-01-08T14:53:26Z</time>
      </trkpt>
      <trkpt lat="46.81217" lon="5.85447">
        <ele>622.9</ele>
        <time>2021-01-08T14:53:32Z</time>
      </trkpt>
      <trkpt lat="46.81213" lon="5.85452">
        <ele>622.3</ele>
        <time>2021-01-08T14:53:37Z</time>
      </trkpt>
      <trkpt lat="46.81209" lon="5.85457">
        <ele>622.3</ele>
        <time>2021-01-08T14:53:42Z</time>
      </trkpt>
      <trkpt lat="46.81205" lon="5.85461">
        <ele>622</ele>
        <time>2021-01-08T14:53:48Z</time>
      </trkpt>
      <trkpt lat="46.81201" lon="5.85466">
        <ele>621.7</ele>
        <time>2021-01-08T14:53:53Z</time>
      </trkpt>
      <trkpt lat="46.81197" lon="5.8547">
        <ele>621.7</ele>
        <time>2021-01-08T14:53:57Z</time>
      </trkpt>
      <trkpt lat="46.81192" lon="5.85474">
        <ele>621.7</ele>
        <time>2021-01-08T14:54:02Z</time>
      </trkpt>
      <trkpt lat="46.81188" lon="5.85478">
        <ele>622</ele>
        <time>2021-01-08T14:54:08Z</time>
      </trkpt>
      <trkpt lat="46.81184" lon="5.85483">
        <ele>622.6</ele>
        <time>2021-01-08T14:54:13Z</time>
      </trkpt>
      <trkpt lat="46.81179" lon="5.85491">
        <ele>625.9</ele>
        <time>2021-01-08T14:54:18Z</time>
      </trkpt>
      <trkpt lat="46.81176" lon="5.85495">
        <ele>628</ele>
        <time>2021-01-08T14:54:23Z</time>
      </trkpt>
      <trkpt lat="46.81172" lon="5.855">
        <ele>629.6</ele>
        <time>2021-01-08T14:54:28Z</time>
      </trkpt>
      <trkpt lat="46.81169" lon="5.85505">
        <ele>630.6</ele>
        <time>2021-01-08T14:54:34Z</time>
      </trkpt>
      <trkpt lat="46.81166" lon="5.85511">
        <ele>631.7</ele>
        <time>2021-01-08T14:54:46Z</time>
      </trkpt>
      <trkpt lat="46.81162" lon="5.85516">
        <ele>631.9</ele>
        <time>2021-01-08T14:54:52Z</time>
      </trkpt>
      <trkpt lat="46.81158" lon="5.8552">
        <ele>631.8</ele>
        <time>2021-01-08T14:54:58Z</time>
      </trkpt>
      <trkpt lat="46.81155" lon="5.85526">
        <ele>631.6</ele>
        <time>2021-01-08T14:55:04Z</time>
      </trkpt>
      <trkpt lat="46.81154" lon="5.85538">
        <ele>631.5</ele>
        <time>2021-01-08T14:55:09Z</time>
      </trkpt>
      <trkpt lat="46.81155" lon="5.85544">
        <ele>632.4</ele>
        <time>2021-01-08T14:55:15Z</time>
      </trkpt>
      <trkpt lat="46.81156" lon="5.85551">
        <ele>632.8</ele>
        <time>2021-01-08T14:55:21Z</time>
      </trkpt>
      <trkpt lat="46.81158" lon="5.85559">
        <ele>632.4</ele>
        <time>2021-01-08T14:55:26Z</time>
      </trkpt>
      <trkpt lat="46.81161" lon="5.85567">
        <ele>632</ele>
        <time>2021-01-08T14:55:31Z</time>
      </trkpt>
      <trkpt lat="46.81164" lon="5.85575">
        <ele>632.3</ele>
        <time>2021-01-08T14:55:36Z</time>
      </trkpt>
      <trkpt lat="46.81168" lon="5.85581">
        <ele>632.8</ele>
        <time>2021-01-08T14:55:41Z</time>
      </trkpt>
      <trkpt lat="46.81173" lon="5.85586">
        <ele>633.1</ele>
        <time>2021-01-08T14:55:46Z</time>
      </trkpt>
      <trkpt lat="46.81176" lon="5.85594">
        <ele>633.3</ele>
        <time>2021-01-08T14:55:51Z</time>
      </trkpt>
      <trkpt lat="46.81176" lon="5.85603">
        <ele>634.3</ele>
        <time>2021-01-08T14:55:56Z</time>
      </trkpt>
      <trkpt lat="46.81174" lon="5.8561">
        <ele>635.5</ele>
        <time>2021-01-08T14:56:01Z</time>
      </trkpt>
      <trkpt lat="46.8117" lon="5.85614">
        <ele>638</ele>
        <time>2021-01-08T14:56:09Z</time>
      </trkpt>
      <trkpt lat="46.81165" lon="5.85617">
        <ele>638.9</ele>
        <time>2021-01-08T14:56:14Z</time>
      </trkpt>
      <trkpt lat="46.8116" lon="5.8562">
        <ele>639.6</ele>
        <time>2021-01-08T14:56:19Z</time>
      </trkpt>
      <trkpt lat="46.81155" lon="5.8562">
        <ele>639.8</ele>
        <time>2021-01-08T14:56:24Z</time>
      </trkpt>
      <trkpt lat="46.81151" lon="5.85623">
        <ele>639.4</ele>
        <time>2021-01-08T14:56:29Z</time>
      </trkpt>
      <trkpt lat="46.81146" lon="5.85628">
        <ele>638.6</ele>
        <time>2021-01-08T14:56:34Z</time>
      </trkpt>
      <trkpt lat="46.81143" lon="5.85633">
        <ele>637.8</ele>
        <time>2021-01-08T14:56:39Z</time>
      </trkpt>
      <trkpt lat="46.81138" lon="5.85638">
        <ele>637.6</ele>
        <time>2021-01-08T14:56:44Z</time>
      </trkpt>
      <trkpt lat="46.81135" lon="5.85642">
        <ele>638</ele>
        <time>2021-01-08T14:56:49Z</time>
      </trkpt>
      <trkpt lat="46.81132" lon="5.85648">
        <ele>638</ele>
        <time>2021-01-08T14:56:54Z</time>
      </trkpt>
      <trkpt lat="46.81129" lon="5.85652">
        <ele>637.8</ele>
        <time>2021-01-08T14:56:59Z</time>
      </trkpt>
      <trkpt lat="46.81126" lon="5.85657">
        <ele>637.5</ele>
        <time>2021-01-08T14:57:04Z</time>
      </trkpt>
      <trkpt lat="46.81122" lon="5.85662">
        <ele>637.1</ele>
        <time>2021-01-08T14:57:10Z</time>
      </trkpt>
      <trkpt lat="46.81118" lon="5.85666">
        <ele>636.9</ele>
        <time>2021-01-08T14:57:15Z</time>
      </trkpt>
      <trkpt lat="46.81114" lon="5.8567">
        <ele>636.4</ele>
        <time>2021-01-08T14:57:20Z</time>
      </trkpt>
      <trkpt lat="46.81109" lon="5.85669">
        <ele>635.9</ele>
        <time>2021-01-08T14:57:27Z</time>
      </trkpt>
      <trkpt lat="46.81114" lon="5.85672">
        <ele>638.9</ele>
        <time>2021-01-08T15:00:55Z</time>
      </trkpt>
      <trkpt lat="46.8111" lon="5.8567">
        <ele>639.4</ele>
        <time>2021-01-08T15:05:52Z</time>
      </trkpt>
      <trkpt lat="46.81115" lon="5.85671">
        <ele>641.5</ele>
        <time>2021-01-08T15:09:47Z</time>
      </trkpt>
      <trkpt lat="46.81119" lon="5.85668">
        <ele>642.3</ele>
        <time>2021-01-08T15:09:54Z</time>
      </trkpt>
      <trkpt lat="46.81122" lon="5.85663">
        <ele>643</ele>
        <time>2021-01-08T15:10:01Z</time>
      </trkpt>
      <trkpt lat="46.81125" lon="5.85658">
        <ele>643.4</ele>
        <time>2021-01-08T15:10:06Z</time>
      </trkpt>
      <trkpt lat="46.81128" lon="5.85652">
        <ele>644</ele>
        <time>2021-01-08T15:10:11Z</time>
      </trkpt>
      <trkpt lat="46.81131" lon="5.85647">
        <ele>644.6</ele>
        <time>2021-01-08T15:10:16Z</time>
      </trkpt>
      <trkpt lat="46.81135" lon="5.85642">
        <ele>645.2</ele>
        <time>2021-01-08T15:10:24Z</time>
      </trkpt>
      <trkpt lat="46.81137" lon="5.85635">
        <ele>644.9</ele>
        <time>2021-01-08T15:10:30Z</time>
      </trkpt>
      <trkpt lat="46.81141" lon="5.85629">
        <ele>644.6</ele>
        <time>2021-01-08T15:10:35Z</time>
      </trkpt>
      <trkpt lat="46.81146" lon="5.85626">
        <ele>644</ele>
        <time>2021-01-08T15:10:41Z</time>
      </trkpt>
      <trkpt lat="46.8115" lon="5.85624">
        <ele>643.1</ele>
        <time>2021-01-08T15:10:46Z</time>
      </trkpt>
      <trkpt lat="46.81155" lon="5.85621">
        <ele>642.1</ele>
        <time>2021-01-08T15:10:51Z</time>
      </trkpt>
      <trkpt lat="46.81159" lon="5.85616">
        <ele>640.8</ele>
        <time>2021-01-08T15:10:56Z</time>
      </trkpt>
      <trkpt lat="46.81165" lon="5.85615">
        <ele>639.6</ele>
        <time>2021-01-08T15:11:01Z</time>
      </trkpt>
      <trkpt lat="46.81169" lon="5.85612">
        <ele>639</ele>
        <time>2021-01-08T15:11:06Z</time>
      </trkpt>
      <trkpt lat="46.81174" lon="5.85611">
        <ele>638.6</ele>
        <time>2021-01-08T15:11:12Z</time>
      </trkpt>
      <trkpt lat="46.81179" lon="5.85611">
        <ele>638.6</ele>
        <time>2021-01-08T15:11:17Z</time>
      </trkpt>
      <trkpt lat="46.81184" lon="5.85612">
        <ele>639.2</ele>
        <time>2021-01-08T15:11:22Z</time>
      </trkpt>
      <trkpt lat="46.81188" lon="5.85617">
        <ele>639.7</ele>
        <time>2021-01-08T15:11:28Z</time>
      </trkpt>
      <trkpt lat="46.81194" lon="5.85622">
        <ele>639.8</ele>
        <time>2021-01-08T15:11:33Z</time>
      </trkpt>
      <trkpt lat="46.81198" lon="5.85627">
        <ele>639.4</ele>
        <time>2021-01-08T15:11:38Z</time>
      </trkpt>
      <trkpt lat="46.81203" lon="5.85631">
        <ele>638.9</ele>
        <time>2021-01-08T15:11:43Z</time>
      </trkpt>
      <trkpt lat="46.81208" lon="5.85635">
        <ele>638.5</ele>
        <time>2021-01-08T15:11:48Z</time>
      </trkpt>
      <trkpt lat="46.81213" lon="5.85639">
        <ele>637.9</ele>
        <time>2021-01-08T15:11:53Z</time>
      </trkpt>
      <trkpt lat="46.81218" lon="5.85643">
        <ele>637.4</ele>
        <time>2021-01-08T15:11:58Z</time>
      </trkpt>
      <trkpt lat="46.81222" lon="5.85647">
        <ele>637.3</ele>
        <time>2021-01-08T15:12:03Z</time>
      </trkpt>
      <trkpt lat="46.81228" lon="5.85651">
        <ele>637.7</ele>
        <time>2021-01-08T15:12:08Z</time>
      </trkpt>
      <trkpt lat="46.81233" lon="5.85655">
        <ele>638.6</ele>
        <time>2021-01-08T15:12:13Z</time>
      </trkpt>
      <trkpt lat="46.81239" lon="5.85659">
        <ele>639.6</ele>
        <time>2021-01-08T15:12:18Z</time>
      </trkpt>
      <trkpt lat="46.81244" lon="5.85664">
        <ele>640</ele>
        <time>2021-01-08T15:12:23Z</time>
      </trkpt>
      <trkpt lat="46.81248" lon="5.85667">
        <ele>640.2</ele>
        <time>2021-01-08T15:12:27Z</time>
      </trkpt>
      <trkpt lat="46.81254" lon="5.85671">
        <ele>640.7</ele>
        <time>2021-01-08T15:12:32Z</time>
      </trkpt>
      <trkpt lat="46.81259" lon="5.85674">
        <ele>641</ele>
        <time>2021-01-08T15:12:37Z</time>
      </trkpt>
      <trkpt lat="46.81264" lon="5.85678">
        <ele>641</ele>
        <time>2021-01-08T15:12:42Z</time>
      </trkpt>
      <trkpt lat="46.81268" lon="5.85682">
        <ele>640.8</ele>
        <time>2021-01-08T15:12:47Z</time>
      </trkpt>
      <trkpt lat="46.81273" lon="5.85686">
        <ele>640.5</ele>
        <time>2021-01-08T15:12:52Z</time>
      </trkpt>
      <trkpt lat="46.81278" lon="5.85691">
        <ele>640.3</ele>
        <time>2021-01-08T15:12:57Z</time>
      </trkpt>
      <trkpt lat="46.81283" lon="5.85695">
        <ele>640.2</ele>
        <time>2021-01-08T15:13:02Z</time>
      </trkpt>
      <trkpt lat="46.81289" lon="5.85698">
        <ele>640.3</ele>
        <time>2021-01-08T15:13:07Z</time>
      </trkpt>
      <trkpt lat="46.81294" lon="5.85702">
        <ele>640.4</ele>
        <time>2021-01-08T15:13:12Z</time>
      </trkpt>
      <trkpt lat="46.81298" lon="5.85706">
        <ele>640.1</ele>
        <time>2021-01-08T15:13:18Z</time>
      </trkpt>
      <trkpt lat="46.81304" lon="5.85711">
        <ele>640</ele>
        <time>2021-01-08T15:13:23Z</time>
      </trkpt>
      <trkpt lat="46.81308" lon="5.85714">
        <ele>639.8</ele>
        <time>2021-01-08T15:13:27Z</time>
      </trkpt>
      <trkpt lat="46.81314" lon="5.85719">
        <ele>639.4</ele>
        <time>2021-01-08T15:13:32Z</time>
      </trkpt>
      <trkpt lat="46.81319" lon="5.85723">
        <ele>639.2</ele>
        <time>2021-01-08T15:13:37Z</time>
      </trkpt>
      <trkpt lat="46.81324" lon="5.85727">
        <ele>639.2</ele>
        <time>2021-01-08T15:13:42Z</time>
      </trkpt>
      <trkpt lat="46.81331" lon="5.85731">
        <ele>639.6</ele>
        <time>2021-01-08T15:13:47Z</time>
      </trkpt>
      <trkpt lat="46.81336" lon="5.85735">
        <ele>639.8</ele>
        <time>2021-01-08T15:13:52Z</time>
      </trkpt>
      <trkpt lat="46.81341" lon="5.85738">
        <ele>639.9</ele>
        <time>2021-01-08T15:13:57Z</time>
      </trkpt>
      <trkpt lat="46.81346" lon="5.85743">
        <ele>639.2</ele>
        <time>2021-01-08T15:14:02Z</time>
      </trkpt>
      <trkpt lat="46.8135" lon="5.85747">
        <ele>638.4</ele>
        <time>2021-01-08T15:14:07Z</time>
      </trkpt>
      <trkpt lat="46.81355" lon="5.85751">
        <ele>638</ele>
        <time>2021-01-08T15:14:12Z</time>
      </trkpt>
      <trkpt lat="46.8136" lon="5.85755">
        <ele>638.2</ele>
        <time>2021-01-08T15:14:17Z</time>
      </trkpt>
      <trkpt lat="46.81365" lon="5.85758">
        <ele>638.4</ele>
        <time>2021-01-08T15:14:21Z</time>
      </trkpt>
      <trkpt lat="46.81369" lon="5.85761">
        <ele>639.2</ele>
        <time>2021-01-08T15:14:26Z</time>
      </trkpt>
      <trkpt lat="46.81374" lon="5.85764">
        <ele>640.7</ele>
        <time>2021-01-08T15:14:31Z</time>
      </trkpt>
      <trkpt lat="46.81379" lon="5.85769">
        <ele>642.1</ele>
        <time>2021-01-08T15:14:36Z</time>
      </trkpt>
      <trkpt lat="46.81385" lon="5.85772">
        <ele>643.3</ele>
        <time>2021-01-08T15:14:41Z</time>
      </trkpt>
      <trkpt lat="46.81389" lon="5.85774">
        <ele>644.2</ele>
        <time>2021-01-08T15:14:45Z</time>
      </trkpt>
      <trkpt lat="46.81394" lon="5.85777">
        <ele>645</ele>
        <time>2021-01-08T15:14:50Z</time>
      </trkpt>
      <trkpt lat="46.81399" lon="5.85781">
        <ele>645.8</ele>
        <time>2021-01-08T15:14:55Z</time>
      </trkpt>
      <trkpt lat="46.81404" lon="5.85784">
        <ele>646.7</ele>
        <time>2021-01-08T15:15:00Z</time>
      </trkpt>
      <trkpt lat="46.8141" lon="5.85786">
        <ele>647.2</ele>
        <time>2021-01-08T15:15:05Z</time>
      </trkpt>
      <trkpt lat="46.81414" lon="5.85788">
        <ele>646.9</ele>
        <time>2021-01-08T15:15:11Z</time>
      </trkpt>
      <trkpt lat="46.81419" lon="5.8579">
        <ele>647</ele>
        <time>2021-01-08T15:15:16Z</time>
      </trkpt>
      <trkpt lat="46.81425" lon="5.85791">
        <ele>647.3</ele>
        <time>2021-01-08T15:15:21Z</time>
      </trkpt>
      <trkpt lat="46.8143" lon="5.85793">
        <ele>647.2</ele>
        <time>2021-01-08T15:15:26Z</time>
      </trkpt>
      <trkpt lat="46.81436" lon="5.85795">
        <ele>647.1</ele>
        <time>2021-01-08T15:15:31Z</time>
      </trkpt>
      <trkpt lat="46.81441" lon="5.85797">
        <ele>647</ele>
        <time>2021-01-08T15:15:36Z</time>
      </trkpt>
      <trkpt lat="46.81446" lon="5.85798">
        <ele>646.9</ele>
        <time>2021-01-08T15:15:41Z</time>
      </trkpt>
      <trkpt lat="46.81451" lon="5.85799">
        <ele>646.6</ele>
        <time>2021-01-08T15:15:46Z</time>
      </trkpt>
      <trkpt lat="46.81455" lon="5.858">
        <ele>646.1</ele>
        <time>2021-01-08T15:15:51Z</time>
      </trkpt>
      <trkpt lat="46.81461" lon="5.85802">
        <ele>645.1</ele>
        <time>2021-01-08T15:15:56Z</time>
      </trkpt>
      <trkpt lat="46.81466" lon="5.85804">
        <ele>644</ele>
        <time>2021-01-08T15:16:01Z</time>
      </trkpt>
      <trkpt lat="46.81471" lon="5.85806">
        <ele>642.7</ele>
        <time>2021-01-08T15:16:06Z</time>
      </trkpt>
      <trkpt lat="46.81476" lon="5.85807">
        <ele>641.8</ele>
        <time>2021-01-08T15:16:11Z</time>
      </trkpt>
      <trkpt lat="46.81481" lon="5.85807">
        <ele>641.2</ele>
        <time>2021-01-08T15:16:16Z</time>
      </trkpt>
      <trkpt lat="46.81486" lon="5.85807">
        <ele>641</ele>
        <time>2021-01-08T15:16:21Z</time>
      </trkpt>
      <trkpt lat="46.81492" lon="5.85808">
        <ele>641.1</ele>
        <time>2021-01-08T15:16:26Z</time>
      </trkpt>
      <trkpt lat="46.81497" lon="5.85809">
        <ele>641.2</ele>
        <time>2021-01-08T15:16:31Z</time>
      </trkpt>
      <trkpt lat="46.81502" lon="5.85811">
        <ele>640.9</ele>
        <time>2021-01-08T15:16:36Z</time>
      </trkpt>
      <trkpt lat="46.81508" lon="5.85811">
        <ele>640.8</ele>
        <time>2021-01-08T15:16:41Z</time>
      </trkpt>
      <trkpt lat="46.81514" lon="5.85813">
        <ele>641.5</ele>
        <time>2021-01-08T15:16:46Z</time>
      </trkpt>
      <trkpt lat="46.8152" lon="5.85814">
        <ele>642.5</ele>
        <time>2021-01-08T15:16:51Z</time>
      </trkpt>
      <trkpt lat="46.81525" lon="5.85816">
        <ele>643.1</ele>
        <time>2021-01-08T15:16:56Z</time>
      </trkpt>
      <trkpt lat="46.81531" lon="5.85817">
        <ele>643.4</ele>
        <time>2021-01-08T15:17:01Z</time>
      </trkpt>
      <trkpt lat="46.81536" lon="5.85817">
        <ele>644</ele>
        <time>2021-01-08T15:17:06Z</time>
      </trkpt>
      <trkpt lat="46.81542" lon="5.85817">
        <ele>644.6</ele>
        <time>2021-01-08T15:17:11Z</time>
      </trkpt>
      <trkpt lat="46.81547" lon="5.85818">
        <ele>644.6</ele>
        <time>2021-01-08T15:17:16Z</time>
      </trkpt>
      <trkpt lat="46.81551" lon="5.85819">
        <ele>644.5</ele>
        <time>2021-01-08T15:17:21Z</time>
      </trkpt>
      <trkpt lat="46.81557" lon="5.8582">
        <ele>644.3</ele>
        <time>2021-01-08T15:17:26Z</time>
      </trkpt>
      <trkpt lat="46.81562" lon="5.85821">
        <ele>644.1</ele>
        <time>2021-01-08T15:17:31Z</time>
      </trkpt>
      <trkpt lat="46.81568" lon="5.85823">
        <ele>644.1</ele>
        <time>2021-01-08T15:17:36Z</time>
      </trkpt>
      <trkpt lat="46.81573" lon="5.85824">
        <ele>644.3</ele>
        <time>2021-01-08T15:17:41Z</time>
      </trkpt>
      <trkpt lat="46.81578" lon="5.85826">
        <ele>644.6</ele>
        <time>2021-01-08T15:17:46Z</time>
      </trkpt>
      <trkpt lat="46.81583" lon="5.85828">
        <ele>644.9</ele>
        <time>2021-01-08T15:17:51Z</time>
      </trkpt>
      <trkpt lat="46.81589" lon="5.85829">
        <ele>644.8</ele>
        <time>2021-01-08T15:17:56Z</time>
      </trkpt>
      <trkpt lat="46.81594" lon="5.8583">
        <ele>643.9</ele>
        <time>2021-01-08T15:18:01Z</time>
      </trkpt>
      <trkpt lat="46.81599" lon="5.85832">
        <ele>642.1</ele>
        <time>2021-01-08T15:18:06Z</time>
      </trkpt>
      <trkpt lat="46.81604" lon="5.85833">
        <ele>640.4</ele>
        <time>2021-01-08T15:18:11Z</time>
      </trkpt>
      <trkpt lat="46.81608" lon="5.85833">
        <ele>639.7</ele>
        <time>2021-01-08T15:18:15Z</time>
      </trkpt>
      <trkpt lat="46.81615" lon="5.85834">
        <ele>639.7</ele>
        <time>2021-01-08T15:18:20Z</time>
      </trkpt>
      <trkpt lat="46.81621" lon="5.85834">
        <ele>640.2</ele>
        <time>2021-01-08T15:18:25Z</time>
      </trkpt>
      <trkpt lat="46.81627" lon="5.85835">
        <ele>641.2</ele>
        <time>2021-01-08T15:18:30Z</time>
      </trkpt>
      <trkpt lat="46.81632" lon="5.85835">
        <ele>642.5</ele>
        <time>2021-01-08T15:18:35Z</time>
      </trkpt>
      <trkpt lat="46.81637" lon="5.85837">
        <ele>644</ele>
        <time>2021-01-08T15:18:40Z</time>
      </trkpt>
      <trkpt lat="46.81642" lon="5.85839">
        <ele>645.4</ele>
        <time>2021-01-08T15:18:45Z</time>
      </trkpt>
      <trkpt lat="46.81647" lon="5.8584">
        <ele>646.6</ele>
        <time>2021-01-08T15:18:50Z</time>
      </trkpt>
      <trkpt lat="46.81652" lon="5.85841">
        <ele>647.5</ele>
        <time>2021-01-08T15:18:55Z</time>
      </trkpt>
      <trkpt lat="46.81657" lon="5.85843">
        <ele>648.5</ele>
        <time>2021-01-08T15:19:00Z</time>
      </trkpt>
      <trkpt lat="46.81662" lon="5.85845">
        <ele>649</ele>
        <time>2021-01-08T15:19:05Z</time>
      </trkpt>
      <trkpt lat="46.81667" lon="5.85845">
        <ele>649.3</ele>
        <time>2021-01-08T15:19:09Z</time>
      </trkpt>
      <trkpt lat="46.81673" lon="5.85844">
        <ele>649.2</ele>
        <time>2021-01-08T15:19:14Z</time>
      </trkpt>
      <trkpt lat="46.81679" lon="5.85844">
        <ele>649</ele>
        <time>2021-01-08T15:19:19Z</time>
      </trkpt>
      <trkpt lat="46.81684" lon="5.85845">
        <ele>648.4</ele>
        <time>2021-01-08T15:19:24Z</time>
      </trkpt>
      <trkpt lat="46.81689" lon="5.85847">
        <ele>647.9</ele>
        <time>2021-01-08T15:19:29Z</time>
      </trkpt>
      <trkpt lat="46.81695" lon="5.85848">
        <ele>647.5</ele>
        <time>2021-01-08T15:19:34Z</time>
      </trkpt>
      <trkpt lat="46.817" lon="5.85849">
        <ele>647.7</ele>
        <time>2021-01-08T15:19:39Z</time>
      </trkpt>
      <trkpt lat="46.82023" lon="5.85899">
        <ele>651.9</ele>
      </trkpt>
      <trkpt lat="46.82059" lon="5.8587">
        <ele>653.1</ele>
      </trkpt>
    </trkseg>
  </trk>
  <trk>
    <name><![CDATA[Valempoulières_2]]></name>
    <trkseg>
      <trkpt lat="46.82035" lon="5.85893">
        <ele>648.8</ele>
        <time>2021-01-08T15:29:41Z</time>
      </trkpt>
      <trkpt lat="46.82035" lon="5.85893">
        <ele>648.8</ele>
        <time>2021-01-08T15:29:41Z</time>
      </trkpt>
      <trkpt lat="46.82036" lon="5.85886">
        <ele>645.1</ele>
        <time>2021-01-08T15:29:48Z</time>
      </trkpt>
      <trkpt lat="46.82041" lon="5.85885">
        <ele>644.2</ele>
        <time>2021-01-08T15:29:55Z</time>
      </trkpt>
      <trkpt lat="46.82046" lon="5.85885">
        <ele>642.9</ele>
        <time>2021-01-08T15:30:03Z</time>
      </trkpt>
      <trkpt lat="46.82051" lon="5.85887">
        <ele>641.6</ele>
        <time>2021-01-08T15:30:08Z</time>
      </trkpt>
      <trkpt lat="46.82056" lon="5.85888">
        <ele>641</ele>
        <time>2021-01-08T15:30:13Z</time>
      </trkpt>
      <trkpt lat="46.82061" lon="5.85886">
        <ele>640</ele>
        <time>2021-01-08T15:30:18Z</time>
      </trkpt>
      <trkpt lat="46.82067" lon="5.85886">
        <ele>639.1</ele>
        <time>2021-01-08T15:30:23Z</time>
      </trkpt>
      <trkpt lat="46.82072" lon="5.85885">
        <ele>639</ele>
        <time>2021-01-08T15:30:27Z</time>
      </trkpt>
      <trkpt lat="46.82078" lon="5.85888">
        <ele>640.3</ele>
        <time>2021-01-08T15:30:32Z</time>
      </trkpt>
      <trkpt lat="46.82083" lon="5.85891">
        <ele>642.5</ele>
        <time>2021-01-08T15:30:37Z</time>
      </trkpt>
      <trkpt lat="46.82088" lon="5.85893">
        <ele>644.6</ele>
        <time>2021-01-08T15:30:42Z</time>
      </trkpt>
      <trkpt lat="46.82094" lon="5.85895">
        <ele>644.7</ele>
        <time>2021-01-08T15:30:48Z</time>
      </trkpt>
      <trkpt lat="46.82098" lon="5.85897">
        <ele>644.8</ele>
        <time>2021-01-08T15:30:52Z</time>
      </trkpt>
      <trkpt lat="46.82103" lon="5.859">
        <ele>644.3</ele>
        <time>2021-01-08T15:30:57Z</time>
      </trkpt>
      <trkpt lat="46.82108" lon="5.85901">
        <ele>644.3</ele>
        <time>2021-01-08T15:31:01Z</time>
      </trkpt>
      <trkpt lat="46.82116" lon="5.85903">
        <ele>645.8</ele>
        <time>2021-01-08T15:31:06Z</time>
      </trkpt>
      <trkpt lat="46.82121" lon="5.85904">
        <ele>646.3</ele>
        <time>2021-01-08T15:31:11Z</time>
      </trkpt>
      <trkpt lat="46.82126" lon="5.85906">
        <ele>647.2</ele>
        <time>2021-01-08T15:31:16Z</time>
      </trkpt>
      <trkpt lat="46.82131" lon="5.85909">
        <ele>648.4</ele>
        <time>2021-01-08T15:31:20Z</time>
      </trkpt>
      <trkpt lat="46.82136" lon="5.85912">
        <ele>649.4</ele>
        <time>2021-01-08T15:31:24Z</time>
      </trkpt>
      <trkpt lat="46.82141" lon="5.85912">
        <ele>650.2</ele>
        <time>2021-01-08T15:31:28Z</time>
      </trkpt>
      <trkpt lat="46.82146" lon="5.85914">
        <ele>651.5</ele>
        <time>2021-01-08T15:31:32Z</time>
      </trkpt>
      <trkpt lat="46.82153" lon="5.85915">
        <ele>653.8</ele>
        <time>2021-01-08T15:31:37Z</time>
      </trkpt>
      <trkpt lat="46.82157" lon="5.85918">
        <ele>654.8</ele>
        <time>2021-01-08T15:32:03Z</time>
      </trkpt>
      <trkpt lat="46.82162" lon="5.8592">
        <ele>655.4</ele>
        <time>2021-01-08T15:32:07Z</time>
      </trkpt>
      <trkpt lat="46.82166" lon="5.85923">
        <ele>655.9</ele>
        <time>2021-01-08T15:32:11Z</time>
      </trkpt>
      <trkpt lat="46.82172" lon="5.85926">
        <ele>656.5</ele>
        <time>2021-01-08T15:32:16Z</time>
      </trkpt>
      <trkpt lat="46.82177" lon="5.85928">
        <ele>657.4</ele>
        <time>2021-01-08T15:32:20Z</time>
      </trkpt>
      <trkpt lat="46.82181" lon="5.8593">
        <ele>658.4</ele>
        <time>2021-01-08T15:32:24Z</time>
      </trkpt>
      <trkpt lat="46.82185" lon="5.85935">
        <ele>659.3</ele>
        <time>2021-01-08T15:32:29Z</time>
      </trkpt>
      <trkpt lat="46.8219" lon="5.85938">
        <ele>659.4</ele>
        <time>2021-01-08T15:32:34Z</time>
      </trkpt>
      <trkpt lat="46.82195" lon="5.85939">
        <ele>659</ele>
        <time>2021-01-08T15:32:38Z</time>
      </trkpt>
      <trkpt lat="46.822" lon="5.8594">
        <ele>657.9</ele>
        <time>2021-01-08T15:32:43Z</time>
      </trkpt>
      <trkpt lat="46.82204" lon="5.85942">
        <ele>656.5</ele>
        <time>2021-01-08T15:32:48Z</time>
      </trkpt>
      <trkpt lat="46.82209" lon="5.85944">
        <ele>655.7</ele>
        <time>2021-01-08T15:32:52Z</time>
      </trkpt>
      <trkpt lat="46.82214" lon="5.85947">
        <ele>654.5</ele>
        <time>2021-01-08T15:32:57Z</time>
      </trkpt>
      <trkpt lat="46.82219" lon="5.85948">
        <ele>653.9</ele>
        <time>2021-01-08T15:33:02Z</time>
      </trkpt>
      <trkpt lat="46.82223" lon="5.8595">
        <ele>653.8</ele>
        <time>2021-01-08T15:33:06Z</time>
      </trkpt>
      <trkpt lat="46.82228" lon="5.85951">
        <ele>653.3</ele>
        <time>2021-01-08T15:33:11Z</time>
      </trkpt>
      <trkpt lat="46.82233" lon="5.85954">
        <ele>652.8</ele>
        <time>2021-01-08T15:33:16Z</time>
      </trkpt>
      <trkpt lat="46.82238" lon="5.85956">
        <ele>652.3</ele>
        <time>2021-01-08T15:33:20Z</time>
      </trkpt>
      <trkpt lat="46.82242" lon="5.85958">
        <ele>651.6</ele>
        <time>2021-01-08T15:33:24Z</time>
      </trkpt>
      <trkpt lat="46.82247" lon="5.8596">
        <ele>650.6</ele>
        <time>2021-01-08T15:33:30Z</time>
      </trkpt>
      <trkpt lat="46.82251" lon="5.85964">
        <ele>647.7</ele>
        <time>2021-01-08T15:33:39Z</time>
      </trkpt>
      <trkpt lat="46.82256" lon="5.85967">
        <ele>646.5</ele>
        <time>2021-01-08T15:33:44Z</time>
      </trkpt>
      <trkpt lat="46.82261" lon="5.8597">
        <ele>645.8</ele>
        <time>2021-01-08T15:33:49Z</time>
      </trkpt>
      <trkpt lat="46.82265" lon="5.85972">
        <ele>644.8</ele>
        <time>2021-01-08T15:33:55Z</time>
      </trkpt>
      <trkpt lat="46.82271" lon="5.85974">
        <ele>644.1</ele>
        <time>2021-01-08T15:34:00Z</time>
      </trkpt>
      <trkpt lat="46.82277" lon="5.85977">
        <ele>643.9</ele>
        <time>2021-01-08T15:34:04Z</time>
      </trkpt>
      <trkpt lat="46.82286" lon="5.85982">
        <ele>644.7</ele>
        <time>2021-01-08T15:34:08Z</time>
      </trkpt>
      <trkpt lat="46.82292" lon="5.85987">
        <ele>646.7</ele>
        <time>2021-01-08T15:34:12Z</time>
      </trkpt>
      <trkpt lat="46.82297" lon="5.85992">
        <ele>649.6</ele>
        <time>2021-01-08T15:34:17Z</time>
      </trkpt>
      <trkpt lat="46.82301" lon="5.85993">
        <ele>651.1</ele>
        <time>2021-01-08T15:34:22Z</time>
      </trkpt>
      <trkpt lat="46.82305" lon="5.85999">
        <ele>651.3</ele>
        <time>2021-01-08T15:34:27Z</time>
      </trkpt>
      <trkpt lat="46.82309" lon="5.86005">
        <ele>651.4</ele>
        <time>2021-01-08T15:34:32Z</time>
      </trkpt>
      <trkpt lat="46.82311" lon="5.86011">
        <ele>651.3</ele>
        <time>2021-01-08T15:34:37Z</time>
      </trkpt>
      <trkpt lat="46.82314" lon="5.86015">
        <ele>651.4</ele>
        <time>2021-01-08T15:34:41Z</time>
      </trkpt>
      <trkpt lat="46.82318" lon="5.86021">
        <ele>651.5</ele>
        <time>2021-01-08T15:34:45Z</time>
      </trkpt>
      <trkpt lat="46.82322" lon="5.86026">
        <ele>651.4</ele>
        <time>2021-01-08T15:34:50Z</time>
      </trkpt>
      <trkpt lat="46.82326" lon="5.86032">
        <ele>651.4</ele>
        <time>2021-01-08T15:34:55Z</time>
      </trkpt>
      <trkpt lat="46.82329" lon="5.86038">
        <ele>651.2</ele>
        <time>2021-01-08T15:35:00Z</time>
      </trkpt>
      <trkpt lat="46.82332" lon="5.86044">
        <ele>650.9</ele>
        <time>2021-01-08T15:35:05Z</time>
      </trkpt>
      <trkpt lat="46.82336" lon="5.8605">
        <ele>651</ele>
        <time>2021-01-08T15:35:10Z</time>
      </trkpt>
      <trkpt lat="46.8234" lon="5.86057">
        <ele>651.7</ele>
        <time>2021-01-08T15:35:15Z</time>
      </trkpt>
      <trkpt lat="46.82343" lon="5.86063">
        <ele>652.3</ele>
        <time>2021-01-08T15:35:19Z</time>
      </trkpt>
      <trkpt lat="46.82347" lon="5.86069">
        <ele>652.7</ele>
        <time>2021-01-08T15:35:23Z</time>
      </trkpt>
      <trkpt lat="46.8235" lon="5.86073">
        <ele>653.1</ele>
        <time>2021-01-08T15:35:27Z</time>
      </trkpt>
      <trkpt lat="46.82354" lon="5.86079">
        <ele>653.7</ele>
        <time>2021-01-08T15:35:32Z</time>
      </trkpt>
      <trkpt lat="46.82357" lon="5.86085">
        <ele>654.2</ele>
        <time>2021-01-08T15:35:37Z</time>
      </trkpt>
      <trkpt lat="46.82361" lon="5.8609">
        <ele>654.8</ele>
        <time>2021-01-08T15:35:42Z</time>
      </trkpt>
      <trkpt lat="46.82364" lon="5.86095">
        <ele>655.2</ele>
        <time>2021-01-08T15:35:47Z</time>
      </trkpt>
      <trkpt lat="46.82368" lon="5.86101">
        <ele>655.8</ele>
        <time>2021-01-08T15:35:52Z</time>
      </trkpt>
      <trkpt lat="46.82371" lon="5.86107">
        <ele>656.3</ele>
        <time>2021-01-08T15:35:57Z</time>
      </trkpt>
      <trkpt lat="46.82375" lon="5.86111">
        <ele>656.6</ele>
        <time>2021-01-08T15:36:02Z</time>
      </trkpt>
      <trkpt lat="46.82379" lon="5.86115">
        <ele>656.9</ele>
        <time>2021-01-08T15:36:06Z</time>
      </trkpt>
      <trkpt lat="46.82383" lon="5.8612">
        <ele>657.2</ele>
        <time>2021-01-08T15:36:11Z</time>
      </trkpt>
      <trkpt lat="46.82386" lon="5.86126">
        <ele>657.4</ele>
        <time>2021-01-08T15:36:16Z</time>
      </trkpt>
      <trkpt lat="46.82389" lon="5.86134">
        <ele>657.3</ele>
        <time>2021-01-08T15:36:21Z</time>
      </trkpt>
      <trkpt lat="46.82392" lon="5.8614">
        <ele>657.1</ele>
        <time>2021-01-08T15:36:25Z</time>
      </trkpt>
      <trkpt lat="46.82395" lon="5.86145">
        <ele>656.8</ele>
        <time>2021-01-08T15:36:29Z</time>
      </trkpt>
      <trkpt lat="46.82398" lon="5.8615">
        <ele>656.4</ele>
        <time>2021-01-08T15:36:34Z</time>
      </trkpt>
      <trkpt lat="46.82401" lon="5.86157">
        <ele>655.8</ele>
        <time>2021-01-08T15:36:39Z</time>
      </trkpt>
      <trkpt lat="46.824" lon="5.86163">
        <ele>654.5</ele>
        <time>2021-01-08T15:36:49Z</time>
      </trkpt>
      <trkpt lat="46.82395" lon="5.86166">
        <ele>654</ele>
        <time>2021-01-08T15:36:54Z</time>
      </trkpt>
      <trkpt lat="46.8239" lon="5.86168">
        <ele>653.7</ele>
        <time>2021-01-08T15:36:59Z</time>
      </trkpt>
      <trkpt lat="46.82385" lon="5.86171">
        <ele>653.5</ele>
        <time>2021-01-08T15:37:04Z</time>
      </trkpt>
      <trkpt lat="46.8238" lon="5.86174">
        <ele>653.2</ele>
        <time>2021-01-08T15:37:09Z</time>
      </trkpt>
      <trkpt lat="46.82376" lon="5.86178">
        <ele>653.5</ele>
        <time>2021-01-08T15:37:14Z</time>
      </trkpt>
      <trkpt lat="46.82374" lon="5.86185">
        <ele>654.7</ele>
        <time>2021-01-08T15:37:28Z</time>
      </trkpt>
      <trkpt lat="46.82369" lon="5.8619">
        <ele>654.2</ele>
        <time>2021-01-08T15:37:33Z</time>
      </trkpt>
      <trkpt lat="46.82367" lon="5.86195">
        <ele>653.6</ele>
        <time>2021-01-08T15:37:37Z</time>
      </trkpt>
      <trkpt lat="46.82365" lon="5.86203">
        <ele>652.7</ele>
        <time>2021-01-08T15:37:42Z</time>
      </trkpt>
      <trkpt lat="46.82364" lon="5.86211">
        <ele>652</ele>
        <time>2021-01-08T15:37:47Z</time>
      </trkpt>
      <trkpt lat="46.82362" lon="5.86217">
        <ele>651.6</ele>
        <time>2021-01-08T15:37:52Z</time>
      </trkpt>
      <trkpt lat="46.8236" lon="5.86224">
        <ele>651.6</ele>
        <time>2021-01-08T15:37:57Z</time>
      </trkpt>
      <trkpt lat="46.82359" lon="5.86232">
        <ele>651.7</ele>
        <time>2021-01-08T15:38:02Z</time>
      </trkpt>
      <trkpt lat="46.8236" lon="5.86239">
        <ele>652.3</ele>
        <time>2021-01-08T15:38:07Z</time>
      </trkpt>
      <trkpt lat="46.82361" lon="5.86246">
        <ele>652.9</ele>
        <time>2021-01-08T15:38:11Z</time>
      </trkpt>
      <trkpt lat="46.82362" lon="5.86253">
        <ele>653.5</ele>
        <time>2021-01-08T15:38:15Z</time>
      </trkpt>
      <trkpt lat="46.82362" lon="5.8626">
        <ele>653.7</ele>
        <time>2021-01-08T15:38:20Z</time>
      </trkpt>
      <trkpt lat="46.82362" lon="5.86267">
        <ele>654</ele>
        <time>2021-01-08T15:38:25Z</time>
      </trkpt>
      <trkpt lat="46.82361" lon="5.86274">
        <ele>654.2</ele>
        <time>2021-01-08T15:38:30Z</time>
      </trkpt>
      <trkpt lat="46.8236" lon="5.86281">
        <ele>653.9</ele>
        <time>2021-01-08T15:38:35Z</time>
      </trkpt>
      <trkpt lat="46.82359" lon="5.86288">
        <ele>653.5</ele>
        <time>2021-01-08T15:38:40Z</time>
      </trkpt>
      <trkpt lat="46.82359" lon="5.86296">
        <ele>653.2</ele>
        <time>2021-01-08T15:38:46Z</time>
      </trkpt>
      <trkpt lat="46.82359" lon="5.86303">
        <ele>652.6</ele>
        <time>2021-01-08T15:38:53Z</time>
      </trkpt>
      <trkpt lat="46.8236" lon="5.8631">
        <ele>651.2</ele>
        <time>2021-01-08T15:39:00Z</time>
      </trkpt>
      <trkpt lat="46.82359" lon="5.86317">
        <ele>650.3</ele>
        <time>2021-01-08T15:39:04Z</time>
      </trkpt>
      <trkpt lat="46.82359" lon="5.86326">
        <ele>649</ele>
        <time>2021-01-08T15:39:09Z</time>
      </trkpt>
      <trkpt lat="46.82358" lon="5.86334">
        <ele>648</ele>
        <time>2021-01-08T15:39:14Z</time>
      </trkpt>
      <trkpt lat="46.8236" lon="5.86341">
        <ele>647.1</ele>
        <time>2021-01-08T15:39:19Z</time>
      </trkpt>
      <trkpt lat="46.82359" lon="5.86348">
        <ele>646.7</ele>
        <time>2021-01-08T15:39:23Z</time>
      </trkpt>
      <trkpt lat="46.82356" lon="5.86354">
        <ele>646.5</ele>
        <time>2021-01-08T15:39:27Z</time>
      </trkpt>
      <trkpt lat="46.82353" lon="5.86358">
        <ele>646.4</ele>
        <time>2021-01-08T15:39:31Z</time>
      </trkpt>
      <trkpt lat="46.82348" lon="5.8636">
        <ele>646.6</ele>
        <time>2021-01-08T15:39:35Z</time>
      </trkpt>
      <trkpt lat="46.82343" lon="5.86363">
        <ele>646.8</ele>
        <time>2021-01-08T15:39:40Z</time>
      </trkpt>
      <trkpt lat="46.82339" lon="5.86366">
        <ele>646.6</ele>
        <time>2021-01-08T15:39:45Z</time>
      </trkpt>
      <trkpt lat="46.82334" lon="5.86368">
        <ele>646.2</ele>
        <time>2021-01-08T15:39:54Z</time>
      </trkpt>
      <trkpt lat="46.8233" lon="5.86371">
        <ele>645.8</ele>
        <time>2021-01-08T15:40:02Z</time>
      </trkpt>
      <trkpt lat="46.82325" lon="5.86373">
        <ele>644.9</ele>
        <time>2021-01-08T15:40:08Z</time>
      </trkpt>
      <trkpt lat="46.8232" lon="5.86375">
        <ele>644</ele>
        <time>2021-01-08T15:40:13Z</time>
      </trkpt>
      <trkpt lat="46.82316" lon="5.86375">
        <ele>643.7</ele>
        <time>2021-01-08T15:40:18Z</time>
      </trkpt>
      <trkpt lat="46.8231" lon="5.86375">
        <ele>643.6</ele>
        <time>2021-01-08T15:40:23Z</time>
      </trkpt>
      <trkpt lat="46.82306" lon="5.86375">
        <ele>643.8</ele>
        <time>2021-01-08T15:40:28Z</time>
      </trkpt>
      <trkpt lat="46.82301" lon="5.86375">
        <ele>643.7</ele>
        <time>2021-01-08T15:40:33Z</time>
      </trkpt>
      <trkpt lat="46.82297" lon="5.86378">
        <ele>643.6</ele>
        <time>2021-01-08T15:40:39Z</time>
      </trkpt>
      <trkpt lat="46.82292" lon="5.86382">
        <ele>644</ele>
        <time>2021-01-08T15:40:45Z</time>
      </trkpt>
      <trkpt lat="46.82289" lon="5.86386">
        <ele>644.8</ele>
        <time>2021-01-08T15:40:50Z</time>
      </trkpt>
      <trkpt lat="46.82288" lon="5.86393">
        <ele>645.2</ele>
        <time>2021-01-08T15:40:55Z</time>
      </trkpt>
      <trkpt lat="46.82287" lon="5.864">
        <ele>645.6</ele>
        <time>2021-01-08T15:41:01Z</time>
      </trkpt>
      <trkpt lat="46.82288" lon="5.86407">
        <ele>645.7</ele>
        <time>2021-01-08T15:41:06Z</time>
      </trkpt>
      <trkpt lat="46.82288" lon="5.86415">
        <ele>644.5</ele>
        <time>2021-01-08T15:41:12Z</time>
      </trkpt>
      <trkpt lat="46.82286" lon="5.86421">
        <ele>643.8</ele>
        <time>2021-01-08T15:41:18Z</time>
      </trkpt>
      <trkpt lat="46.82285" lon="5.86428">
        <ele>643</ele>
        <time>2021-01-08T15:41:23Z</time>
      </trkpt>
      <trkpt lat="46.82283" lon="5.86435">
        <ele>642.7</ele>
        <time>2021-01-08T15:41:28Z</time>
      </trkpt>
      <trkpt lat="46.82281" lon="5.86441">
        <ele>642.9</ele>
        <time>2021-01-08T15:41:33Z</time>
      </trkpt>
      <trkpt lat="46.82278" lon="5.86447">
        <ele>641.7</ele>
        <time>2021-01-08T15:41:38Z</time>
      </trkpt>
      <trkpt lat="46.82276" lon="5.86453">
        <ele>641.4</ele>
        <time>2021-01-08T15:41:43Z</time>
      </trkpt>
      <trkpt lat="46.82275" lon="5.8646">
        <ele>643.5</ele>
        <time>2021-01-08T15:41:48Z</time>
      </trkpt>
      <trkpt lat="46.82274" lon="5.86466">
        <ele>646.5</ele>
        <time>2021-01-08T15:41:53Z</time>
      </trkpt>
      <trkpt lat="46.82272" lon="5.86473">
        <ele>649.1</ele>
        <time>2021-01-08T15:41:58Z</time>
      </trkpt>
      <trkpt lat="46.82271" lon="5.8648">
        <ele>651</ele>
        <time>2021-01-08T15:42:03Z</time>
      </trkpt>
      <trkpt lat="46.82268" lon="5.86486">
        <ele>652.1</ele>
        <time>2021-01-08T15:42:09Z</time>
      </trkpt>
      <trkpt lat="46.82264" lon="5.8649">
        <ele>651.6</ele>
        <time>2021-01-08T15:42:14Z</time>
      </trkpt>
      <trkpt lat="46.82261" lon="5.86496">
        <ele>650.5</ele>
        <time>2021-01-08T15:42:20Z</time>
      </trkpt>
      <trkpt lat="46.82259" lon="5.86502">
        <ele>649.6</ele>
        <time>2021-01-08T15:42:25Z</time>
      </trkpt>
      <trkpt lat="46.82256" lon="5.86508">
        <ele>648.8</ele>
        <time>2021-01-08T15:42:30Z</time>
      </trkpt>
      <trkpt lat="46.82254" lon="5.86515">
        <ele>647.9</ele>
        <time>2021-01-08T15:42:35Z</time>
      </trkpt>
      <trkpt lat="46.82251" lon="5.8652">
        <ele>646.8</ele>
        <time>2021-01-08T15:42:40Z</time>
      </trkpt>
      <trkpt lat="46.82249" lon="5.86526">
        <ele>645.6</ele>
        <time>2021-01-08T15:42:46Z</time>
      </trkpt>
      <trkpt lat="46.82247" lon="5.86532">
        <ele>644.7</ele>
        <time>2021-01-08T15:42:51Z</time>
      </trkpt>
      <trkpt lat="46.82245" lon="5.86538">
        <ele>643.9</ele>
        <time>2021-01-08T15:42:56Z</time>
      </trkpt>
      <trkpt lat="46.82242" lon="5.86545">
        <ele>643.1</ele>
        <time>2021-01-08T15:43:01Z</time>
      </trkpt>
      <trkpt lat="46.8224" lon="5.86551">
        <ele>642.5</ele>
        <time>2021-01-08T15:43:06Z</time>
      </trkpt>
      <trkpt lat="46.82237" lon="5.86558">
        <ele>642</ele>
        <time>2021-01-08T15:43:12Z</time>
      </trkpt>
      <trkpt lat="46.82235" lon="5.86564">
        <ele>641.6</ele>
        <time>2021-01-08T15:43:17Z</time>
      </trkpt>
      <trkpt lat="46.82233" lon="5.8657">
        <ele>641.6</ele>
        <time>2021-01-08T15:43:22Z</time>
      </trkpt>
      <trkpt lat="46.82231" lon="5.86576">
        <ele>643.1</ele>
        <time>2021-01-08T15:43:41Z</time>
      </trkpt>
      <trkpt lat="46.8223" lon="5.86583">
        <ele>643.6</ele>
        <time>2021-01-08T15:43:47Z</time>
      </trkpt>
      <trkpt lat="46.8223" lon="5.8659">
        <ele>643.7</ele>
        <time>2021-01-08T15:43:51Z</time>
      </trkpt>
      <trkpt lat="46.82231" lon="5.86598">
        <ele>643.2</ele>
        <time>2021-01-08T15:43:56Z</time>
      </trkpt>
      <trkpt lat="46.82232" lon="5.86605">
        <ele>642.4</ele>
        <time>2021-01-08T15:44:01Z</time>
      </trkpt>
      <trkpt lat="46.82234" lon="5.86612">
        <ele>641.2</ele>
        <time>2021-01-08T15:44:07Z</time>
      </trkpt>
      <trkpt lat="46.82235" lon="5.86619">
        <ele>640.4</ele>
        <time>2021-01-08T15:44:12Z</time>
      </trkpt>
      <trkpt lat="46.82236" lon="5.86625">
        <ele>640.3</ele>
        <time>2021-01-08T15:44:17Z</time>
      </trkpt>
      <trkpt lat="46.82237" lon="5.86633">
        <ele>640.3</ele>
        <time>2021-01-08T15:44:22Z</time>
      </trkpt>
      <trkpt lat="46.82237" lon="5.8664">
        <ele>640.6</ele>
        <time>2021-01-08T15:44:29Z</time>
      </trkpt>
      <trkpt lat="46.8224" lon="5.86645">
        <ele>640.9</ele>
        <time>2021-01-08T15:44:42Z</time>
      </trkpt>
      <trkpt lat="46.8224" lon="5.86652">
        <ele>640.9</ele>
        <time>2021-01-08T15:44:49Z</time>
      </trkpt>
      <trkpt lat="46.82242" lon="5.86659">
        <ele>640.7</ele>
        <time>2021-01-08T15:44:54Z</time>
      </trkpt>
      <trkpt lat="46.82243" lon="5.86667">
        <ele>640</ele>
        <time>2021-01-08T15:44:59Z</time>
      </trkpt>
      <trkpt lat="46.82244" lon="5.86674">
        <ele>640</ele>
        <time>2021-01-08T15:45:21Z</time>
      </trkpt>
      <trkpt lat="46.82241" lon="5.86679">
        <ele>644</ele>
        <time>2021-01-08T15:47:18Z</time>
      </trkpt>
      <trkpt lat="46.8225" lon="5.86682">
        <ele>648.4</ele>
      </trkpt>
    </trkseg>
  </trk>
</gpx>